ftp/pub/palmer/observations_modified/2019/November/AR191125_BASE.txt

Download

Sample DateTime	Unit Id	WS Avg 2min	WD Avg 2min	WGS 10min	WGD 10min	Air Temp	Rel Humidity	Dew Point	Pyranometer	Quantum	Air Pressure	Snow Level	Rainfall	PW Current	Visibility	CBase 1	CBase 2	CBase 3	Vert Vis
2019/11/25 00:00:00	BASE	20.23	45	22.38	45	5.7	84	3.3	5	0	986.7	NA	0.0000	-RA	9999	5220	0	0	0
2019/11/25 00:01:00	BASE	19.52	45	22.38	45	5.7	84	3.2	5	0	986.7	NA	0.0000	-RA	9999	5380	0	0	0
2019/11/25 00:02:00	BASE	19.09	45	22.38	45	5.7	84	3.2	5	0	986.7	NA	0.0000	-RA	9999	5480	0	0	0
2019/11/25 00:03:00	BASE	18.65	45	22.38	45	5.7	83	3.1	6	0	986.7	NA	0.0000	-RA	9999	5410	0	0	0
2019/11/25 00:04:00	BASE	18.55	46	22.38	45	5.7	83	3.1	6	0	986.6	NA	0.0000	-RA	9999	5350	0	0	0
2019/11/25 00:05:00	BASE	19.03	46	22.38	45	5.7	83	3.1	6	0	986.6	NA	0.0000	-RA	9999	5320	0	0	0
2019/11/25 00:06:00	BASE	19.08	45	22.38	45	5.7	83	3.1	5	0	986.7	NA	0.0000	-RA	9999	5410	0	0	0
2019/11/25 00:07:00	BASE	20.42	44	23.05	43	5.7	83	3.0	5	0	986.6	NA	0.0000	-RA	9999	5320	0	0	0
2019/11/25 00:08:00	BASE	21.02	44	23.05	43	5.8	83	3.0	5	0	986.7	NA	0.0000	-RA	9999	5090	0	0	0
2019/11/25 00:09:00	BASE	19.49	43	23.05	43	5.8	82	3.0	5	0	986.8	NA	0.0000	-RA	9999	5090	0	0	0
2019/11/25 00:10:00	BASE	19.03	42	23.05	43	5.9	82	3.0	5	0	986.7	NA	0.0000	-RA	9999	4560	5180	0	0
2019/11/25 00:11:00	BASE	19.70	41	23.05	43	5.9	81	2.9	5	0	986.8	NA	0.0000		9999	4490	0	0	0
2019/11/25 00:12:00	BASE	19.89	43	23.05	43	6.0	81	2.9	5	0	986.8	NA	0.0000		9999	4820	0	0	0
2019/11/25 00:13:00	BASE	20.10	44	23.05	43	6.1	80	2.9	5	0	986.7	NA	0.0000		9999	4860	5220	0	0
2019/11/25 00:14:00	BASE	20.66	43	23.05	43	6.2	79	2.9	5	0	986.8	NA	0.0000		9999	5220	0	0	0
2019/11/25 00:15:00	BASE	20.53	44	23.05	43	6.2	79	2.8	5	0	986.8	NA	0.0000		9999	5220	0	0	0
2019/11/25 00:16:00	BASE	19.36	45	23.05	43	6.3	78	2.8	4	0	986.9	NA	0.0000		9999	5220	0	0	0
2019/11/25 00:17:00	BASE	19.11	45	22.53	47	6.3	78	2.7	4	0	986.9	NA	0.0000		9999	5150	0	0	0
2019/11/25 00:18:00	BASE	18.41	45	22.53	47	6.4	77	2.7	4	0	987.1	NA	0.0000		9999	5220	0	0	0
2019/11/25 00:19:00	BASE	16.75	42	22.53	47	6.4	77	2.7	4	0	987.2	NA	0.0000		9999	5350	0	0	0
2019/11/25 00:20:00	BASE	16.25	41	22.53	47	6.4	77	2.6	4	0	987.3	NA	0.0000		9999	5510	0	0	0
2019/11/25 00:21:00	BASE	14.95	42	22.48	40	6.4	77	2.6	4	0	987.4	NA	0.0000		9999	5180	0	0	0
2019/11/25 00:22:00	BASE	14.77	41	22.48	40	6.4	76	2.6	4	0	987.3	NA	0.0000		9999	5120	0	0	0
2019/11/25 00:23:00	BASE	15.58	41	22.48	40	6.4	76	2.6	4	0	987.3	NA	0.0000		9999	5050	0	0	0
2019/11/25 00:24:00	BASE	14.49	39	22.48	40	6.4	76	2.5	4	0	987.4	NA	0.0000		9999	5050	0	0	0
2019/11/25 00:25:00	BASE	13.44	39	22.48	40	6.4	76	2.5	4	0	987.5	NA	0.0000		9999	5090	0	0	0
2019/11/25 00:26:00	BASE	12.91	40	22.48	40	6.4	76	2.5	4	0	987.6	NA	0.0000		9999	5020	0	0	0
2019/11/25 00:27:00	BASE	12.37	42	19.39	47	6.4	76	2.5	4	0	987.6	NA	0.0000		9999	4990	0	0	0
2019/11/25 00:28:00	BASE	12.93	43	18.06	33	6.4	76	2.5	4	0	987.6	NA	0.0000		9999	4950	0	0	0
2019/11/25 00:29:00	BASE	13.25	43	18.06	33	6.4	76	2.5	4	0	987.7	NA	0.0000		9999	4920	0	0	0
2019/11/25 00:30:00	BASE	12.72	42	18.06	33	6.4	76	2.5	4	0	987.8	NA	0.0000		9999	4890	0	0	0
2019/11/25 00:31:00	BASE	11.80	43	18.06	33	6.4	76	2.4	4	0	987.9	NA	0.0000		9999	4860	0	0	0
2019/11/25 00:32:00	BASE	11.60	44	18.06	33	6.4	76	2.5	4	0	987.8	NA	0.0000		9999	4760	0	0	0
2019/11/25 00:33:00	BASE	11.15	47	14.97	34	6.4	76	2.5	4	0	987.9	NA	0.0000		9999	4790	0	0	0
2019/11/25 00:34:00	BASE	9.85	49	14.97	34	6.3	77	2.5	3	0	987.9	NA	0.0000		9999	4860	0	0	0
2019/11/25 00:35:00	BASE	9.89	54	14.82	47	6.3	77	2.5	3	0	987.9	NA	0.0000		9999	4820	0	0	0
2019/11/25 00:36:00	BASE	9.93	49	14.82	47	6.2	77	2.5	3	0	988.1	NA	0.0000		9999	4890	0	0	0
2019/11/25 00:37:00	BASE	9.71	37	14.82	47	6.1	77	2.4	3	0	988.1	NA	0.0000		9999	4890	0	0	0
2019/11/25 00:38:00	BASE	10.05	37	14.25	42	5.9	77	2.2	3	0	988.1	NA	0.0000		9999	4890	0	0	0
2019/11/25 00:39:00	BASE	10.12	38	13.63	43	5.7	78	2.1	3	0	988.2	NA	0.0000		9999	4920	0	0	0
2019/11/25 00:40:00	BASE	8.87	36	13.27	39	5.5	79	2.1	3	0	988.3	NA	0.0000		9999	4920	0	0	0
2019/11/25 00:41:00	BASE	8.25	33	13.27	39	5.2	80	2.0	2	0	988.4	NA	0.0000		9999	4820	0	0	0
2019/11/25 00:42:00	BASE	8.05	36	12.71	24	5.1	81	2.0	2	0	988.4	NA	0.0000		9999	4760	0	0	0
2019/11/25 00:43:00	BASE	8.24	40	12.71	24	5.0	82	2.1	2	0	988.4	NA	0.0000		9999	4720	0	0	0
2019/11/25 00:44:00	BASE	8.69	39	12.71	24	4.8	82	2.1	2	0	988.5	NA	0.0000		9999	4760	0	0	0
2019/11/25 00:45:00	BASE	8.16	48	12.71	24	4.7	83	2.1	2	0	988.6	NA	0.0000		9999	4760	0	0	0
2019/11/25 00:46:00	BASE	6.92	56	12.71	24	4.6	84	2.1	2	0	988.8	NA	0.0000		9999	4430	0	0	0
2019/11/25 00:47:00	BASE	6.42	54	12.55	32	4.5	85	2.2	2	0	988.8	NA	0.0000		9999	4490	0	0	0
2019/11/25 00:48:00	BASE	6.71	43	12.14	38	4.5	86	2.3	2	0	988.8	NA	0.0000		9999	4490	0	0	0
2019/11/25 00:49:00	BASE	7.43	38	12.14	38	4.5	86	2.4	2	0	988.7	NA	0.0000		9999	4330	0	0	0
2019/11/25 00:50:00	BASE	9.39	40	12.45	35	4.4	87	2.4	2	0	988.6	NA	0.0000		9999	4230	0	0	0
2019/11/25 00:51:00	BASE	10.25	44	12.86	49	4.4	87	2.4	2	0	988.6	NA	0.0000		9999	4100	0	0	0
2019/11/25 00:52:00	BASE	10.27	43	14.10	38	4.3	87	2.4	2	0	988.5	NA	0.0000		9999	4070	0	0	0
2019/11/25 00:53:00	BASE	10.73	37	14.10	38	4.2	88	2.4	1	0	988.4	NA	0.0000		9999	4200	0	0	0
2019/11/25 00:54:00	BASE	11.13	35	14.10	38	4.2	88	2.4	1	0	988.4	NA	0.0000		9999	4270	0	0	0
2019/11/25 00:55:00	BASE	10.99	34	14.10	38	4.2	89	2.4	1	0	988.3	NA	0.0000		9999	4330	0	0	0
2019/11/25 00:56:00	BASE	10.71	34	14.10	38	4.1	89	2.4	1	0	988.3	NA	0.0000	-RA	9999	4360	0	0	0
2019/11/25 00:57:00	BASE	10.66	34	14.10	38	4.0	89	2.4	1	0	988.3	NA	0.0000	-RA	9999	4330	0	0	0
2019/11/25 00:58:00	BASE	10.69	41	14.10	38	3.9	89	2.3	1	0	988.3	NA	0.0000	-RA	9999	4330	0	0	0
2019/11/25 00:59:00	BASE	11.03	48	14.10	38	3.8	90	2.3	1	0	988.3	NA	0.0000	-RA	9999	4360	0	0	0
2019/11/25 01:00:00	BASE	11.05	47	14.35	26	3.8	90	2.3	1	0	988.3	NA	0.0000	-RA	9999	4400	0	0	0
2019/11/25 01:01:00	BASE	11.13	45	14.35	26	3.7	91	2.4	1	0	988.2	NA	0.0000	-RA	9999	4400	0	0	0
2019/11/25 01:02:00	BASE	11.91	46	14.97	32	3.7	91	2.4	1	0	988.1	NA	0.0000	-RA	9999	4360	0	0	0
2019/11/25 01:03:00	BASE	11.82	48	14.97	32	3.7	92	2.5	1	0	988.2	NA	0.0000	-RA	9999	4400	5480	0	0
2019/11/25 01:04:00	BASE	11.20	48	14.97	32	3.7	92	2.5	1	0	988.2	NA	0.0000	-RA	9999	4560	5580	0	0
2019/11/25 01:05:00	BASE	11.42	45	14.97	32	3.7	92	2.6	1	0	988.1	NA	0.0000	-RA	9999	5580	0	0	0
2019/11/25 01:06:00	BASE	12.31	44	15.43	36	3.8	92	2.6	1	0	988.0	NA	0.0000	-RA	9999	5610	0	0	0
2019/11/25 01:07:00	BASE	12.82	43	15.84	50	3.8	92	2.6	1	0	988.0	NA	0.0000	-RA	9999	5810	0	0	0
2019/11/25 01:08:00	BASE	12.72	40	15.84	50	3.8	92	2.6	1	0	988.1	NA	0.0000	-RA	9999	6040	0	0	0
2019/11/25 01:09:00	BASE	12.83	40	15.84	50	3.9	91	2.6	1	0	988.1	NA	0.0000		9999	5870	0	0	0
2019/11/25 01:10:00	BASE	12.36	38	15.84	50	3.9	91	2.6	1	0	988.2	NA	0.0000		9999	5220	0	0	0
2019/11/25 01:11:00	BASE	11.85	36	15.84	50	4.0	91	2.6	1	0	988.2	NA	0.0000		9999	5320	0	0	0
2019/11/25 01:12:00	BASE	11.73	36	15.84	50	4.0	90	2.6	1	0	988.3	NA	0.0000		9999	5540	0	0	0
2019/11/25 01:13:00	BASE	11.26	38	15.84	50	4.0	90	2.5	1	0	988.4	NA	0.0000		9999	5450	0	0	0
2019/11/25 01:14:00	BASE	10.48	40	15.84	50	4.0	90	2.5	1	0	988.5	NA	0.0000		9999	5120	0	0	0
2019/11/25 01:15:00	BASE	9.53	42	15.84	50	4.0	90	2.5	1	0	988.5	NA	0.0000		9999	5580	0	0	0
2019/11/25 01:16:00	BASE	9.34	44	15.84	50	4.0	90	2.5	1	0	988.5	NA	0.0000		9999	5380	0	0	0
2019/11/25 01:17:00	BASE	9.91	41	14.71	39	4.0	90	2.5	1	0	988.4	NA	0.0000		9999	5320	0	0	0
2019/11/25 01:18:00	BASE	11.35	36	14.61	45	4.0	90	2.5	1	0	988.3	NA	0.0000		9999	5410	0	0	0
2019/11/25 01:19:00	BASE	13.27	30	17.13	22	4.0	90	2.5	1	0	988.2	NA	0.0000		9999	5090	0	0	0
2019/11/25 01:20:00	BASE	15.28	28	19.24	27	4.0	90	2.4	1	0	988.0	NA	0.0000		9999	5020	0	0	0
2019/11/25 01:21:00	BASE	15.74	28	19.24	27	4.0	89	2.4	1	0	988.2	NA	0.0000		9999	5280	0	0	0
2019/11/25 01:22:00	BASE	15.36	28	19.24	27	4.0	89	2.3	1	0	988.2	NA	0.0000		9999	5150	0	0	0
2019/11/25 01:23:00	BASE	15.81	27	19.24	27	4.0	89	2.2	1	0	988.2	NA	0.0000		9999	4890	0	0	0
2019/11/25 01:24:00	BASE	15.62	25	19.24	27	3.9	88	2.2	1	0	988.3	NA	0.0000		9999	4860	0	0	0
2019/11/25 01:25:00	BASE	15.16	24	19.24	27	3.9	88	2.1	1	0	988.3	NA	0.0000		9999	4860	0	0	0
2019/11/25 01:26:00	BASE	15.35	24	19.24	27	3.8	88	2.0	1	0	988.3	NA	0.0000		9999	5020	0	0	0
2019/11/25 01:27:00	BASE	15.00	24	19.24	27	3.8	88	2.0	1	0	988.3	NA	0.0000		9999	5050	0	0	0
2019/11/25 01:28:00	BASE	13.93	25	19.24	27	3.7	88	1.9	1	0	988.3	NA	0.0000		9999	4920	0	0	0
2019/11/25 01:29:00	BASE	13.32	28	19.24	27	3.7	88	1.9	1	0	988.3	NA	0.0000		9999	4860	0	0	0
2019/11/25 01:30:00	BASE	13.40	27	18.42	23	3.7	89	2.0	1	0	988.3	NA	0.0000		9999	4560	0	0	0
2019/11/25 01:31:00	BASE	14.11	22	18.42	23	3.7	89	2.0	1	0	988.3	NA	0.0000		9999	3970	4630	0	0
2019/11/25 01:32:00	BASE	14.45	20	18.42	23	3.6	89	2.0	0	0	988.3	NA	0.0000		9999	3940	0	0	0
2019/11/25 01:33:00	BASE	14.46	21	18.31	29	3.6	89	2.0	1	0	988.4	NA	0.0000		9999	3970	0	0	0
2019/11/25 01:34:00	BASE	14.33	20	17.44	29	3.6	90	2.0	0	0	988.5	NA	0.0000		9999	4040	4690	0	0
2019/11/25 01:35:00	BASE	14.08	22	17.34	24	3.5	90	2.0	0	0	988.6	NA	0.0000		9999	4590	0	0	0
2019/11/25 01:36:00	BASE	13.53	21	16.31	26	3.5	90	2.0	0	0	988.7	NA	0.0000		9999	3900	0	0	0
2019/11/25 01:37:00	BASE	12.98	21	16.31	26	3.5	90	2.0	0	0	988.8	NA	0.0000		9999	3900	0	0	0
2019/11/25 01:38:00	BASE	12.08	23	16.10	15	3.5	90	2.0	0	0	988.9	NA	0.0000		9999	3740	0	0	0
2019/11/25 01:39:00	BASE	10.98	21	16.10	15	3.5	90	2.0	0	0	989.0	NA	0.0000		9999	3740	0	0	0
2019/11/25 01:40:00	BASE	11.17	18	16.10	15	3.5	90	2.0	0	0	989.0	NA	0.0000		9999	3740	0	0	0
2019/11/25 01:41:00	BASE	11.39	19	16.10	15	3.5	90	2.0	0	0	989.1	NA	0.0000		9999	3670	0	0	0
2019/11/25 01:42:00	BASE	11.10	21	16.10	15	3.5	90	2.0	0	0	989.2	NA	0.0000		9999	3640	0	0	0
2019/11/25 01:43:00	BASE	10.29	19	15.69	24	3.5	90	2.0	0	0	989.3	NA	0.0000		9999	3610	0	0	0
2019/11/25 01:44:00	BASE	10.02	15	15.07	24	3.5	90	2.0	0	0	989.3	NA	0.0000		9999	3540	0	0	0
2019/11/25 01:45:00	BASE	9.51	17	14.82	21	3.5	91	2.1	0	0	989.4	NA	0.0000		9999	3480	0	0	0
2019/11/25 01:46:00	BASE	8.30	24	14.82	21	3.5	91	2.2	0	0	989.5	NA	0.0000		9999	3480	0	0	0
2019/11/25 01:47:00	BASE	7.64	26	12.45	26	3.6	91	2.2	0	0	989.6	NA	0.0000		9999	3480	0	0	0
2019/11/25 01:48:00	BASE	7.88	22	12.14	17	3.6	91	2.3	0	0	989.6	NA	0.0000		9999	3410	0	0	0
2019/11/25 01:49:00	BASE	8.20	21	12.14	17	3.7	91	2.4	0	0	989.6	NA	0.0000		9999	3350	0	0	0
2019/11/25 01:50:00	BASE	8.88	20	12.14	17	3.8	91	2.4	0	0	989.6	NA	0.0000		9999	3540	0	0	0
2019/11/25 01:51:00	BASE	9.73	21	11.63	21	3.9	91	2.5	0	0	989.6	NA	0.0000		9999	460	0	0	0
2019/11/25 01:52:00	BASE	9.18	26	11.42	10	3.9	91	2.5	0	0	989.7	NA	0.0000	UP	9999	3410	0	0	0
2019/11/25 01:53:00	BASE	8.94	24	11.42	10	3.9	91	2.5	0	0	989.7	NA	0.0000	UP	9999	3510	0	0	0
2019/11/25 01:54:00	BASE	9.09	21	10.80	13	3.9	91	2.5	0	0	989.7	NA	0.0000	UP	9999	3350	0	0	0
2019/11/25 01:55:00	BASE	8.57	22	10.80	13	3.8	91	2.4	0	0	989.7	NA	0.0000	UP	9999	430	0	0	0
2019/11/25 01:56:00	BASE	7.64	20	10.80	13	3.8	91	2.4	0	0	989.8	NA	0.0000	UP	9999	3510	0	0	0
2019/11/25 01:57:00	BASE	6.72	19	10.80	13	3.8	91	2.5	0	0	989.8	NA	0.0000	UP	9999	3510	0	0	0
2019/11/25 01:58:00	BASE	5.83	22	10.80	13	3.8	92	2.6	0	0	989.8	NA	0.0000	UP	9999	3710	0	0	0
2019/11/25 01:59:00	BASE	5.04	21	10.80	13	3.9	92	2.7	0	0	989.8	NA	0.0000	UP	9999	3380	0	0	0
2019/11/25 02:00:00	BASE	5.95	21	10.44	27	4.0	92	2.8	0	0	989.7	NA	0.0000	UP	9999	3740	0	0	0
2019/11/25 02:01:00	BASE	7.57	27	10.44	27	4.0	92	2.8	0	0	989.7	NA	0.0000	UP	9999	3450	0	0	0
2019/11/25 02:02:00	BASE	8.18	33	10.39	18	4.1	92	2.9	0	0	989.7	NA	0.0000	UP	9999	3670	0	0	0
2019/11/25 02:03:00	BASE	8.91	35	10.80	20	4.1	92	2.9	0	0	989.5	NA	0.0000	UP	9999	4100	0	0	0
2019/11/25 02:04:00	BASE	9.39	37	10.91	36	4.1	92	2.9	0	0	989.4	NA	0.0000	UP	9999	4330	0	0	0
2019/11/25 02:05:00	BASE	10.12	39	12.14	33	4.1	92	2.9	0	0	989.3	NA	0.0000	UP	9999	5050	0	0	0
2019/11/25 02:06:00	BASE	11.57	38	14.46	37	4.1	91	2.8	0	0	989.2	NA	0.0000	UP	9999	5380	0	0	0
2019/11/25 02:07:00	BASE	12.42	34	14.46	37	4.1	91	2.8	0	0	989.1	NA	0.0000	UP	9999	5640	0	0	0
2019/11/25 02:08:00	BASE	13.24	33	15.38	31	4.1	91	2.8	0	0	989.1	NA	0.0000	UP	9999	5680	0	0	0
2019/11/25 02:09:00	BASE	13.65	34	15.64	29	4.1	92	2.8	0	0	989.1	NA	0.0000	UP	9999	6170	0	0	0
2019/11/25 02:10:00	BASE	13.45	31	16.36	32	4.1	92	2.8	0	0	989.1	NA	0.0000	UP	9999	6270	0	0	0
2019/11/25 02:11:00	BASE	13.28	32	16.36	32	4.1	92	2.8	0	0	989.1	NA	0.0000	UP	9999	6460	0	0	0
2019/11/25 02:12:00	BASE	13.40	30	16.36	32	4.1	91	2.8	0	0	989.0	NA	0.0000	UP	9999	6530	0	0	0
2019/11/25 02:13:00	BASE	13.16	29	16.36	32	4.1	91	2.8	0	0	989.1	NA	0.0000	UP	9999	6560	0	0	0
2019/11/25 02:14:00	BASE	13.21	31	16.36	32	4.1	91	2.7	0	0	989.0	NA	0.0000	UP	9999	6560	0	0	0
2019/11/25 02:15:00	BASE	13.33	31	16.36	32	4.1	91	2.7	0	0	989.0	NA	0.0000	UP	9999	6560	0	0	0
2019/11/25 02:16:00	BASE	13.05	30	16.36	32	4.2	90	2.7	0	0	989.0	NA	0.0000	UP	9999	6500	0	0	0
2019/11/25 02:17:00	BASE	12.17	29	16.36	32	4.2	90	2.7	0	0	989.1	NA	0.0000	UP	9999	6590	0	0	0
2019/11/25 02:18:00	BASE	11.53	28	16.36	32	4.1	90	2.6	0	0	989.0	NA	0.0000		9999	6590	0	0	0
2019/11/25 02:19:00	BASE	12.01	25	16.36	32	4.1	89	2.5	0	0	989.0	NA	0.0000		9999	6690	0	0	0
2019/11/25 02:20:00	BASE	12.37	23	15.28	35	4.1	89	2.5	0	0	988.9	NA	0.0000		9999	6690	0	0	0
2019/11/25 02:21:00	BASE	12.15	24	15.28	35	4.1	89	2.4	0	0	989.0	NA	0.0000		9999	6760	0	0	0
2019/11/25 02:22:00	BASE	11.57	24	15.28	35	4.1	89	2.4	0	0	989.0	NA	0.0000		9999	6730	0	0	0
2019/11/25 02:23:00	BASE	11.94	23	15.28	35	4.1	88	2.4	0	0	988.9	NA	0.0000		9999	6730	0	0	0
2019/11/25 02:24:00	BASE	12.58	24	14.40	32	4.1	88	2.3	0	0	988.9	NA	0.0000		9999	6100	0	0	0
2019/11/25 02:25:00	BASE	12.75	24	14.40	32	4.1	88	2.3	0	0	988.9	NA	0.0000		9999	5870	6590	0	0
2019/11/25 02:26:00	BASE	12.86	23	14.35	18	4.1	89	2.3	0	0	988.9	NA	0.0000		9999	6730	0	0	0
2019/11/25 02:27:00	BASE	13.45	23	14.97	21	4.1	89	2.4	0	0	988.8	NA	0.0000		9999	6730	0	0	0
2019/11/25 02:28:00	BASE	13.76	22	14.97	21	4.2	89	2.5	0	0	988.9	NA	0.0000		9999	6760	0	0	0
2019/11/25 02:29:00	BASE	13.35	22	14.97	21	4.2	89	2.5	0	0	988.9	NA	0.0000		9999	6690	0	0	0
2019/11/25 02:30:00	BASE	12.94	22	14.97	21	4.2	88	2.5	0	0	988.9	NA	0.0000		9999	6760	0	0	0
2019/11/25 02:31:00	BASE	13.33	19	14.97	21	4.3	88	2.4	0	0	988.8	NA	0.0000		9999	6860	0	0	0
2019/11/25 02:32:00	BASE	13.53	19	14.97	21	4.3	87	2.4	0	0	988.8	NA	0.0000	-RA	9999	6790	0	0	0
2019/11/25 02:33:00	BASE	13.58	21	15.54	17	4.3	87	2.3	0	0	988.8	NA	0.0000	-RA	9999	0	0	0	6760
2019/11/25 02:34:00	BASE	13.58	23	15.54	17	4.2	87	2.3	0	0	988.8	NA	0.0000	-RA	9999	6560	0	0	0
2019/11/25 02:35:00	BASE	13.49	26	15.54	17	4.2	87	2.3	0	0	988.8	NA	0.0000	-RA	9999	6560	0	0	0
2019/11/25 02:36:00	BASE	13.17	26	15.54	17	4.2	87	2.3	0	0	988.9	NA	0.0000	-RA	9999	0	0	0	5580
2019/11/25 02:37:00	BASE	12.37	25	15.54	17	4.2	87	2.3	0	0	988.9	NA	0.0000	-RA	9999	0	0	0	4690
2019/11/25 02:38:00	BASE	11.78	24	15.54	17	4.2	87	2.3	0	0	989.0	NA	0.0000	-RA	9999	0	0	0	4490
2019/11/25 02:39:00	BASE	11.52	24	15.54	17	4.2	87	2.3	0	0	989.0	NA	0.0000	-RA	9999	0	0	0	4430
2019/11/25 02:40:00	BASE	11.83	23	15.54	17	4.2	87	2.3	0	0	988.9	NA	0.0000	-RA	9999	0	0	0	3840
2019/11/25 02:41:00	BASE	11.52	20	15.54	17	4.2	88	2.3	0	0	989.0	NA	0.0000	-RA	9999	0	0	0	3610
2019/11/25 02:42:00	BASE	12.12	20	15.54	17	4.2	88	2.3	0	0	988.9	NA	0.0000	-RA	9999	0	0	0	3540
2019/11/25 02:43:00	BASE	12.89	20	15.28	36	4.1	88	2.3	0	0	988.9	NA	0.0000	-RA	9999	0	0	0	3640
2019/11/25 02:44:00	BASE	12.08	21	15.28	36	4.1	88	2.3	0	0	989.0	NA	0.0000	-RA	9999	0	0	0	3510
2019/11/25 02:45:00	BASE	12.03	25	14.92	24	4.0	89	2.3	0	0	989.0	NA	0.0000	-RA	9999	0	0	0	3150
2019/11/25 02:46:00	BASE	12.62	27	15.48	25	4.0	89	2.3	0	0	989.0	NA	0.0000	-RA	9999	0	0	0	2920
2019/11/25 02:47:00	BASE	13.32	28	15.79	35	4.0	89	2.4	0	0	988.8	NA	0.0000	-RA	9999	390	0	0	0
2019/11/25 02:48:00	BASE	12.86	28	15.79	35	4.0	90	2.5	0	0	988.9	NA	0.0000	-RA	8000	360	0	0	0
2019/11/25 02:49:00	BASE	12.74	27	15.79	35	4.0	90	2.5	0	0	988.8	NA	0.0000	-RA	7000	0	0	0	3180
2019/11/25 02:50:00	BASE	13.50	27	15.79	35	4.0	90	2.5	0	0	988.8	NA	0.0000	-RA	4600	0	0	0	2820
2019/11/25 02:51:00	BASE	13.02	26	15.79	35	4.0	91	2.6	0	0	988.9	NA	0.2540	-RA BR	6000	430	0	0	0
2019/11/25 02:52:00	BASE	12.78	27	15.79	35	3.9	91	2.6	0	0	988.8	NA	0.0000	-RA BR	5000	390	0	0	0
2019/11/25 02:53:00	BASE	13.47	30	16.36	26	3.9	91	2.5	0	0	988.7	NA	0.0000	-RA BR	4200	360	1440	0	0
2019/11/25 02:54:00	BASE	14.35	30	16.57	29	3.8	91	2.5	0	0	988.6	NA	0.0000	-RA BR	4000	360	1410	0	0
2019/11/25 02:55:00	BASE	14.43	31	16.57	29	3.8	91	2.5	0	0	988.7	NA	0.0000	-RA BR	3700	390	0	0	0
2019/11/25 02:56:00	BASE	14.52	32	16.57	29	3.8	92	2.5	0	0	988.6	NA	0.0000	BR	3800	0	0	0	3050
2019/11/25 02:57:00	BASE	15.02	32	16.57	29	3.7	92	2.5	0	0	988.6	NA	0.0000	BR	3900	0	0	0	3080
2019/11/25 02:58:00	BASE	15.34	32	17.03	28	3.7	92	2.5	0	0	988.5	NA	0.0000	BR	4100	850	0	0	0
2019/11/25 02:59:00	BASE	14.69	36	17.03	28	3.7	92	2.5	0	0	988.5	NA	0.0000	BR	3600	0	0	0	2920
2019/11/25 03:00:00	BASE	14.11	37	17.03	28	3.6	92	2.5	0	0	988.4	NA	0.0000	BR	4600	0	0	0	3150
2019/11/25 03:01:00	BASE	14.01	37	17.03	28	3.6	93	2.5	0	0	988.4	NA	0.0000	BR	9999	0	0	0	3150
2019/11/25 03:02:00	BASE	14.04	41	17.03	28	3.6	93	2.6	0	0	988.2	NA	0.0000	BR	9000	0	0	0	3710
2019/11/25 03:03:00	BASE	14.37	44	17.03	28	3.6	93	2.6	0	0	988.2	NA	0.0000	BR	7000	0	0	0	4590
2019/11/25 03:04:00	BASE	14.94	45	17.95	42	3.6	93	2.6	0	0	988.2	NA	0.0000	BR	8000	0	0	0	4950
2019/11/25 03:05:00	BASE	15.74	45	17.95	42	3.7	93	2.6	0	0	988.1	NA	0.2540	BR	7000	0	0	0	4890
2019/11/25 03:06:00	BASE	15.69	47	17.95	42	3.7	93	2.7	0	0	988.0	NA	0.0000	BR	9999	0	0	0	4950
2019/11/25 03:07:00	BASE	15.48	50	17.95	42	3.7	93	2.7	0	0	988.0	NA	0.0000	BR	9999	0	0	0	5090
2019/11/25 03:08:00	BASE	15.50	51	18.11	49	3.7	93	2.7	0	0	987.9	NA	0.0000	BR	9999	0	0	0	5280
2019/11/25 03:09:00	BASE	15.86	51	18.11	49	3.7	93	2.7	0	0	987.9	NA	0.0000	BR	9999	0	0	0	5450
2019/11/25 03:10:00	BASE	16.39	51	18.11	49	3.7	93	2.7	0	0	987.9	NA	0.0000		9999	0	0	0	5710
2019/11/25 03:11:00	BASE	15.87	51	18.11	49	3.8	93	2.7	0	0	987.9	NA	0.0000		9999	0	0	0	5910
2019/11/25 03:12:00	BASE	14.73	53	18.11	49	3.8	93	2.7	0	0	987.9	NA	0.0000		9999	0	0	0	6000
2019/11/25 03:13:00	BASE	15.00	53	18.11	49	3.8	93	2.7	0	0	987.9	NA	0.0000		9999	0	0	0	3080
2019/11/25 03:14:00	BASE	15.32	52	18.11	49	3.9	92	2.8	0	0	987.9	NA	0.0000		9999	0	0	0	2330
2019/11/25 03:15:00	BASE	15.06	51	18.11	49	3.9	92	2.7	0	0	988.0	NA	0.0000		9999	0	0	0	2300
2019/11/25 03:16:00	BASE	14.74	52	18.11	49	3.9	92	2.7	0	0	988.0	NA	0.0000		9999	0	0	0	3670
2019/11/25 03:17:00	BASE	13.99	53	18.11	49	4.0	91	2.7	0	0	988.0	NA	0.0000		9999	0	0	0	2590
2019/11/25 03:18:00	BASE	13.74	54	17.65	45	4.0	91	2.7	0	0	988.0	NA	0.0000		9999	0	0	0	3510
2019/11/25 03:19:00	BASE	14.24	56	17.65	45	4.0	91	2.6	0	0	988.0	NA	0.0000		9999	0	0	0	3410
2019/11/25 03:20:00	BASE	14.40	57	17.44	51	4.0	90	2.6	0	0	988.0	NA	0.0000		9999	0	0	0	2490
2019/11/25 03:21:00	BASE	13.72	55	17.44	51	4.0	90	2.5	0	0	988.1	NA	0.0000		9999	0	0	0	2100
2019/11/25 03:22:00	BASE	13.45	55	17.44	51	4.0	90	2.5	0	0	988.1	NA	0.0000		9999	0	0	0	1050
2019/11/25 03:23:00	BASE	13.39	55	16.51	45	4.1	89	2.5	0	0	988.2	NA	0.0000		9999	6960	0	0	0
2019/11/25 03:24:00	BASE	12.90	55	16.51	45	4.1	89	2.5	0	0	988.2	NA	0.0000		9999	7150	0	0	0
2019/11/25 03:25:00	BASE	12.23	52	16.41	55	4.1	89	2.4	0	0	988.2	NA	0.0000		9999	7090	0	0	0
2019/11/25 03:26:00	BASE	11.82	51	16.20	56	4.1	89	2.4	0	0	988.3	NA	0.0000		9999	6890	0	0	0
2019/11/25 03:27:00	BASE	11.31	50	16.20	56	4.1	89	2.4	0	0	988.4	NA	0.0000		9999	7780	0	0	0
2019/11/25 03:28:00	BASE	10.94	49	16.20	56	4.0	89	2.4	0	0	988.4	NA	0.0000		9999	9680	0	0	0
2019/11/25 03:29:00	BASE	11.12	52	16.20	56	4.0	89	2.3	0	0	988.4	NA	0.0000		9999	10270	0	0	0
2019/11/25 03:30:00	BASE	10.76	56	14.71	59	4.1	88	2.3	0	0	988.4	NA	0.0000		9999	10930	0	0	0
2019/11/25 03:31:00	BASE	9.77	58	14.71	59	4.1	88	2.3	0	0	988.5	NA	0.0000		9999	10890	0	0	0
2019/11/25 03:32:00	BASE	9.58	57	14.35	51	4.1	88	2.3	0	0	988.6	NA	0.0000		9999	10830	0	0	0
2019/11/25 03:33:00	BASE	9.64	54	14.35	51	4.2	87	2.3	0	0	988.7	NA	0.0000		9999	10960	0	0	0
2019/11/25 03:34:00	BASE	8.59	53	13.84	42	4.3	87	2.3	0	0	988.7	NA	0.0000		9999	10890	0	0	0
2019/11/25 03:35:00	BASE	7.86	57	12.86	55	4.3	87	2.2	0	0	988.8	NA	0.0000		9999	10960	0	0	0
2019/11/25 03:36:00	BASE	7.46	59	12.71	56	4.3	86	2.2	0	0	988.9	NA	0.0000		9999	11060	0	0	0
2019/11/25 03:37:00	BASE	7.22	62	12.71	56	4.3	86	2.2	0	0	988.9	NA	0.0000		9999	11090	0	0	0
2019/11/25 03:38:00	BASE	6.82	66	12.55	53	4.4	86	2.2	0	0	989.0	NA	0.0000		9999	11250	0	0	0
2019/11/25 03:39:00	BASE	5.83	66	11.68	51	4.4	85	2.2	0	0	989.0	NA	0.0000		9999	11250	0	0	0
2019/11/25 03:40:00	BASE	4.97	65	11.68	51	4.5	85	2.2	0	0	989.1	NA	0.0000		9999	11160	0	0	0
2019/11/25 03:41:00	BASE	4.45	65	11.68	51	4.5	85	2.1	0	0	989.1	NA	0.0000		9999	11020	0	0	0
2019/11/25 03:42:00	BASE	4.52	63	11.11	51	4.5	84	2.1	0	0	989.1	NA	0.0000		9999	10930	0	0	0
2019/11/25 03:43:00	BASE	4.57	58	8.54	49	4.5	84	2.1	0	0	989.2	NA	0.0000		9999	10990	0	0	0
2019/11/25 03:44:00	BASE	4.08	50	8.44	67	4.5	84	2.0	0	0	989.3	NA	0.0000		9999	10930	0	0	0
2019/11/25 03:45:00	BASE	3.71	43	8.44	67	4.5	84	1.9	0	0	989.4	NA	0.0000		9999	4270	11020	0	0
2019/11/25 03:46:00	BASE	3.68	36	8.44	67	4.4	84	1.8	0	0	989.4	NA	0.0000		9999	11120	11680	0	0
2019/11/25 03:47:00	BASE	4.32	26	7.46	65	4.3	84	1.8	0	0	989.4	NA	0.0000		9999	11710	0	0	0
2019/11/25 03:48:00	BASE	5.75	25	9.88	38	4.2	84	1.7	0	0	989.4	NA	0.0000		9999	11450	11980	0	0
2019/11/25 03:49:00	BASE	7.43	30	9.88	38	4.1	85	1.8	0	0	989.3	NA	0.0000		9999	12170	0	0	0
2019/11/25 03:50:00	BASE	8.17	26	10.19	14	4.2	85	1.9	0	0	989.3	NA	0.0000		9999	12400	0	0	0
2019/11/25 03:51:00	BASE	8.22	24	10.49	28	4.2	86	2.0	0	0	989.2	NA	0.0000		9999	4170	12500	0	0
2019/11/25 03:52:00	BASE	8.93	28	11.83	25	4.2	86	2.1	0	0	989.2	NA	0.0000		9999	4000	12570	0	0
2019/11/25 03:53:00	BASE	9.36	28	11.83	25	4.2	87	2.2	0	0	989.1	NA	0.0000		9999	12600	13480	0	0
2019/11/25 03:54:00	BASE	9.33	27	11.83	25	4.2	87	2.2	0	0	989.1	NA	0.0000		9999	13450	0	0	0
2019/11/25 03:55:00	BASE	9.03	28	11.83	25	4.1	87	2.2	0	0	989.2	NA	0.0000		9999	13390	0	0	0
2019/11/25 03:56:00	BASE	8.47	27	11.83	25	4.1	88	2.3	0	0	989.2	NA	0.0000		9999	3350	13420	0	0
2019/11/25 03:57:00	BASE	7.54	28	11.83	25	4.1	88	2.3	0	0	989.3	NA	0.0000		9999	13420	0	0	0
2019/11/25 03:58:00	BASE	7.61	29	11.83	25	4.0	89	2.3	0	0	989.3	NA	0.0000		9999	690	13620	0	0
2019/11/25 03:59:00	BASE	8.77	30	11.83	25	4.0	89	2.3	0	0	989.3	NA	0.0000		9999	0	0	0	3940
2019/11/25 04:00:00	BASE	8.57	31	11.83	25	3.9	89	2.4	0	0	989.3	NA	0.0000		9999	12890	0	0	0
2019/11/25 04:01:00	BASE	7.99	32	11.83	25	4.0	90	2.4	0	0	989.3	NA	0.0000		9999	13030	0	0	0
2019/11/25 04:02:00	BASE	8.32	34	10.96	22	4.0	90	2.4	0	0	989.3	NA	0.0000		9999	12960	0	0	0
2019/11/25 04:03:00	BASE	8.33	35	10.96	22	4.0	89	2.4	0	0	989.3	NA	0.0000	-RA	9999	5710	13120	0	0
2019/11/25 04:04:00	BASE	7.60	38	10.96	22	4.0	89	2.4	0	0	989.4	NA	0.0000	-RA	9999	13260	0	0	0
2019/11/25 04:05:00	BASE	7.37	42	10.96	22	4.0	89	2.4	0	0	989.4	NA	0.0000	-RA	9999	13260	0	0	0
2019/11/25 04:06:00	BASE	7.50	37	10.96	22	4.0	89	2.4	0	0	989.4	NA	0.0000	-RA	9999	13420	0	0	0
2019/11/25 04:07:00	BASE	6.89	36	10.96	22	4.0	89	2.4	0	0	989.4	NA	0.0000	-RA	9999	13480	0	0	0
2019/11/25 04:08:00	BASE	6.17	39	10.96	22	4.0	90	2.4	0	0	989.4	NA	0.0000	-RA	9999	5280	0	0	0
2019/11/25 04:09:00	BASE	6.49	40	10.24	40	4.0	90	2.4	0	0	989.4	NA	0.0000	-RA	9999	5710	13520	0	0
2019/11/25 04:10:00	BASE	6.33	41	10.24	40	4.0	90	2.5	0	0	989.4	NA	0.0000	-RA	9999	5220	0	0	0
2019/11/25 04:11:00	BASE	5.99	43	10.24	40	4.0	90	2.5	0	0	989.4	NA	0.0000	-RA	9999	4130	5640	0	0
2019/11/25 04:12:00	BASE	6.46	46	9.05	32	4.0	90	2.5	0	0	989.4	NA	0.0000		9999	4130	5450	0	0
2019/11/25 04:13:00	BASE	6.20	49	8.75	32	4.0	90	2.5	0	0	989.4	NA	0.0000		9999	3480	0	0	0
2019/11/25 04:14:00	BASE	5.90	46	8.75	32	4.0	90	2.5	0	0	989.5	NA	0.0000		9999	0	0	0	3870
2019/11/25 04:15:00	BASE	6.20	40	8.75	32	4.0	90	2.5	0	0	989.4	NA	0.0000	-RA	9999	2790	3940	0	0
2019/11/25 04:16:00	BASE	5.84	34	8.49	46	4.0	90	2.5	0	0	989.5	NA	0.0000	-RA	9999	5120	0	0	0
2019/11/25 04:17:00	BASE	4.95	36	8.49	46	4.0	90	2.6	0	0	989.5	NA	0.0000	-RA	9999	2620	0	0	0
2019/11/25 04:18:00	BASE	4.04	39	8.49	46	4.0	90	2.6	0	0	989.5	NA	0.0000	-RA	9999	2530	3310	0	0
2019/11/25 04:19:00	BASE	3.36	39	7.87	29	4.0	90	2.6	0	0	989.5	NA	0.0000	-RA	9999	0	0	0	3250
2019/11/25 04:20:00	BASE	3.40	43	7.87	29	3.9	91	2.5	0	0	989.5	NA	0.0000	-RA	9999	2430	0	0	0
2019/11/25 04:21:00	BASE	3.20	42	7.87	29	3.9	91	2.5	0	0	989.5	NA	0.0000	-RA	9999	2530	0	0	0
2019/11/25 04:22:00	BASE	2.89	31	7.87	29	3.8	91	2.5	0	0	989.6	NA	0.0000	-RA	9999	2660	0	0	0
2019/11/25 04:23:00	BASE	3.00	24	7.87	29	3.7	91	2.5	0	0	989.6	NA	0.0000	-RA	9999	2990	0	0	0
2019/11/25 04:24:00	BASE	2.91	28	7.87	29	3.7	92	2.4	0	0	989.6	NA	0.0000		9999	3120	0	0	0
2019/11/25 04:25:00	BASE	3.15	27	5.86	49	3.7	92	2.5	0	0	989.6	NA	0.0000		9999	0	0	0	3510
2019/11/25 04:26:00	BASE	4.71	27	7.25	38	3.6	92	2.5	0	0	989.6	NA	0.0000		9999	3180	0	0	0
2019/11/25 04:27:00	BASE	5.72	35	7.25	38	3.6	93	2.6	0	0	989.6	NA	0.0000		9999	2990	0	0	0
2019/11/25 04:28:00	BASE	5.55	37	7.25	38	3.7	93	2.7	0	0	989.6	NA	0.0000		9999	2720	0	0	0
2019/11/25 04:29:00	BASE	5.41	30	7.25	38	3.8	93	2.7	0	0	989.6	NA	0.0000	-RA	9999	2620	0	0	0
2019/11/25 04:30:00	BASE	5.73	30	7.51	26	3.8	93	2.7	0	0	989.6	NA	0.0000	-RA	9999	4270	0	0	0
2019/11/25 04:31:00	BASE	6.27	41	8.90	47	3.8	92	2.7	0	0	989.6	NA	0.0000	-RA	9999	2490	3480	0	0
2019/11/25 04:32:00	BASE	6.68	48	8.90	47	3.8	92	2.7	0	0	989.6	NA	0.0000	-RA	9999	2330	0	0	0
2019/11/25 04:33:00	BASE	6.59	44	8.90	47	3.8	92	2.6	0	0	989.6	NA	0.0000	-RA	9999	1210	0	0	0
2019/11/25 04:34:00	BASE	6.92	41	9.11	44	3.8	92	2.6	0	0	989.6	NA	0.0000	-RA	9999	430	0	0	0
2019/11/25 04:35:00	BASE	7.90	41	9.26	50	3.9	91	2.6	0	0	989.6	NA	0.0000	-RA	9999	2360	0	0	0
2019/11/25 04:36:00	BASE	7.38	39	9.26	50	3.9	91	2.6	0	0	989.6	NA	0.0000	-RA	9999	460	0	0	0
2019/11/25 04:37:00	BASE	6.71	39	9.26	50	3.8	91	2.5	0	0	989.6	NA	0.0000	-RA	9999	430	0	0	0
2019/11/25 04:38:00	BASE	6.81	40	9.26	50	3.8	91	2.5	0	0	989.6	NA	0.0000	-RA	9999	2130	0	0	0
2019/11/25 04:39:00	BASE	5.98	39	9.26	50	3.8	91	2.5	0	0	989.7	NA	0.0000	-RA	9999	520	0	0	0
2019/11/25 04:40:00	BASE	5.30	36	9.26	50	3.7	91	2.4	0	0	989.6	NA	0.0000	-RA	9999	2170	0	0	0
2019/11/25 04:41:00	BASE	5.45	37	9.26	50	3.7	92	2.5	0	0	989.6	NA	0.0000	-RA	9999	1840	0	0	0
2019/11/25 04:42:00	BASE	5.11	42	9.26	50	3.7	92	2.5	0	0	989.6	NA	0.0000	-RA	9999	2260	0	0	0
2019/11/25 04:43:00	BASE	5.03	50	9.26	50	3.8	92	2.6	0	0	989.6	NA	0.0000	-RA	9999	2400	0	0	0
2019/11/25 04:44:00	BASE	5.51	55	9.26	50	3.8	92	2.6	0	0	989.6	NA	0.0000	-RA	9999	2360	0	0	0
2019/11/25 04:45:00	BASE	6.24	51	7.72	48	3.8	92	2.5	0	0	989.6	NA	0.0000	-RA	9999	620	2430	0	0
2019/11/25 04:46:00	BASE	6.29	46	7.72	48	3.8	92	2.5	0	0	989.6	NA	0.0000	-RA	9999	2200	0	0	0
2019/11/25 04:47:00	BASE	5.90	45	7.72	48	3.8	92	2.5	0	0	989.6	NA	0.0000	-RA	9999	2200	0	0	0
2019/11/25 04:48:00	BASE	5.61	45	7.72	48	3.8	92	2.5	0	0	989.6	NA	0.0000		9999	2230	0	0	0
2019/11/25 04:49:00	BASE	4.87	49	7.72	48	3.8	92	2.5	0	0	989.6	NA	0.0000		9999	2400	0	0	0
2019/11/25 04:50:00	BASE	4.77	55	7.72	48	3.8	92	2.5	0	0	989.5	NA	0.0000		9999	2330	0	0	0
2019/11/25 04:51:00	BASE	5.16	55	7.72	48	3.8	91	2.5	0	0	989.5	NA	0.0000		9999	2030	2820	0	0
2019/11/25 04:52:00	BASE	5.40	52	7.72	48	3.8	91	2.5	0	0	989.5	NA	0.0000		9999	2360	0	0	0
2019/11/25 04:53:00	BASE	5.12	42	7.72	48	3.8	91	2.5	0	0	989.5	NA	0.0000		9999	2530	0	0	0
2019/11/25 04:54:00	BASE	4.72	41	7.72	48	3.7	91	2.5	0	0	989.5	NA	0.0000		9999	2850	0	0	0
2019/11/25 04:55:00	BASE	4.42	45	7.15	55	3.7	92	2.5	0	0	989.4	NA	0.0000		9999	2430	3080	0	0
2019/11/25 04:56:00	BASE	5.17	40	7.15	42	3.7	92	2.5	0	0	989.4	NA	0.0000		9999	660	0	0	0
2019/11/25 04:57:00	BASE	5.31	36	7.15	42	3.7	92	2.5	0	0	989.4	NA	0.0000		9999	2890	0	0	0
2019/11/25 04:58:00	BASE	4.47	32	7.15	42	3.7	92	2.5	0	0	989.4	NA	0.0000		9999	2690	0	0	0
2019/11/25 04:59:00	BASE	5.11	41	7.15	42	3.7	92	2.5	0	0	989.4	NA	0.0000		9999	690	0	0	0
2019/11/25 05:00:00	BASE	5.54	53	7.15	42	3.8	92	2.5	0	0	989.4	NA	0.0000		9999	720	0	0	0
2019/11/25 05:01:00	BASE	5.25	42	7.15	42	3.8	91	2.6	0	0	989.4	NA	0.0000		9999	2990	0	0	0
2019/11/25 05:02:00	BASE	4.68	39	7.15	42	3.9	91	2.5	0	0	989.4	NA	0.0000		9999	1940	0	0	0
2019/11/25 05:03:00	BASE	4.43	51	7.15	42	3.9	91	2.5	0	0	989.4	NA	0.0000		9999	2100	3150	0	0
2019/11/25 05:04:00	BASE	5.21	47	7.15	22	3.9	91	2.5	0	0	989.4	NA	0.0000		9999	2170	3380	0	0
2019/11/25 05:05:00	BASE	4.96	50	7.15	22	3.9	91	2.5	0	0	989.4	NA	0.0000		9999	2460	3350	0	0
2019/11/25 05:06:00	BASE	4.29	61	7.15	22	3.8	91	2.5	0	0	989.4	NA	0.0000		9999	2660	3410	0	0
2019/11/25 05:07:00	BASE	5.14	60	7.15	22	3.8	91	2.5	0	0	989.4	NA	0.0000		9999	2720	3450	0	0
2019/11/25 05:08:00	BASE	5.81	55	7.56	56	3.8	91	2.5	0	0	989.4	NA	0.0000		9999	2760	0	0	0
2019/11/25 05:09:00	BASE	5.06	63	7.56	56	3.8	91	2.5	0	0	989.4	NA	0.0000		9999	2530	0	0	0
2019/11/25 05:10:00	BASE	4.61	68	7.56	56	3.9	91	2.5	0	0	989.4	NA	0.0000		9999	2300	4000	0	0
2019/11/25 05:11:00	BASE	4.65	55	7.56	56	3.9	90	2.5	0	0	989.4	NA	0.0000		9999	2130	3250	0	0
2019/11/25 05:12:00	BASE	3.93	49	7.56	56	3.9	90	2.5	0	0	989.4	NA	0.0000		9999	2230	3280	0	0
2019/11/25 05:13:00	BASE	3.26	46	7.56	56	3.9	90	2.4	0	0	989.4	NA	0.0000		9999	2170	3380	0	0
2019/11/25 05:14:00	BASE	3.12	47	7.56	56	3.9	90	2.4	0	0	989.4	NA	0.0000		9999	2230	0	0	0
2019/11/25 05:16:00	BASE	3.48	78	7.56	56	3.9	90	2.4	0	0	989.3	NA	0.0000		9999	2260	0	0	0
2019/11/25 05:17:00	BASE	4.85	75	7.56	56	3.8	90	2.3	0	0	989.3	NA	0.0000		9999	2260	0	0	0
2019/11/25 05:18:00	BASE	5.91	47	8.08	23	3.9	90	2.3	0	0	989.2	NA	0.0000		9999	2300	0	0	0
2019/11/25 05:19:00	BASE	5.23	41	8.08	23	3.9	90	2.4	0	0	989.3	NA	0.0000		9999	2560	3280	0	0
2019/11/25 05:20:00	BASE	3.89	45	8.08	23	3.9	90	2.4	0	0	989.2	NA	0.0000		9999	2360	3310	0	0
2019/11/25 05:21:00	BASE	3.49	52	8.08	23	3.9	89	2.3	0	0	989.2	NA	0.0000		9999	2430	3450	0	0
2019/11/25 05:22:00	BASE	4.34	60	8.08	23	3.9	89	2.3	0	0	989.2	NA	0.0000		9999	3410	4040	0	0
2019/11/25 05:23:00	BASE	5.19	59	8.08	23	3.9	89	2.3	0	0	989.1	NA	0.0000		9999	4100	0	0	0
2019/11/25 05:24:00	BASE	5.35	61	8.08	23	3.9	89	2.3	0	0	989.1	NA	0.0000		9999	4070	0	0	0
2019/11/25 05:25:00	BASE	4.81	60	8.08	23	4.0	89	2.3	0	0	989.1	NA	0.0000		9999	4330	0	0	0
2019/11/25 05:26:00	BASE	5.03	61	8.08	23	4.0	89	2.3	0	0	989.1	NA	0.0000		9999	4430	0	0	0
2019/11/25 05:27:00	BASE	5.04	62	8.08	23	4.0	88	2.3	0	0	989.1	NA	0.0000		9999	4560	0	0	0
2019/11/25 05:28:00	BASE	4.06	68	7.25	85	4.0	88	2.2	0	0	989.1	NA	0.0000		9999	3250	4860	0	0
2019/11/25 05:29:00	BASE	3.65	77	7.25	85	4.0	88	2.2	0	0	989.1	NA	0.0000		9999	2070	4690	0	0
2019/11/25 05:30:00	BASE	3.83	67	7.25	85	4.0	88	2.2	0	0	989.2	NA	0.0000		9999	2200	4720	0	0
2019/11/25 05:31:00	BASE	4.50	55	7.25	85	4.0	88	2.1	0	0	989.2	NA	0.0000		9999	3280	4820	0	0
2019/11/25 05:32:00	BASE	5.50	51	8.44	39	3.9	88	2.1	0	0	989.2	NA	0.0000		9999	3220	4630	0	0
2019/11/25 05:33:00	BASE	6.65	43	8.59	34	3.9	88	2.2	0	0	989.2	NA	0.0000		9999	4530	0	0	0
2019/11/25 05:34:00	BASE	7.37	35	8.59	41	3.9	88	2.1	0	0	989.2	NA	0.0000		9999	4530	0	0	0
2019/11/25 05:35:00	BASE	6.73	43	8.59	41	3.8	88	2.1	0	0	989.2	NA	0.0000		9999	2950	4530	0	0
2019/11/25 05:36:00	BASE	7.22	44	10.03	43	3.8	89	2.1	0	0	989.1	NA	0.0000		9999	3080	0	0	0
2019/11/25 05:37:00	BASE	9.18	34	11.73	26	3.8	89	2.1	0	0	989.0	NA	0.0000		9999	2990	4490	0	0
2019/11/25 05:38:00	BASE	8.28	35	11.73	26	3.7	89	2.0	0	0	989.1	NA	0.0000		9999	4430	0	0	0
2019/11/25 05:39:00	BASE	7.76	39	11.73	26	3.7	89	2.0	0	0	989.1	NA	0.0000		9999	3410	4460	0	0
2019/11/25 05:40:00	BASE	9.39	40	12.24	33	3.7	89	2.1	0	0	989.0	NA	0.0000		9999	3640	0	0	0
2019/11/25 05:41:00	BASE	10.19	40	12.24	33	3.7	90	2.1	0	0	989.0	NA	0.0000		9999	3670	0	0	0
2019/11/25 05:42:00	BASE	10.42	39	12.24	33	3.6	90	2.1	0	0	989.0	NA	0.0000		9999	0	0	0	3510
2019/11/25 05:43:00	BASE	9.92	43	12.24	33	3.6	90	2.2	0	0	989.0	NA	0.0000	UP	9999	3870	0	0	0
2019/11/25 05:44:00	BASE	9.21	40	12.24	33	3.6	90	2.2	1	0	989.0	NA	0.0000	UP	9999	0	0	0	2890
2019/11/25 05:45:00	BASE	9.13	33	12.55	39	3.5	91	2.2	1	0	988.9	NA	0.0000	UP	9999	360	0	0	0
2019/11/25 05:46:00	BASE	8.41	39	12.55	39	3.5	91	2.2	1	0	989.0	NA	0.0000	UP	9999	0	0	0	3120
2019/11/25 05:47:00	BASE	8.23	48	12.55	39	3.4	92	2.2	1	0	988.9	NA	0.0000	UP	9999	7710	0	0	0
2019/11/25 05:48:00	BASE	9.02	51	12.55	39	3.4	92	2.3	1	0	988.8	NA	0.0000	UP	9999	7510	0	0	0
2019/11/25 05:49:00	BASE	10.02	57	14.04	58	3.4	93	2.4	1	0	988.5	NA	0.0000	UP	9999	7120	0	0	0
2019/11/25 05:50:00	BASE	10.39	57	14.04	58	3.4	93	2.4	1	0	988.5	NA	0.0000	UP	9999	6860	0	0	0
2019/11/25 05:51:00	BASE	9.71	55	14.04	58	3.4	94	2.5	1	0	988.5	NA	0.0000	UP	9999	7150	0	0	0
2019/11/25 05:52:00	BASE	9.04	55	14.04	58	3.5	94	2.6	1	0	988.6	NA	0.0000	UP	9999	7050	0	0	0
2019/11/25 05:53:00	BASE	10.20	53	14.04	58	3.5	94	2.6	1	0	988.4	NA	0.0000	UP	9999	7090	0	0	0
2019/11/25 05:54:00	BASE	11.27	54	14.04	58	3.5	94	2.6	1	0	988.4	NA	0.0000	UP	9999	6820	0	0	0
2019/11/25 05:55:00	BASE	11.28	53	14.04	58	3.5	93	2.5	1	0	988.3	NA	0.0000	UP	9999	6730	0	0	0
2019/11/25 05:56:00	BASE	11.72	51	15.12	47	3.5	93	2.5	1	0	988.3	NA	0.0000	UP	9999	6560	0	0	0
2019/11/25 05:57:00	BASE	12.14	48	15.12	47	3.5	93	2.4	1	0	988.3	NA	0.0000		9999	6530	0	0	0
2019/11/25 05:58:00	BASE	12.14	43	15.12	47	3.5	93	2.4	1	0	988.3	NA	0.0000		9999	6590	0	0	0
2019/11/25 05:59:00	BASE	11.51	41	15.90	41	3.5	93	2.4	1	0	988.4	NA	0.0000		9999	6530	0	0	0
2019/11/25 06:00:00	BASE	12.12	40	15.90	41	3.5	93	2.4	1	0	988.3	NA	0.0000		9999	6460	0	0	0
2019/11/25 06:01:00	BASE	12.59	40	15.90	41	3.5	93	2.4	1	0	988.4	NA	0.0000		9999	6460	0	0	0
2019/11/25 06:02:00	BASE	12.39	40	15.95	42	3.4	93	2.4	1	0	988.4	NA	0.0000	UP	9999	430	6820	0	0
2019/11/25 06:03:00	BASE	12.01	39	15.95	42	3.4	93	2.4	1	0	988.5	NA	0.0000	UP	9999	6960	0	0	0
2019/11/25 06:04:00	BASE	11.82	43	15.95	42	3.4	93	2.4	1	0	988.5	NA	0.0000	UP	9999	460	6860	0	0
2019/11/25 06:05:00	BASE	12.39	45	15.95	42	3.4	93	2.4	1	0	988.5	NA	0.0000	UP	9999	6920	0	0	0
2019/11/25 06:06:00	BASE	11.91	38	15.95	42	3.4	93	2.4	1	0	988.4	NA	0.0000	UP	9999	0	0	0	2850
2019/11/25 06:07:00	BASE	11.16	34	15.95	42	3.4	93	2.4	1	0	988.5	NA	0.0000	UP	9999	5870	0	0	0
2019/11/25 06:08:00	BASE	10.69	34	15.95	42	3.4	93	2.4	1	0	988.6	NA	0.0000	UP	9999	5910	0	0	0
2019/11/25 06:09:00	BASE	10.65	32	15.95	42	3.4	93	2.4	1	0	988.5	NA	0.0000	UP	9999	4170	5740	0	0
2019/11/25 06:10:00	BASE	10.61	35	15.95	42	3.3	93	2.4	1	0	988.5	NA	0.0000	UP	9999	5680	0	0	0
2019/11/25 06:11:00	BASE	10.04	36	15.95	42	3.3	93	2.3	1	0	988.6	NA	0.0000	UP	9999	7280	0	0	0
2019/11/25 06:12:00	BASE	10.02	31	14.66	44	3.3	93	2.3	1	0	988.6	NA	0.0000	UP	9999	1870	7120	0	0
2019/11/25 06:13:00	BASE	10.37	30	14.66	44	3.3	93	2.3	1	0	988.5	NA	0.0000	UP	9999	690	0	0	0
2019/11/25 06:14:00	BASE	11.02	30	14.66	44	3.3	93	2.3	1	0	988.4	NA	0.0000	UP	9999	1670	2200	7510	0
2019/11/25 06:15:00	BASE	10.61	28	13.38	31	3.3	93	2.3	1	0	988.5	NA	0.0000	UP	9999	2300	5540	0	0
2019/11/25 06:16:00	BASE	10.24	29	13.84	19	3.4	93	2.3	1	0	988.5	NA	0.0000	UP	9999	1740	0	0	0
2019/11/25 06:17:00	BASE	11.54	30	14.97	27	3.4	93	2.3	1	0	988.4	NA	0.0000	UP	9999	5510	0	0	0
2019/11/25 06:18:00	BASE	13.61	32	16.98	44	3.4	93	2.3	1	0	988.3	NA	0.0000		9999	1510	0	0	0
2019/11/25 06:19:00	BASE	14.58	33	16.98	44	3.5	92	2.3	1	0	988.2	NA	0.0000		9999	590	0	0	0
2019/11/25 06:20:00	BASE	15.45	30	18.78	23	3.5	92	2.3	1	0	988.1	NA	0.0000		9999	1280	5680	0	0
2019/11/25 06:21:00	BASE	14.99	28	18.78	23	3.5	92	2.3	1	0	988.3	NA	0.0000		9999	1280	0	0	0
2019/11/25 06:22:00	BASE	13.13	28	18.78	23	3.5	92	2.3	1	0	988.3	NA	0.0000		9999	2260	7580	0	0
2019/11/25 06:23:00	BASE	13.08	28	18.78	23	3.4	92	2.2	1	0	988.2	NA	0.0000		9999	7510	0	0	0
2019/11/25 06:24:00	BASE	13.98	26	18.78	23	3.4	92	2.2	1	0	988.2	NA	0.0000		9999	7480	0	0	0
2019/11/25 06:25:00	BASE	14.49	25	18.78	23	3.4	92	2.2	1	0	988.2	NA	0.0000		9999	7870	0	0	0
2019/11/25 06:26:00	BASE	13.78	25	18.78	23	3.3	93	2.2	1	0	988.2	NA	0.0000		9999	430	7740	0	0
2019/11/25 06:27:00	BASE	12.93	24	18.78	23	3.3	93	2.3	1	0	988.2	NA	0.0000		9999	430	7610	0	0
2019/11/25 06:28:00	BASE	12.94	28	18.78	23	3.2	94	2.3	1	0	988.2	NA	0.0000		9999	7710	0	0	0
2019/11/25 06:29:00	BASE	14.07	30	18.78	23	3.2	94	2.4	1	0	988.1	NA	0.0000		9999	360	7640	0	0
2019/11/25 06:30:00	BASE	13.78	31	18.11	25	3.2	95	2.4	1	0	988.2	NA	0.0000	UP	9999	360	5770	0	0
2019/11/25 06:31:00	BASE	11.84	30	18.11	25	3.1	95	2.4	1	0	988.3	NA	0.0000	UP	9999	360	5540	0	0
2019/11/25 06:32:00	BASE	11.39	29	18.11	25	3.1	95	2.4	1	0	988.2	NA	0.0000	UP	9999	5540	0	0	0
2019/11/25 06:33:00	BASE	11.59	29	18.11	25	3.1	96	2.4	2	0	988.2	NA	0.0000	UP	9999	5610	0	0	0
2019/11/25 06:34:00	BASE	11.28	31	18.11	25	3.1	96	2.5	1	0	988.2	NA	0.0000	UP	9999	5450	0	0	0
2019/11/25 06:35:00	BASE	11.48	30	18.11	25	3.1	96	2.5	1	0	988.1	NA	0.0000	UP	9999	5450	0	0	0
2019/11/25 06:36:00	BASE	12.00	27	18.11	25	3.1	96	2.5	1	0	988.1	NA	0.0000	UP	9999	460	0	0	0
2019/11/25 06:37:00	BASE	12.57	30	18.11	25	3.1	96	2.5	1	0	988.1	NA	0.0000	UP	9999	0	0	0	3150
2019/11/25 06:38:00	BASE	12.15	29	18.11	25	3.1	96	2.6	1	0	988.2	NA	0.0000	UP	9999	5540	0	0	0
2019/11/25 06:39:00	BASE	11.67	27	15.28	33	3.2	96	2.6	1	0	988.2	NA	0.0000	UP	9999	5710	0	0	0
2019/11/25 06:40:00	BASE	11.98	30	15.23	20	3.2	96	2.5	1	0	988.1	NA	0.0000	UP	9999	1180	0	0	0
2019/11/25 06:41:00	BASE	11.47	34	15.23	20	3.2	95	2.5	1	0	988.2	NA	0.0000	UP	9999	1250	5810	0	0
2019/11/25 06:42:00	BASE	11.99	37	15.59	32	3.2	95	2.5	2	0	988.1	NA	0.0000	UP	9999	5580	0	0	0
2019/11/25 06:43:00	BASE	13.02	35	15.59	33	3.2	95	2.4	2	0	988.1	NA	0.0000	UP	9999	5710	0	0	0
2019/11/25 06:44:00	BASE	12.98	36	15.59	33	3.2	95	2.4	2	0	988.1	NA	0.0000	UP	9999	5740	0	0	0
2019/11/25 06:45:00	BASE	11.81	36	15.59	33	3.2	95	2.4	2	0	988.2	NA	0.0000	UP	9999	5770	0	0	0
2019/11/25 06:46:00	BASE	12.65	32	16.05	31	3.2	95	2.4	2	0	988.0	NA	0.0000	-SN	9000	5480	0	0	0
2019/11/25 06:47:00	BASE	14.10	29	16.05	31	3.2	95	2.5	2	0	988.0	NA	0.0000	-SN	9999	5350	0	0	0
2019/11/25 06:48:00	BASE	13.42	30	16.05	31	3.2	95	2.5	2	0	988.1	NA	0.0000	-SN	5000	5380	0	0	0
2019/11/25 06:49:00	BASE	13.43	30	16.05	31	3.2	95	2.5	2	0	988.1	NA	0.0000	-SN BR	7000	5380	0	0	0
2019/11/25 06:50:00	BASE	14.02	31	16.05	34	3.2	95	2.5	2	0	988.0	NA	0.0000	-SN BR	9999	490	5540	0	0
2019/11/25 06:51:00	BASE	13.63	32	16.05	34	3.2	95	2.5	2	0	988.1	NA	0.0000	-SN BR	9999	390	0	0	0
2019/11/25 06:52:00	BASE	13.85	30	16.05	34	3.2	95	2.5	2	0	987.9	NA	0.0000	-SN BR	9000	390	0	0	0
2019/11/25 06:53:00	BASE	13.88	27	16.05	34	3.2	95	2.5	2	0	988.0	NA	0.0000	-SN BR	9999	430	0	0	0
2019/11/25 06:54:00	BASE	12.39	25	16.05	34	3.2	95	2.5	2	0	988.1	NA	0.0000	-SN BR	9999	0	0	0	4920
2019/11/25 06:55:00	BASE	12.02	25	16.05	34	3.1	95	2.4	2	0	988.1	NA	0.0000	-SN BR	9999	430	0	0	0
2019/11/25 06:56:00	BASE	12.56	27	16.05	34	3.1	95	2.4	2	0	988.0	NA	0.0000	-SN BR	9999	390	0	0	0
2019/11/25 06:57:00	BASE	13.42	28	16.87	19	3.0	95	2.3	2	0	987.8	NA	0.0000	-SN BR	5000	360	0	0	0
2019/11/25 06:58:00	BASE	13.93	27	16.87	19	3.0	95	2.3	3	0	987.8	NA	0.0000	-SN BR	3400	360	0	0	0
2019/11/25 06:59:00	BASE	13.62	25	16.87	19	2.9	95	2.3	3	0	987.9	NA	0.0000	-SN BR	4700	5840	0	0	0
2019/11/25 07:00:00	BASE	14.02	27	16.87	19	2.9	96	2.3	3	0	987.7	NA	0.0000	-SN BR	6000	360	5970	0	0
2019/11/25 07:01:00	BASE	14.59	28	16.87	28	2.9	96	2.3	3	0	987.6	NA	0.0000	-SN BR	4700	5680	0	0	0
2019/11/25 07:02:00	BASE	14.24	30	16.87	31	2.9	96	2.4	3	0	987.6	NA	0.0000	-SN BR	5000	5680	0	0	0
2019/11/25 07:03:00	BASE	14.82	31	16.87	31	2.9	97	2.4	4	0	987.5	NA	0.0000	-SN BR	7000	5540	0	0	0
2019/11/25 07:04:00	BASE	15.00	32	16.93	45	2.9	97	2.4	4	0	987.6	NA	0.0000	-SN BR	9000	7640	0	0	0
2019/11/25 07:05:00	BASE	13.77	32	16.93	45	2.9	97	2.5	5	0	987.5	NA	0.0000	-SN BR	9999	7710	0	0	0
2019/11/25 07:06:00	BASE	13.58	30	16.93	45	2.9	97	2.5	5	0	987.5	NA	0.0000	-SN BR	9999	7640	0	0	0
2019/11/25 07:07:00	BASE	14.28	32	17.44	33	2.9	98	2.5	6	0	987.5	NA	0.0000	-SN BR	9999	5840	7940	0	0
2019/11/25 07:08:00	BASE	13.46	32	17.44	33	2.9	98	2.6	6	0	987.6	NA	0.0000	-SN BR	8000	5640	7970	0	0
2019/11/25 07:09:00	BASE	13.75	28	19.03	30	2.9	98	2.6	7	0	987.4	NA	0.0000	-SN BR	9999	5710	7940	0	0
2019/11/25 07:10:00	BASE	15.59	26	19.03	30	2.9	98	2.6	7	0	987.3	NA	0.0000	-SN BR	6000	7910	0	0	0
2019/11/25 07:11:00	BASE	15.76	26	19.03	30	2.9	98	2.6	7	0	987.4	NA	0.0000	-SN BR	6000	8040	0	0	0
2019/11/25 07:12:00	BASE	15.08	25	19.03	30	2.8	98	2.5	8	0	987.4	NA	0.0000	-SN BR	9999	8070	0	0	0
2019/11/25 07:13:00	BASE	15.20	24	19.03	30	2.8	98	2.5	9	0	987.3	NA	0.0000	-SN BR	9999	360	7940	0	0
2019/11/25 07:14:00	BASE	16.18	27	19.03	30	2.8	98	2.5	10	0	987.3	NA	0.0000	-SN BR	9999	360	8040	0	0
2019/11/25 07:15:00	BASE	15.32	28	19.03	30	2.8	98	2.5	10	0	987.4	NA	0.0000	-SN BR	9999	390	8140	0	0
2019/11/25 07:16:00	BASE	13.99	26	19.03	30	2.8	98	2.5	10	0	987.4	NA	0.0000	-SN BR	9999	360	8100	0	0
2019/11/25 07:17:00	BASE	14.40	27	19.03	30	2.8	98	2.5	11	0	987.4	NA	0.0000	-SN BR	7000	8070	0	0	0
2019/11/25 07:18:00	BASE	14.88	27	19.03	30	2.8	98	2.5	11	0	987.4	NA	0.0000	-SN BR	8000	0	0	0	1800
2019/11/25 07:19:00	BASE	15.35	24	18.78	25	2.8	98	2.5	12	0	987.4	NA	0.0000	-SN BR	9999	0	0	0	1900
2019/11/25 07:20:00	BASE	15.83	22	18.21	23	2.8	98	2.5	15	0	987.2	NA	0.0000	-SN BR	9000	0	0	0	1970
2019/11/25 07:21:00	BASE	15.68	22	18.21	23	2.8	98	2.5	18	0	987.3	NA	0.0000	-SN BR	9999	5810	0	0	0
2019/11/25 07:22:00	BASE	15.12	21	18.21	23	2.8	98	2.5	19	0	987.3	NA	0.0000	-SN BR	9999	8430	0	0	0
2019/11/25 07:23:00	BASE	15.02	21	18.21	23	2.8	98	2.5	20	0	987.2	NA	0.0000	-SN BR	9999	0	0	0	1210
2019/11/25 07:24:00	BASE	15.87	22	18.62	29	2.8	98	2.5	20	0	987.1	NA	0.0000	-SN BR	9999	0	0	0	1120
2019/11/25 07:25:00	BASE	16.34	24	18.73	29	2.8	98	2.5	19	0	987.2	NA	0.0000	-SN BR	9999	22110	0	0	0
2019/11/25 07:26:00	BASE	16.18	26	18.88	26	2.8	98	2.5	18	0	987.1	NA	0.0000	-SN BR	9999	0	0	0	4430
2019/11/25 07:27:00	BASE	16.30	26	18.88	26	2.8	98	2.5	17	0	987.2	NA	0.0000	-SN	9999	0	0	0	4720
2019/11/25 07:28:00	BASE	16.44	23	18.88	26	2.8	98	2.5	15	0	987.1	NA	0.0000	-SN	9000	0	0	0	5180
2019/11/25 07:29:00	BASE	17.05	22	19.50	23	2.8	98	2.5	13	0	987.0	NA	0.0000	-SN BR	7000	0	0	0	5020
2019/11/25 07:30:00	BASE	17.08	24	19.50	23	2.8	98	2.5	12	0	987.1	NA	0.0000	-SN BR	6000	0	0	0	4270
2019/11/25 07:31:00	BASE	16.36	23	19.50	23	2.8	97	2.4	11	0	987.1	NA	0.0000	-SN BR	6000	0	0	0	3670
2019/11/25 07:32:00	BASE	16.13	22	19.50	23	2.8	97	2.4	11	0	987.1	NA	0.0000	-SN BR	6000	0	0	0	3220
2019/11/25 07:33:00	BASE	16.73	23	19.50	23	2.8	97	2.3	10	0	987.0	NA	0.0000	-SN BR	7000	0	0	0	3380
2019/11/25 07:34:00	BASE	17.61	23	19.91	21	2.8	97	2.3	9	0	987.0	NA	0.0000	-SN BR	7000	0	0	0	3050
2019/11/25 07:35:00	BASE	17.38	23	19.91	21	2.7	97	2.3	9	0	987.1	NA	0.0000	-SN BR	5000	0	0	0	2950
2019/11/25 07:36:00	BASE	17.40	23	19.91	21	2.7	97	2.3	9	0	987.0	NA	0.0000	-SN BR	4100	0	0	0	3120
2019/11/25 07:37:00	BASE	16.68	24	19.91	21	2.7	97	2.3	9	0	987.3	NA	0.0000	-SN BR	3500	430	0	0	0
2019/11/25 07:38:00	BASE	15.73	24	19.91	21	2.7	97	2.3	10	0	987.3	NA	0.2540	-SN BR	3000	390	0	0	0
2019/11/25 07:39:00	BASE	15.81	23	19.91	21	2.7	97	2.2	10	0	987.3	NA	0.0000	-SN BR	3000	360	0	0	0
2019/11/25 07:40:00	BASE	16.00	26	19.91	21	2.6	97	2.2	9	0	987.2	NA	0.0000	-SN BR	2600	0	0	0	3970
2019/11/25 07:41:00	BASE	16.18	27	19.91	21	2.6	97	2.2	8	0	987.3	NA	0.0000	-SN BR	2700	360	0	0	0
2019/11/25 07:42:00	BASE	16.29	24	19.91	21	2.6	97	2.2	8	0	987.2	NA	0.0000	-SN BR	2700	330	0	0	0
2019/11/25 07:43:00	BASE	15.80	22	19.91	21	2.5	97	2.1	8	0	987.2	NA	0.0000	-SN BR	3000	360	0	0	0
2019/11/25 07:44:00	BASE	16.38	23	20.47	22	2.5	97	2.1	8	0	987.1	NA	0.0000	-SN BR	3000	330	0	0	0
2019/11/25 07:45:00	BASE	16.87	23	20.47	22	2.5	98	2.1	8	0	987.2	NA	0.0000	-SN BR	3000	330	0	0	0
2019/11/25 07:46:00	BASE	16.51	23	20.47	22	2.4	98	2.1	7	0	987.1	NA	0.0000	-SN BR	3100	360	0	0	0
2019/11/25 07:47:00	BASE	16.41	24	20.47	22	2.4	99	2.2	7	0	987.2	NA	0.0000	-SN BR	3600	360	0	0	0
2019/11/25 07:48:00	BASE	15.87	24	20.47	22	2.4	99	2.2	7	0	987.2	NA	0.0000	-SN BR	3100	360	0	0	0
2019/11/25 07:49:00	BASE	16.46	24	20.47	22	2.3	99	2.2	7	0	987.1	NA	0.0000	-SN BR	2400	390	0	0	0
2019/11/25 07:50:00	BASE	16.82	26	20.47	22	2.3	100	2.3	7	0	987.2	NA	0.0000	-SN BR	2100	360	0	0	0
2019/11/25 07:51:00	BASE	15.91	29	20.47	22	2.3	100	2.3	8	0	987.3	NA	0.2540	-SN BR	1900	360	0	0	0
2019/11/25 07:52:00	BASE	15.14	28	20.47	22	2.3	100	2.3	9	0	987.3	NA	0.0000	-SN BR	2000	360	0	0	0
2019/11/25 07:53:00	BASE	15.20	28	20.47	22	2.3	100	2.3	9	0	987.2	NA	0.0000	-SN BR	1900	360	0	0	0
2019/11/25 07:54:00	BASE	15.17	28	19.45	29	2.3	100	2.3	9	0	987.2	NA	0.0000	-SN BR	2500	0	0	0	3220
2019/11/25 07:55:00	BASE	15.77	25	19.19	19	2.3	100	2.3	9	0	987.1	NA	0.0000	-SN BR	3400	390	0	0	0
2019/11/25 07:56:00	BASE	16.09	25	19.19	19	2.3	100	2.3	10	0	987.1	NA	0.0000	-SN BR	2700	390	0	0	0
2019/11/25 07:57:00	BASE	15.77	27	19.19	19	2.2	100	2.2	12	0	987.1	NA	0.0000	-SN BR	2500	390	0	0	0
2019/11/25 07:58:00	BASE	15.28	26	19.19	19	2.2	100	2.2	12	0	987.0	NA	0.0000	-SN BR	2200	430	0	0	0
2019/11/25 07:59:00	BASE	15.66	27	18.31	25	2.2	100	2.2	12	0	986.9	NA	0.0000	-SN BR	3200	6330	0	0	0
2019/11/25 08:00:00	BASE	16.42	28	18.42	33	2.2	100	2.2	12	0	986.9	NA	0.0000	-SN BR	5000	6040	0	0	0
2019/11/25 08:01:00	BASE	16.93	26	20.11	30	2.2	100	2.2	12	0	986.7	NA	0.0000	-SN BR	5000	5840	0	0	0
2019/11/25 08:02:00	BASE	17.57	27	20.11	30	2.3	100	2.3	12	0	986.7	NA	0.0000	-SN BR	6000	5910	0	0	0
2019/11/25 08:03:00	BASE	17.65	28	20.11	30	2.3	100	2.3	13	0	986.7	NA	0.0000	-SN BR	6000	5870	0	0	0
2019/11/25 08:04:00	BASE	17.41	26	20.11	30	2.3	100	2.3	13	0	986.6	NA	0.2540	-SN BR	7000	5840	0	0	0
2019/11/25 08:05:00	BASE	16.68	25	20.11	30	2.3	100	2.3	13	0	986.7	NA	0.0000	-SN BR	9999	5680	0	0	0
2019/11/25 08:06:00	BASE	17.48	23	21.71	16	2.3	100	2.3	13	0	986.5	NA	0.0000	-SN BR	9000	5480	0	0	0
2019/11/25 08:07:00	BASE	19.03	23	21.71	16	2.2	100	2.2	13	0	986.4	NA	0.0000	-SN BR	8000	5450	0	0	0
2019/11/25 08:08:00	BASE	18.41	23	21.71	16	2.2	100	2.2	12	0	986.6	NA	0.0000	-SN BR	7000	5350	0	0	0
2019/11/25 08:09:00	BASE	17.85	23	21.71	16	2.2	100	2.2	12	0	986.6	NA	0.0000	-SN BR	7000	5410	0	0	0
2019/11/25 08:10:00	BASE	18.47	22	21.71	16	2.2	100	2.2	13	0	986.4	NA	0.0000	-SN BR	7000	5320	0	0	0
2019/11/25 08:11:00	BASE	18.93	22	21.71	16	2.2	100	2.2	14	0	986.5	NA	0.0000	-SN BR	8000	5450	0	0	0
2019/11/25 08:12:00	BASE	18.54	23	21.71	16	2.2	100	2.2	15	0	986.5	NA	0.0000	-SN BR	5000	5220	0	0	0
2019/11/25 08:13:00	BASE	18.89	24	21.71	16	2.2	100	2.2	17	0	986.3	NA	0.0000	-SN BR	6000	5350	0	0	0
2019/11/25 08:14:00	BASE	19.33	23	21.71	16	2.2	100	2.2	18	0	986.4	NA	0.0000	-SN BR	9999	5250	0	0	0
2019/11/25 08:15:00	BASE	18.59	23	21.71	16	2.2	100	2.2	20	0	986.4	NA	0.0000	-SN BR	9999	5320	0	0	0
2019/11/25 08:16:00	BASE	18.99	23	21.71	25	2.2	100	2.2	22	0	986.3	NA	0.0000	-SN BR	9999	5380	0	0	0
2019/11/25 08:17:00	BASE	19.32	21	21.71	25	2.2	100	2.2	24	0	986.3	NA	0.0000	-SN BR	9999	5380	0	0	0
2019/11/25 08:18:00	BASE	19.47	22	22.07	20	2.2	100	2.2	25	0	986.3	NA	0.0000	-SN BR	7000	0	0	0	6300
2019/11/25 08:19:00	BASE	19.83	22	22.48	18	2.2	100	2.2	24	0	986.3	NA	0.0000	-SN BR	4600	0	0	0	5970
2019/11/25 08:20:00	BASE	19.53	21	22.48	18	2.2	100	2.2	23	0	986.4	NA	0.0000	-SN BR	4000	0	0	0	6270
2019/11/25 08:21:00	BASE	19.71	21	22.48	18	2.2	100	2.2	22	0	986.3	NA	0.0000	-SN BR	3700	0	0	0	5740
2019/11/25 08:22:00	BASE	20.07	21	22.48	18	2.2	100	2.2	20	0	986.3	NA	0.0000	-SN BR	3500	0	0	0	5280
2019/11/25 08:23:00	BASE	19.56	22	22.48	18	2.2	100	2.2	19	0	986.5	NA	0.0000	-SN BR	3200	330	0	0	0
2019/11/25 08:24:00	BASE	19.22	23	22.48	18	2.2	100	2.2	20	0	986.5	NA	0.0000	-SN BR	2600	330	0	0	0
2019/11/25 08:25:00	BASE	17.80	24	22.48	18	2.2	100	2.2	21	0	986.8	NA	0.0000	-SN BR	2200	300	0	0	0
2019/11/25 08:26:00	BASE	16.47	24	22.48	18	2.2	100	2.2	22	0	986.7	NA	0.0000	-SN BR	2100	300	0	0	0
2019/11/25 08:27:00	BASE	17.11	22	22.48	18	2.1	100	2.1	20	0	986.7	NA	0.0000	-SN BR	2200	0	0	0	4270
2019/11/25 08:28:00	BASE	17.23	22	22.48	18	2.1	100	2.1	19	0	986.8	NA	0.0000	-SN BR	2700	360	0	0	0
2019/11/25 08:29:00	BASE	17.73	22	21.56	19	2.0	100	2.0	20	0	986.6	NA	0.0000	-SN BR	2900	0	0	0	3020
2019/11/25 08:30:00	BASE	18.11	22	21.56	19	2.0	100	2.0	20	0	986.7	NA	0.0000	-SN BR	2600	330	0	0	0
2019/11/25 08:31:00	BASE	17.33	21	21.40	22	2.0	100	2.0	22	0	986.7	NA	0.0000	-SN BR	2600	330	0	0	0
2019/11/25 08:32:00	BASE	17.30	21	21.30	22	2.0	100	2.0	22	0	986.7	NA	0.0000	-SN BR	2500	1050	0	0	0
2019/11/25 08:33:00	BASE	17.34	21	20.99	23	2.0	100	2.0	21	0	986.7	NA	0.2540	-SN BR	2400	330	0	0	0
2019/11/25 08:34:00	BASE	17.47	20	20.47	27	2.0	100	2.0	20	0	986.7	NA	0.0000	-SN BR	2600	330	0	0	0
2019/11/25 08:35:00	BASE	17.87	20	20.47	27	2.0	100	2.0	19	0	986.7	NA	0.0000	-SN BR	2300	1280	0	0	0
2019/11/25 08:36:00	BASE	18.51	20	20.63	24	1.9	100	1.9	18	0	986.6	NA	0.0000	-SN BR	2100	330	0	0	0
2019/11/25 08:37:00	BASE	18.74	21	20.63	24	1.9	100	1.9	18	0	986.6	NA	0.0000	-SN BR	2100	330	0	0	0
2019/11/25 08:38:00	BASE	18.26	20	20.63	24	1.9	100	1.9	19	0	986.6	NA	0.0000	-SN BR	2000	330	0	0	0
2019/11/25 08:39:00	BASE	18.28	19	20.63	24	1.8	100	1.8	21	0	986.6	NA	0.0000	-SN BR	2000	330	0	0	0
2019/11/25 08:40:00	BASE	18.65	20	20.94	22	1.8	100	1.8	22	0	986.7	NA	0.0000	-SN BR	2100	330	0	0	0
2019/11/25 08:41:00	BASE	19.50	20	21.14	17	1.8	100	1.8	24	0	986.5	NA	0.2540	-SN BR	2200	330	0	0	0
2019/11/25 08:42:00	BASE	19.11	20	21.14	17	1.8	100	1.8	24	0	986.7	NA	0.0000	-SN BR	2100	360	0	0	0
2019/11/25 08:43:00	BASE	18.37	19	21.14	17	1.9	100	1.9	22	0	986.7	NA	0.0000	-SN BR	2200	0	0	0	2760
2019/11/25 08:44:00	BASE	18.00	20	21.14	17	1.9	100	1.9	21	0	986.8	NA	0.0000	-SN BR	2700	330	0	0	0
2019/11/25 08:45:01	BASE	17.77	20	21.14	17	1.8	100	1.8	21	0	986.7	NA	0.0000	-SN BR	2600	890	0	0	0
2019/11/25 08:46:01	BASE	17.97	19	21.14	17	1.8	100	1.8	22	0	986.7	NA	0.0000	-SN BR	2500	0	0	0	2790
2019/11/25 08:47:01	BASE	18.03	19	21.14	17	1.8	100	1.8	22	0	986.7	NA	0.0000	-SN BR	2600	360	0	0	0
2019/11/25 08:48:01	BASE	18.05	18	21.14	17	1.8	100	1.8	24	0	986.7	NA	0.0000	-SN BR	2400	360	0	0	0
2019/11/25 08:49:01	BASE	17.76	19	21.14	17	1.8	100	1.8	25	0	986.7	NA	0.0000	-SN BR	2200	360	0	0	0
2019/11/25 08:50:01	BASE	17.66	21	21.14	17	1.8	100	1.8	27	0	986.8	NA	0.0000	-SN BR	2400	390	0	0	0
2019/11/25 08:51:01	BASE	18.17	21	20.53	18	1.8	100	1.8	29	0	986.7	NA	0.0000	-SN BR	2400	390	0	0	0
2019/11/25 08:52:01	BASE	18.38	21	20.68	20	1.8	100	1.8	31	0	986.7	NA	0.0000	-SN BR	2100	360	0	0	0
2019/11/25 08:53:01	BASE	17.83	19	20.68	20	1.8	100	1.8	33	0	986.8	NA	0.0000	-SN BR	2200	0	0	0	2920
2019/11/25 08:54:01	BASE	17.93	19	20.68	20	1.8	100	1.8	33	0	986.8	NA	0.2540	-SN BR	2300	0	0	0	2590
2019/11/25 08:55:01	BASE	17.87	20	20.68	20	1.8	100	1.8	33	0	986.8	NA	0.0000	-SN BR	2700	390	0	0	0
2019/11/25 08:56:01	BASE	17.55	20	20.68	20	1.8	100	1.8	34	0	986.8	NA	0.0000	-SN BR	3000	390	0	0	0
2019/11/25 08:57:01	BASE	17.52	19	20.68	20	1.8	100	1.8	35	0	986.8	NA	0.0000	-SN BR	2700	0	0	0	2330
2019/11/25 08:58:01	BASE	17.42	20	20.68	20	1.8	100	1.8	36	0	986.8	NA	0.0000	-SN BR	2500	390	0	0	0
2019/11/25 08:59:01	BASE	18.01	20	20.89	26	1.8	100	1.8	39	0	986.7	NA	0.0000	-SN BR	2200	0	0	0	2430
2019/11/25 09:00:01	BASE	18.39	19	20.89	26	1.8	100	1.8	42	0	986.8	NA	0.0000	-SN BR	2600	0	0	0	2360
2019/11/25 09:01:01	BASE	17.92	18	20.89	26	1.8	100	1.8	44	0	986.8	NA	0.0000	-SN BR	2500	430	0	0	0
2019/11/25 09:02:01	BASE	17.36	18	20.89	26	1.7	100	1.7	47	0	986.8	NA	0.0000	-SN BR	2500	430	0	0	0
2019/11/25 09:03:01	BASE	17.63	19	20.89	26	1.7	100	1.7	49	0	986.8	NA	0.0000	-SN BR	3100	430	0	0	0
2019/11/25 09:04:01	BASE	18.14	20	20.89	26	1.7	100	1.7	51	0	986.8	NA	0.0000	-SN BR	2900	430	0	0	0
2019/11/25 09:05:01	BASE	17.87	17	20.89	26	1.7	100	1.7	55	0	986.8	NA	0.0000	-SN BR	2300	390	0	0	0
2019/11/25 09:06:01	BASE	17.59	16	20.89	26	1.7	100	1.7	58	0	986.8	NA	0.0000	-SN BR	2100	390	0	0	0
2019/11/25 09:07:01	BASE	17.43	18	20.89	26	1.7	100	1.7	57	0	986.9	NA	0.2540	-SN BR	2800	0	0	0	2590
2019/11/25 09:08:01	BASE	17.82	19	20.89	26	1.7	100	1.7	50	0	986.9	NA	0.0000	-SN BR	4500	0	0	0	2490
2019/11/25 09:09:01	BASE	17.76	20	20.37	16	1.7	100	1.7	46	0	986.9	NA	0.0000	-SN BR	4500	0	0	0	2260
2019/11/25 09:10:01	BASE	17.15	20	20.37	16	1.7	100	1.7	45	0	986.9	NA	0.0000	-SN BR	4700	360	0	0	0
2019/11/25 09:11:01	BASE	17.38	18	19.91	22	1.7	100	1.7	45	0	986.8	NA	0.0000	-SN BR	3600	360	0	0	0
2019/11/25 09:12:01	BASE	17.65	16	19.91	22	1.7	100	1.7	46	0	986.8	NA	0.0000	-SN BR	2400	330	0	0	0
2019/11/25 09:13:01	BASE	17.49	15	19.91	22	1.7	100	1.7	47	0	986.8	NA	0.0000	-SN BR	2400	300	0	0	0
2019/11/25 09:14:01	BASE	16.95	16	19.91	22	1.7	100	1.7	49	0	986.8	NA	0.0000	-SN BR	2700	300	0	0	0
2019/11/25 09:15:01	BASE	17.17	17	20.17	10	1.7	100	1.7	51	0	986.7	NA	0.0000	-SN BR	2500	330	0	0	0
2019/11/25 09:16:01	BASE	17.76	16	22.28	19	1.7	100	1.7	51	0	986.7	NA	0.0000	-SN BR	2500	330	0	0	0
2019/11/25 09:17:01	BASE	18.42	16	22.28	19	1.6	100	1.6	50	0	986.6	NA	0.0000	-SN BR	3200	330	0	0	0
2019/11/25 09:18:01	BASE	18.77	16	22.28	19	1.6	100	1.6	48	0	986.6	NA	0.0000	-SN BR	2800	330	0	0	0
2019/11/25 09:19:01	BASE	19.46	15	22.28	15	1.6	100	1.6	44	0	986.5	NA	0.0000	-SN BR	2300	360	0	0	0
2019/11/25 09:20:01	BASE	18.82	15	22.28	15	1.6	100	1.6	41	0	986.8	NA	0.0000	-SN BR	2400	360	0	0	0
2019/11/25 09:21:01	BASE	17.58	15	22.28	15	1.6	100	1.6	39	0	986.7	NA	0.0000	-SN BR	2300	330	0	0	0
2019/11/25 09:22:01	BASE	17.22	14	22.28	15	1.6	100	1.6	39	0	986.9	NA	0.2540	-SN BR	2200	390	0	0	0
2019/11/25 09:23:01	BASE	17.63	13	22.28	15	1.6	100	1.6	39	0	986.7	NA	0.0000	-SN BR	2600	390	0	0	0
2019/11/25 09:24:01	BASE	18.17	12	22.28	15	1.6	100	1.6	39	0	986.8	NA	0.0000	-SN BR	2900	390	0	0	0
2019/11/25 09:25:01	BASE	18.04	11	22.28	15	1.6	100	1.6	39	0	986.7	NA	0.0000	-SN BR	2800	360	0	0	0
2019/11/25 09:26:01	BASE	18.39	12	22.28	15	1.6	100	1.6	40	0	986.7	NA	0.0000	-SN BR	2800	360	0	0	0
2019/11/25 09:27:01	BASE	18.06	13	22.28	15	1.7	100	1.7	41	0	986.8	NA	0.0000	-SN BR	3500	360	0	0	0
2019/11/25 09:28:01	BASE	17.77	13	22.28	15	1.7	100	1.7	41	0	986.8	NA	0.0000	-SN BR	3500	360	0	0	0
2019/11/25 09:29:01	BASE	17.81	13	20.27	14	1.7	100	1.7	41	0	986.8	NA	0.0000	-SN BR	3700	360	0	0	0
2019/11/25 09:30:01	BASE	18.05	13	20.27	14	1.7	100	1.7	43	0	986.8	NA	0.0000	-SN BR	2800	330	0	0	0
2019/11/25 09:31:01	BASE	18.26	12	20.27	14	1.7	100	1.7	42	0	986.8	NA	0.0000	-SN BR	2400	360	0	0	0
2019/11/25 09:32:01	BASE	18.28	12	21.04	7	1.7	100	1.7	41	0	986.8	NA	0.0000	-SN BR	3000	360	0	0	0
2019/11/25 09:33:01	BASE	17.68	11	21.04	7	1.7	100	1.7	40	0	986.9	NA	0.0000	-SN BR	3300	360	0	0	0
2019/11/25 09:34:01	BASE	17.42	12	21.04	7	1.7	100	1.7	39	0	986.9	NA	0.0000	-SN BR	3000	360	0	0	0
2019/11/25 09:35:01	BASE	17.60	13	21.04	7	1.7	100	1.7	38	0	986.8	NA	0.2540	-SN BR	2600	360	0	0	0
2019/11/25 09:36:01	BASE	17.24	13	21.04	7	1.7	100	1.7	40	0	986.9	NA	0.0000	-SN BR	2400	360	22900	0	0
2019/11/25 09:37:01	BASE	17.60	14	21.04	7	1.7	100	1.7	41	0	986.8	NA	0.0000	-SN BR	2900	360	0	0	0
2019/11/25 09:38:01	BASE	18.90	14	21.81	12	1.7	100	1.7	43	0	986.7	NA	0.0000	-SN BR	2600	360	0	0	0
2019/11/25 09:39:01	BASE	19.33	13	21.81	12	1.7	100	1.7	46	0	986.7	NA	0.0000	-SN BR	2300	360	0	0	0
2019/11/25 09:40:01	BASE	18.71	13	21.81	12	1.7	100	1.7	47	0	986.8	NA	0.0000	-SN BR	2400	390	0	0	0
2019/11/25 09:41:01	BASE	18.46	12	21.81	12	1.7	100	1.7	47	0	986.8	NA	0.0000	-SN BR	3300	390	0	0	0
2019/11/25 09:42:01	BASE	18.76	10	21.81	12	1.7	100	1.7	47	0	986.7	NA	0.0000	-SN BR	4200	390	0	0	0
2019/11/25 09:43:01	BASE	18.64	10	21.81	12	1.7	100	1.7	49	0	986.7	NA	0.0000	-SN BR	3200	390	0	0	0
2019/11/25 09:44:01	BASE	18.56	10	21.81	12	1.7	100	1.7	52	0	986.7	NA	0.0000	-SN BR	3600	0	0	0	1740
2019/11/25 09:45:01	BASE	18.46	8	21.81	12	1.7	100	1.7	55	0	986.7	NA	0.0000	-SN BR	6000	5220	0	0	0
2019/11/25 09:46:01	BASE	18.09	6	21.81	12	1.6	100	1.6	52	0	986.7	NA	0.0000	-SN BR	7000	0	0	0	1840
2019/11/25 09:47:01	BASE	18.36	5	21.81	12	1.6	100	1.6	48	0	986.8	NA	0.0000	-SN BR	8000	390	0	0	0
2019/11/25 09:48:01	BASE	18.33	6	20.37	2	1.6	100	1.6	49	0	986.8	NA	0.0000	-SN BR	9999	390	0	0	0
2019/11/25 09:49:01	BASE	18.22	7	20.37	2	1.6	100	1.6	50	0	986.8	NA	0.0000	-SN BR	5000	1310	0	0	0
2019/11/25 09:50:01	BASE	18.36	7	20.37	2	1.6	100	1.6	50	0	986.8	NA	0.0000	-SN BR	6000	1310	0	0	0
2019/11/25 09:51:01	BASE	18.04	4	20.37	2	1.6	100	1.6	48	0	986.9	NA	0.0000	-SN BR	9999	620	0	0	0
2019/11/25 09:52:01	BASE	17.21	5	20.37	2	1.7	100	1.7	43	0	987.1	NA	0.0000	-SN BR	9999	430	0	0	0
2019/11/25 09:53:01	BASE	17.43	9	20.37	2	1.7	100	1.7	44	0	986.9	NA	0.0000	-SN BR	8000	430	0	0	0
2019/11/25 09:54:01	BASE	18.32	10	20.37	2	1.7	100	1.7	47	0	986.9	NA	0.0000	-SN BR	5000	390	0	0	0
2019/11/25 09:55:01	BASE	18.18	11	20.37	2	1.7	100	1.7	51	0	986.9	NA	0.0000	-SN BR	5000	390	0	0	0
2019/11/25 09:56:01	BASE	17.94	14	20.37	10	1.7	100	1.7	54	0	987.0	NA	0.0000	-SN BR	8000	390	0	0	0
2019/11/25 09:57:01	BASE	18.59	13	20.63	16	1.7	100	1.7	55	0	986.8	NA	0.0000	-SN BR	9000	390	0	0	0
2019/11/25 09:58:01	BASE	18.64	13	20.63	16	1.7	100	1.7	52	0	986.9	NA	0.0000	-SN BR	8000	390	0	0	0
2019/11/25 09:59:01	BASE	18.65	13	21.35	11	1.7	100	1.7	53	0	986.8	NA	0.0000	-SN BR	8000	390	0	0	0
2019/11/25 10:00:01	BASE	18.77	12	21.35	11	1.8	100	1.8	53	0	986.9	NA	0.0000	-SN BR	6000	390	0	0	0
2019/11/25 10:01:01	BASE	18.26	13	21.35	11	1.8	100	1.8	54	0	986.9	NA	0.0000	-SN BR	4200	390	0	0	0
2019/11/25 10:02:01	BASE	18.29	14	21.35	11	1.7	100	1.7	55	0	986.9	NA	0.0000	-SN BR	3600	390	0	0	0
2019/11/25 10:03:01	BASE	18.92	15	21.35	11	1.7	100	1.7	54	0	986.8	NA	0.0000	-SN BR	3600	0	0	0	2530
2019/11/25 10:04:01	BASE	19.43	16	21.35	11	1.8	100	1.8	54	0	986.9	NA	0.0000	-SN BR	3200	0	0	0	2460
2019/11/25 10:05:01	BASE	17.98	17	21.35	11	1.7	100	1.7	61	0	987.1	NA	0.0000	-SN BR	3700	360	0	0	0
2019/11/25 10:06:01	BASE	18.02	15	21.50	22	1.8	100	1.8	64	0	986.9	NA	0.0000	-SN BR	3700	360	0	0	0
2019/11/25 10:07:01	BASE	18.74	10	21.50	22	1.8	100	1.8	65	0	987.0	NA	0.0000	-SN BR	3500	0	0	0	2660
2019/11/25 10:08:01	BASE	17.80	9	21.50	22	1.7	100	1.7	65	0	987.1	NA	0.0000	-SN BR	4900	360	0	0	0
2019/11/25 10:09:01	BASE	16.85	10	21.50	22	1.7	100	1.7	66	0	987.3	NA	0.0000	-SN BR	5000	360	0	0	0
2019/11/25 10:10:01	BASE	16.89	11	21.50	22	1.6	100	1.6	64	0	987.2	NA	0.0000	-SN BR	4600	330	0	0	0
2019/11/25 10:11:01	BASE	17.90	9	21.50	22	1.6	100	1.6	60	0	987.1	NA	0.0000	-SN BR	3800	360	0	0	0
2019/11/25 10:12:01	BASE	18.40	8	21.50	22	1.6	100	1.6	60	0	987.2	NA	0.0000	-SN BR	3200	360	0	0	0
2019/11/25 10:13:01	BASE	18.02	9	21.50	22	1.6	100	1.6	61	0	987.2	NA	0.2540	-SN BR	3300	360	0	0	0
2019/11/25 10:14:01	BASE	17.48	8	21.50	22	1.6	100	1.6	60	0	987.3	NA	0.0000	-SN BR	5000	390	22570	0	0
2019/11/25 10:15:01	BASE	17.28	8	21.50	22	1.6	100	1.6	60	0	987.3	NA	0.0000	-SN BR	5000	390	0	0	0
2019/11/25 10:16:01	BASE	17.30	8	20.94	8	1.6	100	1.6	59	0	987.3	NA	0.0000	-SN BR	5000	390	0	0	0
2019/11/25 10:17:01	BASE	17.77	10	20.94	8	1.6	100	1.6	60	0	987.2	NA	0.0000	-SN BR	3000	390	0	0	0
2019/11/25 10:18:01	BASE	17.33	8	20.94	8	1.6	100	1.6	61	0	987.4	NA	0.0000	-SN BR	2800	390	0	0	0
2019/11/25 10:19:01	BASE	17.10	7	20.94	8	1.6	100	1.6	62	0	987.3	NA	0.0000	-SN BR	3700	390	0	0	0
2019/11/25 10:20:00	BASE	18.99	10	21.92	11	1.6	100	1.6	63	0	987.0	NA	0.0000	-SN BR	3600	430	0	0	0
2019/11/25 10:21:00	BASE	19.49	11	21.92	11	1.6	100	1.6	66	0	987.1	NA	0.0000	-SN BR	4100	430	4950	0	0
2019/11/25 10:22:00	BASE	18.60	11	21.92	11	1.6	100	1.6	70	0	987.1	NA	0.0000	-SN BR	6000	430	4920	0	0
2019/11/25 10:23:00	BASE	18.59	11	21.92	11	1.6	100	1.6	74	0	987.2	NA	0.0000	-SN BR	6000	4790	0	0	0
2019/11/25 10:24:00	BASE	19.14	11	21.92	11	1.6	100	1.6	76	0	987.0	NA	0.0000	-SN BR	7000	4660	0	0	0
2019/11/25 10:25:00	BASE	19.68	11	21.92	11	1.6	100	1.6	72	0	987.1	NA	0.0000	-SN BR	6000	4590	0	0	0
2019/11/25 10:26:01	BASE	18.87	10	21.92	11	1.6	100	1.6	73	0	987.3	NA	0.0000	-SN BR	5000	390	4630	0	0
2019/11/25 10:27:00	BASE	18.39	10	21.92	11	1.6	100	1.6	71	0	987.2	NA	0.0000	-SN BR	6000	390	4690	0	0
2019/11/25 10:28:00	BASE	19.08	11	21.92	11	1.6	100	1.6	70	0	987.1	NA	0.0000	-SN BR	6000	390	0	0	0
2019/11/25 10:29:00	BASE	19.12	10	21.92	11	1.6	100	1.6	69	0	987.3	NA	0.0000	-SN BR	5000	430	0	0	0
2019/11/25 10:30:00	BASE	18.64	11	21.66	6	1.6	100	1.6	70	0	987.3	NA	0.0000	-SN BR	5000	430	0	0	0
2019/11/25 10:31:00	BASE	18.83	11	21.66	6	1.6	100	1.6	71	0	987.2	NA	0.0000	-SN BR	6000	430	4760	0	0
2019/11/25 10:32:00	BASE	19.43	10	21.66	6	1.6	100	1.6	71	0	987.2	NA	0.0000	-SN BR	5000	0	0	0	1940
2019/11/25 10:33:01	BASE	19.63	9	21.66	6	1.6	100	1.6	70	0	987.3	NA	0.0000	-SN BR	4600	0	0	0	1800
2019/11/25 10:34:00	BASE	19.22	9	21.66	6	1.6	100	1.6	69	0	987.3	NA	0.0000	-SN BR	5000	0	0	0	1740
2019/11/25 10:35:00	BASE	18.18	10	21.66	6	1.6	100	1.6	68	0	987.5	NA	0.0000	-SN BR	6000	390	0	0	0
2019/11/25 10:36:00	BASE	18.18	10	21.66	6	1.6	100	1.6	66	0	987.3	NA	0.0000	-SN BR	5000	0	0	0	1740
2019/11/25 10:37:00	BASE	19.01	10	21.66	6	1.6	100	1.6	67	0	987.4	NA	0.0000	-SN BR	3300	390	0	0	0
2019/11/25 10:38:00	BASE	18.81	10	21.25	8	1.5	100	1.5	64	0	987.5	NA	0.0000	-SN BR	4200	390	0	0	0
2019/11/25 10:39:00	BASE	18.35	9	21.25	8	1.5	100	1.5	61	0	987.5	NA	0.0000	-SN BR	6000	390	0	0	0
2019/11/25 10:40:00	BASE	18.37	8	21.25	8	1.5	100	1.5	57	0	987.6	NA	0.0000	-SN BR	5000	330	0	0	0
2019/11/25 10:41:00	BASE	18.44	7	21.25	8	1.5	100	1.5	58	0	987.5	NA	0.0000	-SN BR	4000	330	0	0	0
2019/11/25 10:42:00	BASE	18.14	7	21.14	15	1.5	100	1.5	59	0	987.6	NA	0.0000	-SN BR	4700	330	0	0	0
2019/11/25 10:43:00	BASE	18.55	7	21.14	15	1.5	100	1.5	58	0	987.5	NA	0.0000	-SN BR	5000	300	0	0	0
2019/11/25 10:44:00	BASE	17.93	8	21.14	15	1.5	100	1.5	62	0	987.7	NA	0.0000	-SN BR	2900	300	0	0	0
2019/11/25 10:45:00	BASE	16.86	9	21.14	15	1.4	100	1.4	65	0	987.7	NA	0.0000	-SN BR	4300	330	0	0	0
2019/11/25 10:46:00	BASE	17.49	8	21.14	15	1.4	100	1.4	62	0	987.6	NA	0.0000	-SN BR	6000	360	0	0	0
2019/11/25 10:47:00	BASE	17.79	7	20.58	8	1.4	100	1.4	57	0	987.7	NA	0.2540	-SN BR	6000	330	0	0	0
2019/11/25 10:48:00	BASE	17.59	9	20.58	8	1.4	100	1.4	52	0	987.7	NA	0.0000	-SN BR	5000	300	0	0	0
2019/11/25 10:49:00	BASE	17.49	10	20.58	8	1.4	100	1.4	54	0	987.7	NA	0.0000	-SN BR	3900	300	0	0	0
2019/11/25 10:50:00	BASE	17.79	12	20.58	8	1.5	100	1.5	55	0	987.6	NA	0.0000	-SN BR	3000	300	0	0	0
2019/11/25 10:51:00	BASE	18.05	13	20.58	8	1.5	100	1.5	53	0	987.6	NA	0.0000	-SN BR	2800	300	0	0	0
2019/11/25 10:52:00	BASE	17.84	14	20.58	8	1.4	100	1.4	48	0	987.7	NA	0.0000	-SN BR	2600	330	0	0	0
2019/11/25 10:53:00	BASE	17.85	13	20.37	12	1.4	100	1.4	47	0	987.6	NA	0.0000	-SN BR	2400	300	0	0	0
2019/11/25 10:54:00	BASE	18.53	12	20.47	9	1.4	100	1.4	48	0	987.6	NA	0.0000	-SN BR	3500	300	0	0	0
2019/11/25 10:55:00	BASE	18.84	15	20.47	9	1.4	100	1.4	50	0	987.6	NA	0.0000	-SN BR	2600	300	0	0	0
2019/11/25 10:56:00	BASE	18.34	15	20.47	9	1.4	100	1.4	51	0	987.6	NA	0.0000	-SN BR	2200	300	0	0	0
2019/11/25 10:57:00	BASE	17.48	14	20.47	9	1.4	100	1.4	52	0	987.8	NA	0.0000	-SN BR	2200	330	0	0	0
2019/11/25 10:58:00	BASE	16.84	16	20.47	9	1.3	100	1.3	49	0	987.8	NA	0.0000	-SN BR	4100	330	0	0	0
2019/11/25 10:59:00	BASE	16.84	15	20.47	9	1.4	100	1.4	46	0	987.8	NA	0.0000	-SN BR	4100	330	0	0	0
2019/11/25 11:00:00	BASE	16.94	13	20.47	9	1.3	100	1.3	43	0	987.8	NA	0.0000	-SN BR	2900	300	0	0	0
2019/11/25 11:01:00	BASE	18.11	12	21.35	16	1.3	100	1.3	45	0	987.6	NA	0.0000	-SN BR	2700	300	0	0	0
2019/11/25 11:02:00	BASE	19.23	12	21.35	16	1.3	100	1.3	46	0	987.7	NA	0.0000	-SN BR	1800	260	0	0	0
2019/11/25 11:03:00	BASE	18.63	12	21.35	16	1.3	100	1.3	48	0	987.8	NA	0.0000	-SN BR	2300	260	0	0	0
2019/11/25 11:04:00	BASE	17.71	13	21.35	16	1.3	100	1.3	47	0	987.9	NA	0.0000	-SN BR	2400	260	0	0	0
2019/11/25 11:05:00	BASE	17.69	13	21.35	16	1.3	100	1.3	49	0	987.8	NA	0.2540	-SN BR	2500	300	0	0	0
2019/11/25 11:06:00	BASE	17.83	12	21.35	16	1.3	100	1.3	51	0	987.8	NA	0.0000	-SN BR	3100	300	0	0	0
2019/11/25 11:07:00	BASE	17.24	13	21.35	16	1.2	100	1.2	53	0	987.9	NA	0.0000	-SN BR	4100	300	0	0	0
2019/11/25 11:08:00	BASE	17.60	12	21.35	16	1.2	100	1.2	54	0	987.8	NA	0.0000	-SN BR	4400	330	0	0	0
2019/11/25 11:09:00	BASE	17.89	11	21.35	16	1.2	100	1.2	52	0	987.9	NA	0.0000	-SN BR	4400	300	0	0	0
2019/11/25 11:10:00	BASE	17.61	11	21.35	16	1.2	100	1.2	48	0	987.9	NA	0.0000	-SN BR	5000	300	0	0	0
2019/11/25 11:11:00	BASE	17.89	11	20.27	9	1.2	100	1.2	51	0	987.9	NA	0.0000	-SN BR	5000	300	0	0	0
2019/11/25 11:12:00	BASE	17.87	12	19.91	20	1.2	100	1.2	55	0	987.9	NA	0.0000	-SN BR	5000	330	0	0	0
2019/11/25 11:13:00	BASE	17.59	11	19.91	20	1.2	100	1.2	57	0	987.9	NA	0.0000	-SN BR	4700	330	0	0	0
2019/11/25 11:14:00	BASE	17.41	12	19.91	20	1.2	100	1.2	57	0	987.9	NA	0.0000	-SN BR	5000	330	0	0	0
2019/11/25 11:15:01	BASE	17.60	15	19.91	20	1.2	100	1.2	56	0	987.9	NA	0.0000	-SN BR	4900	360	0	0	0
2019/11/25 11:16:00	BASE	18.14	16	20.47	9	1.2	100	1.2	54	0	987.8	NA	0.0000	-SN BR	3300	360	0	0	0
2019/11/25 11:17:00	BASE	18.74	15	20.47	9	1.2	100	1.2	54	0	987.8	NA	0.0000	-SN BR	4100	260	0	0	0
2019/11/25 11:18:00	BASE	18.38	13	20.47	9	1.2	100	1.2	53	0	987.8	NA	0.0000	-SN BR	2800	230	0	0	0
2019/11/25 11:19:00	BASE	17.62	14	20.47	9	1.2	100	1.2	55	0	987.8	NA	0.0000	-SN BR	2100	230	0	0	0
2019/11/25 11:20:00	BASE	16.98	15	20.47	9	1.2	100	1.2	61	0	988.0	NA	0.0000	-SN BR	2300	230	0	0	0
2019/11/25 11:21:00	BASE	17.33	15	20.47	9	1.2	100	1.2	66	0	987.8	NA	0.0000	-SN BR	2100	260	0	0	0
2019/11/25 11:22:00	BASE	18.09	16	20.47	9	1.2	100	1.2	74	0	987.8	NA	0.0000	-SN BR	2300	300	0	0	0
2019/11/25 11:23:01	BASE	17.64	15	20.47	9	1.2	100	1.2	73	0	987.9	NA	0.0000	-SN BR	3000	260	0	0	0
2019/11/25 11:24:01	BASE	17.57	15	20.47	9	1.2	100	1.2	75	0	987.9	NA	0.0000	-SN BR	3300	260	0	0	0
2019/11/25 11:25:01	BASE	17.24	15	20.47	9	1.1	100	1.1	71	0	988.0	NA	0.0000	-SN BR	2200	230	0	0	0
2019/11/25 11:26:01	BASE	17.00	13	20.01	20	1.1	100	1.1	67	0	988.0	NA	0.2540	-SN BR	2400	260	0	0	0
2019/11/25 11:27:00	BASE	18.26	15	20.53	15	1.1	100	1.1	63	0	987.8	NA	0.0000	-SN BR	2100	200	0	0	0
2019/11/25 11:28:00	BASE	18.71	17	20.53	15	1.1	100	1.1	64	0	987.9	NA	0.0000	-SN BR	1800	230	0	0	0
2019/11/25 11:29:01	BASE	17.86	17	20.53	15	1.1	100	1.1	71	0	987.9	NA	0.0000	-SN BR	1800	0	0	0	1670
2019/11/25 11:30:01	BASE	17.66	17	20.53	15	1.1	100	1.1	73	0	987.9	NA	0.0000	-SN BR	2000	260	0	0	0
2019/11/25 11:31:00	BASE	18.14	16	20.53	15	1.1	100	1.1	76	0	987.8	NA	0.0000	-SN BR	2300	330	0	0	0
2019/11/25 11:32:00	BASE	17.67	13	20.53	15	1.1	100	1.1	77	0	987.9	NA	0.0000	-SN BR	2000	330	0	0	0
2019/11/25 11:33:00	BASE	17.09	10	20.53	15	1.1	100	1.1	77	0	988.0	NA	0.0000	-SN BR	2400	300	0	0	0
2019/11/25 11:34:00	BASE	16.78	10	20.53	15	1.1	100	1.1	78	0	988.1	NA	0.0000	-SN BR	5000	330	0	0	0
2019/11/25 11:35:00	BASE	17.27	12	20.53	15	1.1	100	1.1	81	0	987.9	NA	0.0000	-SN BR	6000	300	0	0	0
2019/11/25 11:36:00	BASE	18.09	13	20.53	15	1.1	100	1.1	82	0	988.0	NA	0.0000	-SN BR	4300	260	0	0	0
2019/11/25 11:37:00	BASE	17.91	15	19.75	20	1.1	100	1.1	81	0	987.9	NA	0.0000	-SN BR	3100	300	22440	0	0
2019/11/25 11:38:00	BASE	17.83	13	20.27	12	1.1	100	1.1	89	0	988.0	NA	0.0000	-SN BR	2300	230	0	0	0
2019/11/25 11:39:00	BASE	17.31	9	20.27	12	1.1	100	1.1	93	0	988.1	NA	0.0000	-SN BR	2300	230	0	0	0
2019/11/25 11:40:00	BASE	17.25	11	20.27	12	1.1	100	1.1	92	0	988.0	NA	0.0000	-SN BR	2700	230	0	0	0
2019/11/25 11:41:00	BASE	17.41	14	20.27	12	1.0	100	1.0	94	0	988.1	NA	0.0000	-SN BR	2000	230	0	0	0
2019/11/25 11:42:00	BASE	17.23	13	20.27	12	1.0	100	1.0	94	0	988.1	NA	0.0000	-SN BR	2000	260	0	0	0
2019/11/25 11:43:00	BASE	17.42	11	20.27	12	1.0	100	1.0	91	0	988.1	NA	0.2540	-SN BR	2100	230	0	0	0
2019/11/25 11:44:00	BASE	17.40	12	20.27	12	1.0	100	1.0	91	0	988.1	NA	0.0000	-SN BR	2100	230	0	0	0
2019/11/25 11:45:00	BASE	18.04	13	20.27	12	1.0	100	1.0	96	0	988.0	NA	0.0000	-SN BR	1900	260	0	0	0
2019/11/25 11:46:00	BASE	18.35	14	20.27	12	1.0	100	1.0	98	0	988.0	NA	0.0000	-SN BR	2100	230	0	0	0
2019/11/25 11:47:00	BASE	17.29	13	20.27	12	1.0	100	1.0	102	0	988.1	NA	0.0000	-SN BR	2500	300	0	0	0
2019/11/25 11:48:00	BASE	17.70	12	20.06	18	1.0	100	1.0	109	0	988.0	NA	0.0000	-SN BR	4800	260	0	0	0
2019/11/25 11:49:00	BASE	18.73	12	20.06	18	1.0	100	1.0	123	0	988.0	NA	0.0000	-SN BR	3800	300	0	0	0
2019/11/25 11:50:00	BASE	18.95	12	20.32	10	1.0	100	1.0	143	0	987.9	NA	0.0000	-SN BR	4600	260	0	0	0
2019/11/25 11:51:00	BASE	19.27	12	21.25	19	1.0	100	1.0	162	0	987.9	NA	0.0000	-SN BR	5000	260	0	0	0
2019/11/25 11:52:00	BASE	19.09	11	21.25	19	1.0	100	1.0	185	0	988.0	NA	0.0000	-SN BR	6000	260	22180	0	0
2019/11/25 11:53:00	BASE	19.19	11	21.25	19	1.0	100	1.0	179	0	987.9	NA	0.0000	-SN BR	4800	300	0	0	0
2019/11/25 11:54:00	BASE	19.26	10	21.25	19	1.0	100	1.0	166	0	988.1	NA	0.0000	-SN BR	4800	330	0	0	0
2019/11/25 11:55:00	BASE	18.86	10	21.25	19	1.0	100	1.0	160	0	988.0	NA	0.0000	-SN BR	8000	360	0	0	0
2019/11/25 11:56:00	BASE	18.25	11	21.25	19	1.0	100	1.0	153	0	988.1	NA	0.0000	-SN BR	9000	360	0	0	0
2019/11/25 11:57:00	BASE	18.05	10	21.25	19	1.0	100	1.0	148	0	988.1	NA	0.0000	-SN BR	9999	360	0	0	0
2019/11/25 11:58:00	BASE	18.68	10	21.25	19	1.0	100	1.0	144	0	988.1	NA	0.0000	-SN BR	9999	360	0	0	0
2019/11/25 11:59:00	BASE	18.93	11	21.25	19	1.0	100	1.0	145	0	988.1	NA	0.0000	-SN BR	9999	360	22410	0	0
2019/11/25 12:00:00	BASE	18.80	12	21.25	19	1.0	100	1.0	155	0	988.1	NA	0.0000	-SN BR	9999	360	0	0	0
2019/11/25 12:01:00	BASE	18.16	12	20.78	6	1.0	100	1.0	152	0	988.2	NA	0.0000	-SN BR	9999	390	0	0	0
2019/11/25 12:02:00	BASE	17.91	12	20.78	6	1.0	100	1.0	148	0	988.2	NA	0.0000	-SN BR	9999	390	0	0	0
2019/11/25 12:03:00	BASE	18.30	14	20.78	6	1.0	100	1.0	142	0	988.2	NA	0.0000	-SN BR	9999	360	0	0	0
2019/11/25 12:04:00	BASE	18.29	14	20.78	6	1.0	100	1.0	134	0	988.2	NA	0.0000	-SN	9999	360	1120	0	0
2019/11/25 12:05:00	BASE	18.55	16	20.83	19	1.0	100	1.0	131	0	988.1	NA	0.0000	-SN	6000	390	0	0	0
2019/11/25 12:06:00	BASE	18.39	17	20.83	19	1.0	100	1.0	120	0	988.3	NA	0.0000	-SN	8000	920	0	0	0
2019/11/25 12:07:00	BASE	17.95	15	20.83	19	1.0	100	1.0	114	0	988.3	NA	0.0000	-SN	9999	390	0	0	0
2019/11/25 12:08:00	BASE	17.74	12	21.14	15	1.0	100	1.0	120	0	988.3	NA	0.0000	-SN	9999	390	0	0	0
2019/11/25 12:09:00	BASE	17.56	12	21.14	15	1.0	100	1.0	122	0	988.3	NA	0.0000	-SN	9999	430	0	0	0
2019/11/25 12:10:00	BASE	17.32	12	21.14	15	1.0	100	1.0	132	0	988.4	NA	0.0000	-SN	9999	1020	0	0	0
2019/11/25 12:11:00	BASE	17.24	11	21.14	15	1.0	100	1.0	148	0	988.3	NA	0.0000	-SN	9999	1020	0	0	0
2019/11/25 12:12:00	BASE	17.76	11	21.14	15	1.0	100	1.0	143	0	988.3	NA	0.0000	-SN	9999	1150	0	0	0
2019/11/25 12:13:00	BASE	17.28	12	21.14	15	1.0	100	1.0	148	0	988.5	NA	0.0000	-SN	9999	1120	0	0	0
2019/11/25 12:14:00	BASE	16.99	11	21.14	15	1.0	100	1.0	150	0	988.4	NA	0.0000	-SN	9999	1120	0	0	0
2019/11/25 12:15:00	BASE	17.20	10	21.14	15	1.0	100	1.0	149	0	988.3	NA	0.0000	-SN	6000	390	0	0	0
2019/11/25 12:16:00	BASE	17.26	12	21.14	15	1.0	100	1.0	140	0	988.4	NA	0.0000	-SN BR	2200	330	0	0	0
2019/11/25 12:17:00	BASE	16.84	12	21.14	15	1.0	100	1.0	141	0	988.5	NA	0.0000	-SN BR	2300	330	0	0	0
2019/11/25 12:18:00	BASE	17.08	13	20.42	15	1.0	100	1.0	146	0	988.3	NA	0.0000	-SN BR	3000	330	1510	0	0
2019/11/25 12:19:00	BASE	18.30	9	20.42	15	1.0	100	1.0	141	0	988.3	NA	0.0000	-SN BR	3500	360	1380	0	0
2019/11/25 12:20:00	BASE	17.54	4	20.42	15	1.0	100	1.0	142	0	988.5	NA	0.0000	-SN BR	9000	360	0	0	0
2019/11/25 12:21:00	BASE	17.30	4	20.42	15	1.0	100	1.0	136	0	988.4	NA	0.0000	-SN BR	9999	360	0	0	0
2019/11/25 12:22:00	BASE	18.42	5	20.42	15	1.0	100	1.0	123	0	988.4	NA	0.0000	-SN BR	9999	360	22640	0	0
2019/11/25 12:23:00	BASE	18.06	3	20.42	15	1.0	100	1.0	117	0	988.5	NA	0.0000	-SN BR	9999	1150	0	0	0
2019/11/25 12:24:00	BASE	17.41	4	20.42	15	1.0	100	1.0	113	0	988.5	NA	0.0000	-SN BR	9999	1250	0	0	0
2019/11/25 12:25:00	BASE	16.75	5	20.42	15	1.0	100	1.0	105	0	988.6	NA	0.0000	-SN BR	9999	1120	0	0	0
2019/11/25 12:26:00	BASE	15.57	2	20.06	8	1.0	100	1.0	101	0	988.7	NA	0.0000	-SN BR	9999	1050	0	0	0
2019/11/25 12:27:00	BASE	16.20	4	20.06	8	1.1	100	1.1	98	0	988.6	NA	0.0000	-SN BR	9999	1120	0	0	0
2019/11/25 12:28:00	BASE	17.36	5	20.17	3	1.1	100	1.1	90	0	988.6	NA	0.0000	-SN	9999	1120	0	0	0
2019/11/25 12:29:00	BASE	16.98	2	20.17	3	1.1	100	1.1	89	0	988.6	NA	0.0000	-SN	9999	950	0	0	0
2019/11/25 12:30:00	BASE	16.35	2	20.17	3	1.1	100	1.1	88	0	988.7	NA	0.0000	-SN	9999	430	0	0	0
2019/11/25 12:31:00	BASE	16.06	4	20.17	3	1.1	100	1.1	86	0	988.7	NA	0.0000	-SN	9999	1050	0	0	0
2019/11/25 12:32:00	BASE	16.50	5	20.17	3	1.0	100	1.0	87	0	988.7	NA	0.0000	-SN	9999	950	0	0	0
2019/11/25 12:33:00	BASE	17.53	7	20.17	3	1.0	100	1.0	82	0	988.5	NA	0.0000	-SN	9999	1020	0	0	0
2019/11/25 12:34:00	BASE	18.38	6	20.17	3	1.0	100	1.0	86	0	988.5	NA	0.0000		9999	750	0	0	0
2019/11/25 12:35:00	BASE	18.23	6	20.17	3	0.9	100	0.9	87	0	988.6	NA	0.0000		9999	390	0	0	0
2019/11/25 12:36:00	BASE	17.81	5	20.17	3	0.9	100	0.9	85	0	988.7	NA	0.0000		9999	390	0	0	0
2019/11/25 12:37:00	BASE	17.37	5	20.17	3	0.9	100	0.9	86	0	988.7	NA	0.0000		9999	390	0	0	0
2019/11/25 12:38:00	BASE	16.85	4	20.06	5	0.9	100	0.9	85	0	988.7	NA	0.0000		9999	390	0	0	0
2019/11/25 12:39:00	BASE	17.12	3	20.06	5	0.9	100	0.9	80	0	988.6	NA	0.0000		9999	390	0	0	0
2019/11/25 12:40:00	BASE	17.44	3	20.78	3	0.9	100	0.9	84	0	988.6	NA	0.0000		9999	390	0	0	0
2019/11/25 12:41:00	BASE	18.29	3	20.89	360	0.9	100	0.9	93	0	988.5	NA	0.0000		9999	360	0	0	0
2019/11/25 12:42:00	BASE	18.24	4	20.89	360	0.9	100	0.9	98	0	988.8	NA	0.0000		9999	430	0	0	0
2019/11/25 12:43:00	BASE	17.23	4	20.89	360	0.9	100	0.9	99	0	988.8	NA	0.0000	-SN	9999	430	0	0	0
2019/11/25 12:44:00	BASE	16.86	4	20.89	360	0.9	100	0.9	98	0	988.8	NA	0.0000	-SN	9999	390	0	0	0
2019/11/25 12:45:00	BASE	16.61	3	20.89	360	0.9	100	0.9	102	0	988.8	NA	0.0000		9999	390	0	0	0
2019/11/25 12:46:00	BASE	16.59	4	20.89	360	0.9	100	0.9	108	0	988.8	NA	0.0000		9999	390	0	0	0
2019/11/25 12:47:00	BASE	17.58	5	20.89	360	0.9	100	0.9	118	0	988.7	NA	0.0000		9999	390	0	0	0
2019/11/25 12:48:00	BASE	18.06	4	20.89	360	0.9	100	0.9	121	0	988.7	NA	0.0000	-SN	9999	390	0	0	0
2019/11/25 12:49:00	BASE	17.55	1	20.89	360	0.9	100	0.9	118	0	988.7	NA	0.0000	-SN	9999	430	0	0	0
2019/11/25 12:50:00	BASE	17.71	2	20.89	360	0.9	100	0.9	119	0	988.8	NA	0.0000	-SN	9999	390	0	0	0
2019/11/25 12:51:00	BASE	17.69	1	20.63	3	0.9	100	0.9	122	0	988.7	NA	0.0000	-SN	9999	430	0	0	0
2019/11/25 12:52:00	BASE	17.42	1	20.63	3	0.9	100	0.9	121	0	988.8	NA	0.0000	-SN	9999	0	0	0	2690
2019/11/25 12:53:00	BASE	17.36	7	20.63	3	0.9	100	0.9	126	0	988.8	NA	0.0000		9999	390	0	0	0
2019/11/25 12:54:00	BASE	17.70	5	20.63	3	0.9	100	0.9	132	0	988.8	NA	0.0000		9999	390	0	0	0
2019/11/25 12:55:00	BASE	16.54	4	20.63	3	0.9	100	0.9	129	0	988.9	NA	0.0000		9999	430	0	0	0
2019/11/25 12:56:00	BASE	15.51	7	20.63	3	0.9	100	0.9	131	0	988.9	NA	0.0000		9999	430	0	0	0
2019/11/25 12:57:00	BASE	16.66	4	20.63	3	0.9	100	0.9	126	0	988.7	NA	0.0000		9999	1150	0	0	0
2019/11/25 12:58:00	BASE	17.57	2	19.91	5	0.9	100	0.9	132	0	988.8	NA	0.0000		9999	1280	0	0	0
2019/11/25 12:59:00	BASE	17.67	3	19.91	5	0.9	100	0.9	134	0	988.8	NA	0.0000		9999	1250	0	0	0
2019/11/25 13:00:00	BASE	17.80	3	19.70	11	0.9	100	0.9	137	0	988.8	NA	0.0000		9999	1180	0	0	0
2019/11/25 13:01:00	BASE	17.62	4	19.70	11	0.9	100	0.9	151	0	988.8	NA	0.0000		9999	1250	21330	0	0
2019/11/25 13:02:00	BASE	16.96	1	19.70	11	0.9	100	0.9	154	0	988.9	NA	0.0000		9999	1350	2400	0	0
2019/11/25 13:03:00	BASE	17.37	1	19.70	349	0.9	100	0.9	153	0	988.7	NA	0.0000		9999	1510	2330	0	0
2019/11/25 13:04:00	BASE	17.98	5	20.53	326	0.9	100	0.9	143	0	988.8	NA	0.0000		9999	1150	0	0	0
2019/11/25 13:05:00	BASE	17.91	6	20.53	326	0.9	100	0.9	142	0	988.7	NA	0.0000		9999	1150	0	0	0
2019/11/25 13:06:00	BASE	17.93	5	20.53	326	0.9	100	0.9	153	0	988.7	NA	0.0000		9999	1210	19100	0	0
2019/11/25 13:07:00	BASE	17.36	7	20.53	326	0.9	100	0.9	158	0	988.9	NA	0.0000		9999	1180	0	0	0
2019/11/25 13:08:00	BASE	17.03	7	20.53	326	0.9	100	0.9	169	0	988.8	NA	0.0000		9999	1080	0	0	0
2019/11/25 13:09:00	BASE	17.12	1	20.53	326	0.9	100	0.9	165	0	988.7	NA	0.0000		9999	1120	0	0	0
2019/11/25 13:10:00	BASE	18.59	4	22.12	1	0.9	100	0.9	173	0	988.5	NA	0.0000		9999	1080	22110	0	0
2019/11/25 13:11:00	BASE	19.60	6	22.12	1	0.9	100	0.9	176	0	988.7	NA	0.0000		9999	1050	0	0	0
2019/11/25 13:12:00	BASE	18.93	5	22.12	1	0.9	100	0.9	178	0	988.7	NA	0.0000		9999	980	0	0	0
2019/11/25 13:13:00	BASE	18.33	4	22.12	1	0.9	100	0.9	180	0	988.8	NA	0.0000		9999	1080	0	0	0
2019/11/25 13:14:00	BASE	17.46	1	22.12	1	0.9	100	0.9	159	0	988.8	NA	0.0000		9999	1120	0	0	0
2019/11/25 13:15:00	BASE	17.16	1	22.12	1	0.9	100	0.9	178	0	988.8	NA	0.0000		9999	1080	0	0	0
2019/11/25 13:16:00	BASE	16.72	1	22.12	1	0.9	100	0.9	187	0	988.8	NA	0.0000		9999	1150	0	0	0
2019/11/25 13:17:00	BASE	17.35	3	22.12	1	0.9	100	0.9	197	0	988.7	NA	0.0000		9999	1280	0	0	0
2019/11/25 13:18:00	BASE	17.77	3	22.12	1	0.9	100	0.9	201	0	988.8	NA	0.0000	-SN	9999	1250	0	0	0
2019/11/25 13:19:00	BASE	18.12	4	22.12	1	0.9	100	0.9	202	0	988.6	NA	0.0000	-SN	9999	1440	0	0	0
2019/11/25 13:20:00	BASE	18.66	3	21.61	360	0.9	100	0.9	195	0	988.7	NA	0.0000	-SN	9999	0	0	0	2850
2019/11/25 13:21:00	BASE	17.83	3	20.47	3	0.9	100	0.9	193	0	988.8	NA	0.0000	-SN	9999	390	0	0	0
2019/11/25 13:22:00	BASE	18.62	3	21.66	6	0.9	100	0.9	191	0	988.6	NA	0.0000	-SN	9999	0	0	0	2330
2019/11/25 13:23:00	BASE	19.71	2	21.66	6	0.9	100	0.9	180	0	988.6	NA	0.0000	-SN	9999	360	0	0	0
2019/11/25 13:24:00	BASE	19.90	3	21.66	6	0.9	100	0.9	178	0	988.5	NA	0.0000	-SN	9999	330	0	0	0
2019/11/25 13:25:00	BASE	20.22	6	21.86	360	0.9	100	0.9	170	0	988.6	NA	0.0000	-SN	9999	330	0	0	0
2019/11/25 13:26:00	BASE	20.73	4	23.15	4	0.9	100	0.9	166	0	988.4	NA	0.0000	-SN	9999	360	0	0	0
2019/11/25 13:27:00	BASE	19.78	1	23.15	4	0.9	100	0.9	156	0	988.7	NA	0.0000	-SN	9999	360	0	0	0
2019/11/25 13:28:00	BASE	17.98	2	23.15	4	0.9	100	0.9	160	0	988.7	NA	0.0000	-SN	9999	360	0	0	0
2019/11/25 13:29:00	BASE	17.96	1	23.15	4	0.9	100	0.9	164	0	988.7	NA	0.0000	-SN	9999	360	0	0	0
2019/11/25 13:30:00	BASE	19.21	2	23.20	3	0.9	100	0.9	170	0	988.5	NA	0.0000	-SN	9999	360	0	0	0
2019/11/25 13:31:00	BASE	19.13	358	23.20	3	0.9	100	0.9	168	0	988.7	NA	0.0000	-SN	9999	390	0	0	0
2019/11/25 13:32:00	BASE	18.41	357	23.20	3	0.9	100	0.9	174	0	988.7	NA	0.0000	-SN	9999	390	0	0	0
2019/11/25 13:33:00	BASE	19.32	1	23.20	3	0.9	100	0.9	192	0	988.5	NA	0.0000	-SN	9999	390	0	0	0
2019/11/25 13:34:00	BASE	19.80	1	23.20	3	0.9	100	0.9	183	0	988.5	NA	0.0000	-SN	9999	390	0	0	0
2019/11/25 13:35:00	BASE	19.30	2	23.20	3	0.9	100	0.9	194	0	988.6	NA	0.0000	-SN	9999	390	0	0	0
2019/11/25 13:36:00	BASE	18.52	2	23.20	3	0.9	100	0.9	162	0	988.7	NA	0.0000	-SN	9999	1080	22770	0	0
2019/11/25 13:37:00	BASE	18.58	1	23.20	3	0.9	100	0.9	154	0	988.6	NA	0.0000	-SN	9999	1150	0	0	0
2019/11/25 13:38:00	BASE	19.29	4	23.20	3	0.9	100	0.9	157	0	988.6	NA	0.0000	-SN	9999	390	0	0	0
2019/11/25 13:39:00	BASE	18.84	4	23.20	3	0.9	100	0.9	157	0	988.8	NA	0.0000	-SN	9999	430	20900	0	0
2019/11/25 13:40:00	BASE	18.72	360	22.02	360	0.9	100	0.9	149	0	988.6	NA	0.0000	-SN	9999	390	0	0	0
2019/11/25 13:41:00	BASE	18.88	1	22.02	360	0.9	100	0.9	148	0	988.7	NA	0.0000	-SN	9999	360	0	0	0
2019/11/25 13:42:00	BASE	18.62	2	22.02	360	0.9	100	0.9	149	0	988.7	NA	0.0000	-SN	9999	390	0	0	0
2019/11/25 13:43:00	BASE	19.13	2	22.22	2	0.9	100	0.9	165	0	988.7	NA	0.0000	-SN	9999	1080	0	0	0
2019/11/25 13:44:00	BASE	19.28	356	22.22	2	0.9	100	0.9	157	0	988.7	NA	0.0000	-SN	9999	390	0	0	0
2019/11/25 13:45:00	BASE	17.95	356	22.22	2	0.9	100	0.9	158	0	988.9	NA	0.0000	-SN	9999	390	0	0	0
2019/11/25 13:46:00	BASE	17.22	2	22.22	2	0.9	100	0.9	148	0	988.8	NA	0.0000	-SN	9999	360	0	0	0
2019/11/25 13:47:00	BASE	18.32	2	22.22	2	0.9	100	0.9	151	0	988.8	NA	0.0000	-SN	9999	360	0	0	0
2019/11/25 13:48:00	BASE	18.63	360	22.22	2	0.9	100	0.9	153	0	988.8	NA	0.0000	-SN	9999	430	0	0	0
2019/11/25 13:49:00	BASE	17.43	357	22.22	2	0.9	100	0.9	164	0	988.9	NA	0.0000	-SN	9999	430	0	0	0
2019/11/25 13:50:00	BASE	16.94	1	22.22	2	0.9	100	0.9	162	0	988.9	NA	0.0000	-SN	9999	390	0	0	0
2019/11/25 13:51:00	BASE	17.20	4	22.22	2	0.9	100	0.9	179	0	988.9	NA	0.0000	-SN	9999	390	0	0	0
2019/11/25 13:52:00	BASE	17.30	3	22.22	2	0.9	100	0.9	209	0	988.9	NA	0.0000	-SN	9999	390	0	0	0
2019/11/25 13:53:00	BASE	16.60	2	22.17	348	0.9	100	0.9	245	0	989.1	NA	0.0000	-SN	9999	1050	0	0	0
2019/11/25 13:54:00	BASE	16.24	4	21.40	7	0.9	100	0.9	216	0	989.1	NA	0.0000	-SN	9999	1050	0	0	0
2019/11/25 13:55:00	BASE	16.97	4	21.40	7	0.9	100	0.9	184	0	989.1	NA	0.0000	-SN	9999	1050	0	0	0
2019/11/25 13:56:00	BASE	16.57	356	21.40	7	0.9	100	0.9	185	0	989.2	NA	0.0000	-SN	9999	1050	0	0	0
2019/11/25 13:57:00	BASE	16.47	356	20.06	4	0.9	100	0.9	184	0	989.1	NA	0.0000	-SN	9999	980	0	0	0
2019/11/25 13:58:00	BASE	16.99	1	19.60	360	0.9	100	0.9	173	0	989.1	NA	0.0000	-SN	9999	1080	0	0	0
2019/11/25 13:59:00	BASE	17.44	7	19.60	360	0.9	100	0.9	178	0	989.1	NA	0.0000	-SN	9999	1020	0	0	0
2019/11/25 14:00:00	BASE	17.53	6	19.60	360	0.9	100	0.9	161	0	989.1	NA	0.0000	-SN	9999	1050	0	0	0
2019/11/25 14:01:00	BASE	17.34	2	19.81	353	0.9	100	0.9	147	0	989.1	NA	0.0000	-SN	9999	980	0	0	0
2019/11/25 14:02:00	BASE	16.61	1	19.81	353	0.9	100	0.9	142	0	989.3	NA	0.0000		9999	980	0	0	0
2019/11/25 14:03:00	BASE	16.60	1	19.81	353	0.9	100	0.9	132	0	989.3	NA	0.0000		9999	980	0	0	0
2019/11/25 14:04:00	BASE	16.87	2	19.81	353	0.9	100	0.9	133	0	989.4	NA	0.0000		9999	950	0	0	0
2019/11/25 14:05:00	BASE	16.27	3	19.81	353	0.9	100	0.9	110	0	989.4	NA	0.0000		9999	920	0	0	0
2019/11/25 14:06:00	BASE	16.22	5	19.81	353	0.8	100	0.8	101	0	989.4	NA	0.0000		9999	920	0	0	0
2019/11/25 14:07:00	BASE	16.61	5	19.81	353	0.8	100	0.8	104	0	989.4	NA	0.0000		9999	950	0	0	0
2019/11/25 14:08:00	BASE	17.09	7	19.81	353	0.8	100	0.8	109	0	989.4	NA	0.0000		9999	950	23200	0	0
2019/11/25 14:09:00	BASE	17.01	7	19.81	353	0.8	100	0.8	108	0	989.4	NA	0.0000		9999	850	0	0	0
2019/11/25 14:10:00	BASE	16.70	5	19.81	353	0.8	100	0.8	102	0	989.5	NA	0.0000		9999	430	0	0	0
2019/11/25 14:11:00	BASE	16.08	5	19.29	1	0.8	100	0.8	107	0	989.5	NA	0.0000		9999	390	0	0	0
2019/11/25 14:12:00	BASE	16.08	4	19.29	1	0.8	100	0.8	106	0	989.5	NA	0.0000		9999	360	0	0	0
2019/11/25 14:13:00	BASE	16.75	5	19.29	1	0.8	100	0.8	105	0	989.5	NA	0.0000		9999	360	0	0	0
2019/11/25 14:14:00	BASE	16.93	4	19.29	1	0.8	100	0.8	102	0	989.5	NA	0.0000		9999	260	1280	0	0
2019/11/25 14:15:00	BASE	16.72	5	19.03	1	0.8	100	0.8	103	0	989.6	NA	0.0000		9999	230	1250	0	0
2019/11/25 14:16:00	BASE	16.51	4	19.03	1	0.8	100	0.8	104	0	989.7	NA	0.0000	-SN	9999	330	0	0	0
2019/11/25 14:17:00	BASE	16.25	4	19.03	1	0.8	100	0.8	104	0	989.7	NA	0.0000	-SN	9999	330	0	0	0
2019/11/25 14:18:00	BASE	16.11	4	19.03	1	0.8	100	0.8	94	0	989.8	NA	0.0000	-SN	9999	0	0	0	1840
2019/11/25 14:19:00	BASE	15.41	359	19.03	1	0.8	100	0.8	96	0	989.9	NA	0.0000	-SN	9999	260	0	0	0
2019/11/25 14:20:00	BASE	14.60	358	19.03	1	0.8	100	0.8	97	0	989.9	NA	0.0000	-SN	9999	0	0	0	1710
2019/11/25 14:21:00	BASE	15.07	1	19.03	1	0.8	100	0.8	99	0	989.8	NA	0.0000	-SN	9999	0	0	0	1670
2019/11/25 14:22:00	BASE	15.34	3	19.03	1	0.8	100	0.8	96	0	990.0	NA	0.0000	-SN	9999	0	0	0	1670
2019/11/25 14:23:00	BASE	16.07	4	19.03	1	0.8	100	0.8	90	0	989.8	NA	0.0000	-SN	9999	0	0	0	1640
2019/11/25 14:24:00	BASE	16.69	2	18.78	355	0.8	100	0.8	89	0	989.8	NA	0.0000	-SN	9999	0	0	0	1570
2019/11/25 14:25:00	BASE	15.57	360	18.78	355	0.7	100	0.7	94	0	990.0	NA	0.0000	-SN	9999	0	0	0	1640
2019/11/25 14:26:00	BASE	15.23	359	18.21	7	0.7	100	0.7	98	0	989.9	NA	0.0000	-SN	9999	0	0	0	1640
2019/11/25 14:27:00	BASE	15.10	359	18.16	8	0.7	100	0.7	95	0	990.0	NA	0.0000	-SN	9999	0	0	0	1740
2019/11/25 14:28:00	BASE	14.76	1	18.16	8	0.7	100	0.7	99	0	989.9	NA	0.0000	-SN	9999	0	0	0	1710
2019/11/25 14:29:00	BASE	15.72	1	18.16	8	0.7	100	0.7	94	0	989.9	NA	0.0000	-SN	9999	0	0	0	1610
2019/11/25 14:30:00	BASE	15.61	1	18.06	3	0.7	100	0.7	90	0	990.0	NA	0.0000	-SN	9999	0	0	0	1510
2019/11/25 14:31:00	BASE	15.12	2	18.06	3	0.7	100	0.7	88	0	990.0	NA	0.0000	-SN	9999	0	0	0	1480
2019/11/25 14:32:00	BASE	15.67	2	18.06	3	0.7	100	0.7	90	0	989.9	NA	0.2540	-SN	9999	230	0	0	0
2019/11/25 14:33:00	BASE	15.81	2	18.06	3	0.7	100	0.7	95	0	989.9	NA	0.0000	-SN	9999	330	0	0	0
2019/11/25 14:34:00	BASE	15.41	360	18.06	3	0.7	100	0.7	99	0	990.0	NA	0.0000	-SN	9999	390	0	0	0
2019/11/25 14:35:00	BASE	16.11	355	21.04	353	0.7	100	0.7	101	0	989.8	NA	0.0000	-SN	9999	430	0	0	0
2019/11/25 14:36:00	BASE	16.93	354	21.04	353	0.7	100	0.7	102	0	989.9	NA	0.0000	-SN	9999	430	0	0	0
2019/11/25 14:37:00	BASE	16.99	357	21.04	353	0.8	100	0.8	94	0	989.8	NA	0.0000	-SN	9999	950	0	0	0
2019/11/25 14:38:00	BASE	17.09	360	21.04	353	0.8	100	0.8	93	0	989.9	NA	0.0000	-SN	9999	920	0	0	0
2019/11/25 14:39:00	BASE	16.19	358	21.04	353	0.8	100	0.8	98	0	990.1	NA	0.0000	-SN	9999	920	0	0	0
2019/11/25 14:40:00	BASE	15.46	357	21.04	353	0.8	100	0.8	96	0	990.1	NA	0.0000		9999	820	0	0	0
2019/11/25 14:41:00	BASE	16.68	359	21.04	353	0.7	100	0.7	96	0	989.8	NA	0.0000	-SN	9999	430	0	0	0
2019/11/25 14:42:00	BASE	17.26	359	21.04	353	0.7	100	0.7	96	0	990.0	NA	0.0000	-SN	9999	430	0	0	0
2019/11/25 14:43:00	BASE	16.35	357	21.04	353	0.7	100	0.7	101	0	990.1	NA	0.0000	-SN	9999	750	0	0	0
2019/11/25 14:44:00	BASE	15.55	356	21.04	353	0.7	100	0.7	91	0	990.2	NA	0.0000	-SN	9999	850	0	0	0
2019/11/25 14:45:00	BASE	15.11	0	19.75	350	0.7	100	0.7	95	0	990.2	NA	0.0000	-SN	9999	750	0	0	0
2019/11/25 14:46:00	BASE	15.37	0	19.75	350	0.7	100	0.7	97	0	990.2	NA	0.0000		9999	690	0	0	0
2019/11/25 14:47:00	BASE	15.55	358	18.98	4	0.7	100	0.7	101	0	990.1	NA	0.0000		9999	690	0	0	0
2019/11/25 14:48:00	BASE	15.57	356	18.98	4	0.7	100	0.7	104	0	990.1	NA	0.0000		9999	820	0	0	0
2019/11/25 14:49:00	BASE	15.66	355	18.98	4	0.7	100	0.7	99	0	990.1	NA	0.0000		9999	490	0	0	0
2019/11/25 14:50:00	BASE	15.73	356	18.98	4	0.7	100	0.7	100	0	990.1	NA	0.0000		9999	790	0	0	0
2019/11/25 14:51:00	BASE	16.09	359	18.83	345	0.7	100	0.7	98	0	990.1	NA	0.0000		9999	890	0	0	0
2019/11/25 14:52:00	BASE	16.00	2	18.83	345	0.7	100	0.7	97	0	990.2	NA	0.0000		9999	890	0	0	0
2019/11/25 14:53:00	BASE	15.92	358	18.67	354	0.7	100	0.7	95	0	990.2	NA	0.0000		9999	820	0	0	0
2019/11/25 14:54:00	BASE	15.87	358	18.67	354	0.7	100	0.7	99	0	990.3	NA	0.0000		9999	850	0	0	0
2019/11/25 14:55:00	BASE	15.44	357	18.67	354	0.7	100	0.7	105	0	990.2	NA	0.0000		9999	430	0	0	0
2019/11/25 14:56:00	BASE	14.71	358	18.67	354	0.7	100	0.7	113	0	990.3	NA	0.0000		9999	920	0	0	0
2019/11/25 14:57:00	BASE	14.17	359	18.67	354	0.7	100	0.7	120	0	990.3	NA	0.0000		9999	850	0	0	0
2019/11/25 14:58:00	BASE	14.14	355	18.67	354	0.7	100	0.7	130	0	990.4	NA	0.0000		9999	850	0	0	0
2019/11/25 14:59:00	BASE	14.04	356	18.67	354	0.7	100	0.7	121	0	990.4	NA	0.0000		9999	890	21230	0	0
2019/11/25 15:00:00	BASE	13.38	356	18.67	354	0.7	100	0.7	117	0	990.5	NA	0.0000		9999	950	0	0	0
2019/11/25 15:01:00	BASE	13.30	355	18.67	354	0.7	100	0.7	115	0	990.4	NA	0.0000		9999	890	0	0	0
2019/11/25 15:02:00	BASE	14.55	357	18.67	354	0.7	100	0.7	121	0	990.3	NA	0.0000		9999	890	0	0	0
2019/11/25 15:03:00	BASE	14.99	359	17.85	355	0.7	100	0.7	126	0	990.4	NA	0.0000		9999	920	0	0	0
2019/11/25 15:04:00	BASE	14.66	359	16.87	333	0.8	100	0.8	115	0	990.4	NA	0.0000		9999	850	0	0	0
2019/11/25 15:05:01	BASE	14.53	358	16.98	352	0.8	100	0.8	113	0	990.4	NA	0.0000		9999	850	21420	0	0
2019/11/25 15:06:00	BASE	14.56	356	16.98	352	0.8	100	0.8	122	0	990.4	NA	0.0000		9999	850	0	0	0
2019/11/25 15:07:00	BASE	14.01	356	16.98	352	0.8	100	0.8	121	0	990.5	NA	0.0000		9999	850	0	0	0
2019/11/25 15:08:00	BASE	14.22	358	16.98	352	0.8	100	0.8	129	0	990.5	NA	0.0000		9999	850	0	0	0
2019/11/25 15:09:00	BASE	14.76	357	16.98	352	0.8	100	0.8	125	0	990.5	NA	0.0000		9999	850	0	0	0
2019/11/25 15:10:00	BASE	14.68	354	16.98	352	0.8	100	0.8	122	0	990.5	NA	0.0000		9999	820	0	0	0
2019/11/25 15:11:00	BASE	15.15	355	18.37	1	0.8	100	0.8	133	0	990.4	NA	0.0000		9999	790	0	0	0
2019/11/25 15:12:00	BASE	14.89	353	18.37	1	0.8	100	0.8	140	0	990.5	NA	0.0000		9999	850	0	0	0
2019/11/25 15:13:00	BASE	13.94	351	18.37	1	0.9	100	0.9	123	0	990.5	NA	0.0000		9999	720	0	0	0
2019/11/25 15:14:00	BASE	14.22	354	18.37	1	0.9	100	0.9	117	0	990.6	NA	0.0000		9999	850	0	0	0
2019/11/25 15:15:00	BASE	14.45	358	18.37	1	0.9	100	0.9	117	0	990.7	NA	0.0000		9999	820	0	0	0
2019/11/25 15:16:00	BASE	14.61	357	18.37	1	0.9	100	0.9	121	0	990.6	NA	0.0000		9999	820	0	0	0
2019/11/25 15:17:00	BASE	14.74	352	18.37	1	0.9	100	0.9	111	0	990.6	NA	0.0000		9999	790	0	0	0
2019/11/25 15:18:00	BASE	14.88	356	18.78	9	0.9	100	0.9	118	0	990.5	NA	0.0000		9999	750	0	0	0
2019/11/25 15:19:00	BASE	16.43	357	19.39	3	0.9	100	0.9	117	0	990.4	NA	0.0000		9999	890	0	0	0
2019/11/25 15:20:00	BASE	17.41	351	19.70	354	0.9	100	0.9	114	0	990.6	NA	0.0000		9999	750	0	0	0
2019/11/25 15:21:00	BASE	16.38	350	19.70	354	0.9	100	0.9	111	0	990.7	NA	0.0000		9999	890	0	0	0
2019/11/25 15:22:00	BASE	15.95	354	19.70	354	0.9	100	0.9	117	0	990.6	NA	0.0000		9999	890	0	0	0
2019/11/25 15:23:00	BASE	15.73	350	19.70	354	0.9	100	0.9	123	0	990.7	NA	0.0000		9999	890	24410	0	0
2019/11/25 15:24:00	BASE	15.13	353	19.70	354	0.9	100	0.9	113	0	990.8	NA	0.0000		9999	850	0	0	0
2019/11/25 15:25:00	BASE	15.54	360	19.70	354	0.9	100	0.9	101	0	990.8	NA	0.0000		9999	980	0	0	0
2019/11/25 15:26:00	BASE	16.26	356	19.70	354	0.9	100	0.9	104	0	990.7	NA	0.0000		9999	1020	0	0	0
2019/11/25 15:27:00	BASE	15.74	356	19.70	354	0.9	100	0.9	109	0	990.9	NA	0.0000		9999	920	0	0	0
2019/11/25 15:28:00	BASE	14.52	358	19.70	354	0.9	100	0.9	106	0	991.1	NA	0.0000		9999	920	0	0	0
2019/11/25 15:29:00	BASE	13.80	355	19.70	354	0.9	100	0.9	100	0	991.1	NA	0.0000		9999	950	0	0	0
2019/11/25 15:30:00	BASE	13.92	354	19.50	1	0.9	100	0.9	95	0	991.0	NA	0.0000		9999	920	0	0	0
2019/11/25 15:31:00	BASE	14.66	358	19.50	1	0.9	100	0.9	91	0	991.0	NA	0.0000		9999	850	0	0	0
2019/11/25 15:32:00	BASE	14.39	358	19.50	1	0.9	100	0.9	89	0	991.1	NA	0.0000		9999	950	0	0	0
2019/11/25 15:33:00	BASE	15.73	357	19.81	3	0.9	100	0.9	92	0	990.8	NA	0.0000		9999	890	0	0	0
2019/11/25 15:34:00	BASE	16.88	0	19.81	3	0.9	100	0.9	94	0	991.0	NA	0.0000		9999	820	0	0	0
2019/11/25 15:35:00	BASE	15.67	0	19.81	3	0.9	100	0.9	92	0	991.1	NA	0.0000		9999	890	22470	0	0
2019/11/25 15:36:00	BASE	15.00	2	19.81	3	0.9	100	0.9	97	0	991.1	NA	0.0000		9999	920	0	0	0
2019/11/25 15:37:00	BASE	14.65	5	19.81	3	0.9	100	0.9	95	0	991.3	NA	0.0000		9999	890	0	0	0
2019/11/25 15:38:00	BASE	13.74	360	19.81	3	0.9	100	0.9	94	0	991.4	NA	0.0000		9999	950	0	0	0
2019/11/25 15:39:00	BASE	13.77	357	19.81	3	0.9	100	0.9	93	0	991.2	NA	0.0000		9999	850	0	0	0
2019/11/25 15:40:00	BASE	15.36	359	19.81	3	0.9	100	0.9	91	0	991.1	NA	0.0000		9999	950	0	0	0
2019/11/25 15:41:00	BASE	15.95	357	19.81	3	0.9	100	0.9	90	0	991.2	NA	0.0000		9999	950	0	0	0
2019/11/25 15:42:00	BASE	15.46	355	19.81	3	0.9	100	0.9	87	0	991.3	NA	0.0000		9999	890	0	0	0
2019/11/25 15:43:00	BASE	14.56	356	17.80	8	0.9	100	0.9	88	0	991.4	NA	0.0000		9999	920	0	0	0
2019/11/25 15:44:00	BASE	14.32	355	17.80	8	0.9	100	0.9	85	0	991.3	NA	0.0000		9999	920	0	0	0
2019/11/25 15:45:00	BASE	15.81	360	19.03	360	0.9	100	0.9	86	0	991.2	NA	0.0000		9999	950	0	0	0
2019/11/25 15:46:00	BASE	16.53	360	19.03	360	0.9	100	0.9	88	0	991.3	NA	0.0000		9999	920	0	0	0
2019/11/25 15:47:00	BASE	16.72	356	20.58	1	0.9	100	0.9	85	0	991.2	NA	0.0000		9999	950	0	0	0
2019/11/25 15:48:00	BASE	16.44	356	20.58	1	1.0	100	1.0	82	0	991.4	NA	0.0000		9999	890	0	0	0
2019/11/25 15:49:00	BASE	15.90	359	20.58	1	1.0	100	1.0	86	0	991.4	NA	0.0000		9999	980	0	0	0
2019/11/25 15:50:00	BASE	15.17	359	20.58	1	1.0	100	1.0	79	0	991.6	NA	0.0000		9999	1020	0	0	0
2019/11/25 15:51:00	BASE	15.27	356	20.58	1	1.0	100	1.0	80	0	991.3	NA	0.0000		9999	1020	0	0	0
2019/11/25 15:52:00	BASE	16.84	357	20.58	12	1.0	100	1.0	84	0	991.3	NA	0.0000		9999	1050	0	0	0
2019/11/25 15:53:00	BASE	16.35	358	20.58	12	1.0	100	1.0	86	0	991.4	NA	0.0000		9999	1020	0	0	0
2019/11/25 15:54:00	BASE	15.56	353	20.58	12	1.0	100	1.0	84	0	991.5	NA	0.0000		9999	1120	0	0	0
2019/11/25 15:55:00	BASE	14.73	355	20.58	12	1.0	100	1.0	78	0	991.7	NA	0.0000		9999	1120	0	0	0
2019/11/25 15:56:00	BASE	14.57	359	20.58	12	1.0	100	1.0	76	0	991.6	NA	0.0000		9999	1080	0	0	0
2019/11/25 15:57:00	BASE	15.06	357	20.58	12	1.0	100	1.0	78	0	991.6	NA	0.0000		9999	430	19950	0	0
2019/11/25 15:58:00	BASE	14.67	0	20.58	12	1.0	100	1.0	79	0	991.7	NA	0.0000		9999	1120	0	0	0
2019/11/25 15:59:00	BASE	15.03	359	20.58	12	1.0	100	1.0	82	0	991.6	NA	0.0000		9999	390	0	0	0
2019/11/25 16:00:00	BASE	15.30	352	20.58	12	1.0	100	1.0	79	0	991.7	NA	0.0000		9999	1120	0	0	0
2019/11/25 16:01:00	BASE	15.19	350	20.58	12	1.0	100	1.0	76	0	991.7	NA	0.0000		9999	1120	0	0	0
2019/11/25 16:02:00	BASE	16.26	358	20.27	9	1.0	100	1.0	83	0	991.5	NA	0.0000	UP	9999	390	0	0	0
2019/11/25 16:03:00	BASE	16.70	7	20.27	9	1.0	100	1.0	79	0	991.7	NA	0.0000	UP	9999	360	0	0	0
2019/11/25 16:04:00	BASE	15.98	6	20.27	9	1.0	100	1.0	83	0	991.7	NA	0.0000	UP	9999	330	0	0	0
2019/11/25 16:05:00	BASE	16.58	1	20.27	9	1.0	100	1.0	76	0	991.5	NA	0.0000	UP	9999	330	0	0	0
2019/11/25 16:06:00	BASE	16.38	357	20.27	9	1.0	100	1.0	78	0	991.7	NA	0.0000	UP	9999	300	0	0	0
2019/11/25 16:07:00	BASE	15.40	357	20.27	9	1.0	100	1.0	74	0	991.8	NA	0.0000	UP	9999	300	0	0	0
2019/11/25 16:08:00	BASE	15.84	359	20.27	9	1.0	100	1.0	71	0	991.7	NA	0.0000	UP	9999	300	0	0	0
2019/11/25 16:09:00	BASE	16.66	0	20.27	9	1.0	100	1.0	72	0	991.6	NA	0.0000	UP	9999	330	0	0	0
2019/11/25 16:10:00	BASE	16.23	358	20.27	9	1.0	100	1.0	74	0	991.8	NA	0.0000	UP	9999	330	0	0	0
2019/11/25 16:11:00	BASE	15.61	356	20.27	9	1.0	100	1.0	69	0	991.8	NA	0.0000	UP	9999	330	0	0	0
2019/11/25 16:12:00	BASE	16.04	359	19.24	54	0.9	100	0.9	69	0	991.7	NA	0.0000	UP	9999	300	0	0	0
2019/11/25 16:13:00	BASE	16.56	360	19.03	353	0.9	100	0.9	75	0	991.8	NA	0.0000	UP	9999	330	0	0	0
2019/11/25 16:14:00	BASE	16.50	1	19.03	353	0.9	100	0.9	69	0	991.8	NA	0.0000	UP	9999	330	0	0	0
2019/11/25 16:15:00	BASE	16.60	0	19.03	353	0.9	100	0.9	73	0	991.8	NA	0.0000	UP	9999	330	0	0	0
2019/11/25 16:16:00	BASE	16.99	1	19.03	353	0.9	100	0.9	72	0	991.8	NA	0.0000	UP	9999	230	0	0	0
2019/11/25 16:17:00	BASE	16.19	4	19.03	353	0.9	100	0.9	75	0	991.9	NA	0.0000	UP	9999	230	1250	0	0
2019/11/25 16:18:00	BASE	15.27	3	19.03	353	0.9	100	0.9	72	0	992.0	NA	0.0000	UP	9999	230	1250	0	0
2019/11/25 16:19:00	BASE	15.75	5	19.03	353	0.9	100	0.9	69	0	991.9	NA	0.0000	UP	9999	0	0	0	1610
2019/11/25 16:20:00	BASE	15.91	6	19.03	353	0.9	100	0.9	79	0	991.9	NA	0.0000	UP	9999	0	0	0	1480
2019/11/25 16:21:00	BASE	16.09	4	19.03	353	0.9	100	0.9	91	0	991.8	NA	0.0000	UP	9999	0	0	0	1640
2019/11/25 16:22:00	BASE	15.59	358	19.03	353	0.9	100	0.9	87	0	992.0	NA	0.0000	UP	9999	0	0	0	1640
2019/11/25 16:23:00	BASE	15.88	357	18.93	5	0.8	100	0.8	89	0	991.8	NA	0.0000	UP	9999	230	0	0	0
2019/11/25 16:24:00	BASE	16.52	4	18.93	5	0.8	100	0.8	91	0	991.9	NA	0.0000	UP	9999	0	0	0	1440
2019/11/25 16:25:00	BASE	15.61	2	18.93	5	0.8	100	0.8	97	0	992.0	NA	0.0000	UP	9999	0	0	0	1540
2019/11/25 16:26:00	BASE	15.11	358	18.93	5	0.8	100	0.8	95	0	992.1	NA	0.0000	UP	9999	22610	0	0	0
2019/11/25 16:27:00	BASE	15.16	359	18.93	5	0.8	100	0.8	96	0	992.0	NA	0.0000	UP	9999	0	0	0	1540
2019/11/25 16:28:00	BASE	15.64	1	18.93	5	0.8	100	0.8	92	0	992.0	NA	0.0000	UP	9999	0	0	0	1670
2019/11/25 16:29:00	BASE	15.83	1	18.93	5	0.8	100	0.8	92	0	992.0	NA	0.0000	UP	9999	0	0	0	1640
2019/11/25 16:30:00	BASE	16.59	0	18.93	5	0.8	100	0.8	85	0	991.9	NA	0.0000	UP	9999	0	0	0	1670
2019/11/25 16:31:00	BASE	17.28	4	18.52	6	0.8	100	0.8	77	0	992.0	NA	0.0000	UP	9999	0	0	0	1510
2019/11/25 16:32:00	BASE	17.31	4	19.24	2	0.8	100	0.8	72	0	991.9	NA	0.0000	UP	9999	0	0	0	1540
2019/11/25 16:33:00	BASE	16.91	2	19.24	2	0.8	100	0.8	69	0	992.0	NA	0.0000	UP	9999	0	0	0	1440
2019/11/25 16:34:00	BASE	16.70	4	19.70	7	0.8	100	0.8	64	0	992.0	NA	0.0000	UP	9999	300	0	0	0
2019/11/25 16:35:00	BASE	17.30	9	19.70	7	0.8	100	0.8	61	0	992.0	NA	0.0000	UP	9999	330	0	0	0
2019/11/25 16:36:00	BASE	17.86	5	19.70	1	0.8	100	0.8	61	0	991.8	NA	0.0000	UP	9999	360	0	0	0
2019/11/25 16:37:00	BASE	17.80	3	19.70	1	0.8	100	0.8	63	0	992.0	NA	0.0000	UP	9999	390	0	0	0
2019/11/25 16:38:00	BASE	16.45	5	19.70	1	0.8	100	0.8	61	0	992.1	NA	0.0000	UP	9999	430	0	0	0
2019/11/25 16:39:00	BASE	15.96	6	20.06	8	0.8	100	0.8	62	0	992.1	NA	0.0000	UP	9999	390	0	0	0
2019/11/25 16:40:00	BASE	16.46	6	20.06	8	0.8	100	0.8	63	0	992.1	NA	0.0000	UP	9999	390	0	0	0
2019/11/25 16:41:00	BASE	16.23	4	20.06	8	0.8	100	0.8	64	0	992.1	NA	0.0000	UP	9999	390	0	0	0
2019/11/25 16:42:00	BASE	16.25	7	20.06	8	0.8	100	0.8	69	0	992.1	NA	0.0000		9999	360	0	0	0
2019/11/25 16:43:00	BASE	15.68	7	20.06	8	0.8	100	0.8	68	0	992.3	NA	0.0000		9999	330	0	0	0
2019/11/25 16:44:00	BASE	15.65	2	20.06	8	0.8	100	0.8	69	0	992.2	NA	0.0000		9999	300	0	0	0
2019/11/25 16:45:00	BASE	16.87	1	20.06	8	0.8	100	0.8	69	0	992.2	NA	0.0000		9999	300	0	0	0
2019/11/25 16:46:00	BASE	16.85	3	20.06	8	0.8	100	0.8	67	0	992.2	NA	0.0000		9999	260	0	0	0
2019/11/25 16:47:00	BASE	16.28	5	20.06	8	0.8	100	0.8	72	0	992.2	NA	0.0000		9999	300	0	0	0
2019/11/25 16:48:00	BASE	16.18	7	20.06	8	0.8	100	0.8	74	0	992.2	NA	0.0000		9999	300	0	0	0
2019/11/25 16:49:00	BASE	16.54	7	18.98	3	0.8	100	0.8	77	0	992.2	NA	0.0000		9999	330	0	0	0
2019/11/25 16:50:00	BASE	16.68	4	18.98	3	0.8	100	0.8	82	0	992.2	NA	0.0000		9999	330	0	0	0
2019/11/25 16:51:00	BASE	16.36	3	18.98	3	0.8	100	0.8	85	0	992.3	NA	0.0000		9999	360	0	0	0
2019/11/25 16:52:00	BASE	16.10	359	18.98	3	0.8	100	0.8	86	0	992.3	NA	0.0000		9999	390	0	0	0
2019/11/25 16:53:00	BASE	15.83	357	18.98	3	0.8	100	0.8	85	0	992.3	NA	0.0000		9999	390	0	0	0
2019/11/25 16:54:00	BASE	15.91	1	18.98	3	0.8	100	0.8	86	0	992.3	NA	0.0000		9999	980	0	0	0
2019/11/25 16:55:00	BASE	16.46	2	18.98	3	0.8	100	0.8	82	0	992.3	NA	0.0000		9999	980	0	0	0
2019/11/25 16:56:00	BASE	16.88	0	20.01	360	0.8	100	0.8	83	0	992.3	NA	0.2540		9999	390	0	0	0
2019/11/25 16:57:00	BASE	16.44	1	20.01	360	0.8	100	0.8	89	0	992.4	NA	0.0000		9999	360	0	0	0
2019/11/25 16:58:00	BASE	15.77	3	20.01	360	0.9	100	0.9	94	0	992.4	NA	0.0000		9999	330	0	0	0
2019/11/25 16:59:00	BASE	14.78	2	20.01	360	0.9	100	0.9	98	0	992.5	NA	0.0000		9999	300	0	0	0
2019/11/25 17:00:00	BASE	14.46	360	20.01	360	0.8	100	0.8	100	0	992.5	NA	0.0000		9999	300	0	0	0
2019/11/25 17:01:00	BASE	15.32	0	20.01	360	0.8	100	0.8	102	0	992.5	NA	0.0000		9999	300	0	0	0
2019/11/25 17:02:00	BASE	15.04	2	20.01	360	0.8	100	0.8	105	0	992.6	NA	0.0000		9999	330	0	0	0
2019/11/25 17:03:00	BASE	15.04	360	20.01	360	0.8	100	0.8	111	0	992.5	NA	0.0000		9999	330	0	0	0
2019/11/25 17:04:00	BASE	15.39	359	20.01	360	0.8	100	0.8	113	0	992.6	NA	0.0000		9999	300	0	0	0
2019/11/25 17:05:00	BASE	15.21	360	20.01	360	0.8	100	0.8	114	0	992.6	NA	0.0000		9999	260	1510	0	0
2019/11/25 17:06:00	BASE	14.81	357	18.67	354	0.8	100	0.8	115	0	992.7	NA	0.0000		9999	0	0	0	1640
2019/11/25 17:07:00	BASE	14.53	357	18.16	1	0.8	100	0.8	115	0	992.6	NA	0.0000		9999	0	0	0	1640
2019/11/25 17:08:00	BASE	14.37	355	18.16	1	0.8	100	0.8	115	0	992.7	NA	0.0000		9999	260	0	0	0
2019/11/25 17:09:00	BASE	14.05	353	18.16	1	0.8	100	0.8	114	0	992.7	NA	0.0000		9999	330	0	0	0
2019/11/25 17:10:00	BASE	14.22	355	17.65	352	0.8	100	0.8	112	0	992.7	NA	0.0000		9999	390	0	0	0
2019/11/25 17:11:00	BASE	14.57	353	17.65	352	0.8	100	0.8	101	0	992.7	NA	0.0000		9999	390	0	0	0
2019/11/25 17:12:00	BASE	15.17	354	18.01	10	0.8	100	0.8	93	0	992.6	NA	0.0000		9999	390	0	0	0
2019/11/25 17:13:00	BASE	14.22	358	18.01	10	0.8	100	0.8	88	0	992.9	NA	0.0000		9999	390	0	0	0
2019/11/25 17:14:00	BASE	13.17	356	18.01	10	0.8	100	0.8	88	0	992.8	NA	0.0000		9999	950	0	0	0
2019/11/25 17:15:00	BASE	13.46	358	18.01	10	0.8	100	0.8	91	0	992.9	NA	0.0000		9999	850	0	0	0
2019/11/25 17:16:00	BASE	14.39	357	18.01	10	0.8	100	0.8	88	0	992.7	NA	0.0000		9999	980	0	0	0
2019/11/25 17:17:00	BASE	14.71	353	18.01	10	0.8	100	0.8	85	0	992.8	NA	0.0000		9999	1020	0	0	0
2019/11/25 17:18:00	BASE	14.93	353	18.01	10	0.8	100	0.8	86	0	992.7	NA	0.0000		9999	1020	0	0	0
2019/11/25 17:19:00	BASE	15.91	354	18.73	346	0.8	100	0.8	90	0	992.7	NA	0.0000		9999	1020	0	0	0
2019/11/25 17:20:00	BASE	15.47	354	18.73	346	0.8	100	0.8	91	0	992.8	NA	0.0000		9999	1050	0	0	0
2019/11/25 17:21:00	BASE	15.46	359	18.73	346	0.8	100	0.8	93	0	992.7	NA	0.0000		9999	950	0	0	0
2019/11/25 17:22:00	BASE	16.11	3	18.73	346	0.8	100	0.8	98	0	992.7	NA	0.0000		9999	980	0	0	0
2019/11/25 17:23:00	BASE	15.68	359	18.73	346	0.8	100	0.8	110	0	992.8	NA	0.0000		9999	920	0	0	0
2019/11/25 17:24:00	BASE	16.06	357	20.47	71	0.8	100	0.8	118	0	992.6	NA	0.0000		9999	950	0	0	0
2019/11/25 17:25:00	BASE	16.34	356	20.47	71	0.8	100	0.8	134	0	992.8	NA	0.0000		9999	890	0	0	0
2019/11/25 17:26:00	BASE	15.80	356	20.47	71	0.8	100	0.8	132	0	992.8	NA	0.0000		9999	660	0	0	0
2019/11/25 17:27:00	BASE	16.44	3	20.47	71	0.8	100	0.8	125	0	992.7	NA	0.0000		9999	390	0	0	0
2019/11/25 17:28:00	BASE	17.02	6	20.47	71	0.8	100	0.8	116	0	992.7	NA	0.0000		9999	360	0	0	0
2019/11/25 17:29:00	BASE	16.87	2	20.47	71	0.8	100	0.8	111	0	992.7	NA	0.0000		9999	330	0	0	0
2019/11/25 17:30:00	BASE	16.34	359	20.47	71	0.9	100	0.9	103	0	992.8	NA	0.0000	UP	9999	360	0	0	0
2019/11/25 17:31:00	BASE	15.92	359	20.47	71	0.9	100	0.9	101	0	992.8	NA	0.0000	UP	9999	430	0	0	0
2019/11/25 17:32:00	BASE	16.09	357	20.47	71	0.9	100	0.9	103	0	992.9	NA	0.0000	UP	9999	360	0	0	0
2019/11/25 17:33:00	BASE	15.48	352	20.47	71	0.8	100	0.8	105	0	993.0	NA	0.0000	UP	9999	390	0	0	0
2019/11/25 17:34:00	BASE	15.13	351	19.39	352	0.8	100	0.8	109	0	992.9	NA	0.0000	UP	9999	560	0	0	0
2019/11/25 17:35:00	BASE	15.41	355	19.39	352	0.8	100	0.8	113	0	993.0	NA	0.0000	UP	9999	620	21850	0	0
2019/11/25 17:36:00	BASE	16.02	359	19.39	352	0.8	100	0.8	118	0	992.8	NA	0.0000	UP	9999	1020	0	0	0
2019/11/25 17:37:00	BASE	16.28	358	19.39	352	0.8	100	0.8	119	0	993.0	NA	0.0000	UP	9999	1050	0	0	0
2019/11/25 17:38:00	BASE	15.25	354	19.34	344	0.8	100	0.8	117	0	993.1	NA	0.0000	UP	9999	1020	0	0	0
2019/11/25 17:39:00	BASE	14.41	349	19.34	344	0.8	100	0.8	118	0	993.2	NA	0.0000	UP	9999	1050	0	0	0
2019/11/25 17:40:00	BASE	14.95	352	19.34	344	0.8	100	0.8	124	0	993.1	NA	0.0000	UP	9999	1050	0	0	0
2019/11/25 17:41:00	BASE	15.55	355	19.34	344	0.8	100	0.8	127	0	993.2	NA	0.0000	UP	9000	1150	0	0	0
2019/11/25 17:42:00	BASE	15.50	354	19.34	344	0.9	100	0.9	129	0	993.1	NA	0.0000	UP	6000	1120	0	0	0
2019/11/25 17:43:00	BASE	15.47	357	19.34	344	0.9	100	0.9	122	0	993.2	NA	0.0000	UP	6000	1120	0	0	0
2019/11/25 17:44:00	BASE	15.62	356	19.34	344	0.9	100	0.9	121	0	993.1	NA	0.0000	UP BR	7000	1180	0	0	0
2019/11/25 17:45:00	BASE	15.89	353	19.34	344	0.9	100	0.9	127	0	993.1	NA	0.0000	UP BR	8000	1180	0	0	0
2019/11/25 17:46:00	BASE	15.81	352	18.16	348	0.9	100	0.9	139	0	993.1	NA	0.0000	BR	8000	1250	0	0	0
2019/11/25 17:47:00	BASE	15.57	353	18.31	351	0.9	100	0.9	150	0	993.2	NA	0.0000	BR	9000	1250	0	0	0
2019/11/25 17:48:00	BASE	15.15	354	18.31	351	0.9	100	0.9	139	0	993.2	NA	0.0000	BR	9999	1310	0	0	0
2019/11/25 17:49:00	BASE	14.88	353	18.31	351	0.9	100	0.9	126	0	993.3	NA	0.0000	BR	9999	1310	0	0	0
2019/11/25 17:50:00	BASE	15.22	350	18.31	351	0.9	100	0.9	113	0	993.2	NA	0.0000	BR	9999	1180	0	0	0
2019/11/25 17:51:00	BASE	16.00	348	18.31	351	0.9	100	0.9	108	0	993.2	NA	0.0000	BR	9999	1120	0	0	0
2019/11/25 17:52:00	BASE	16.37	347	18.31	351	0.9	100	0.9	111	0	993.2	NA	0.0000	BR	9999	1050	0	0	0
2019/11/25 17:53:00	BASE	16.06	350	18.31	351	0.9	100	0.9	123	0	993.3	NA	0.0000	BR	9999	980	0	0	0
2019/11/25 17:54:00	BASE	15.79	351	18.31	351	0.9	100	0.9	121	0	993.3	NA	0.0000		9999	1050	0	0	0
2019/11/25 17:55:00	BASE	15.22	351	18.31	351	0.9	100	0.9	115	0	993.4	NA	0.0000		9999	920	0	0	0
2019/11/25 17:56:00	BASE	15.02	348	18.31	351	0.9	100	0.9	118	0	993.3	NA	0.0000		9999	950	0	0	0
2019/11/25 17:57:00	BASE	16.46	350	19.24	347	0.9	100	0.9	125	0	992.1	NA	0.0000		9999	1020	0	0	0
2019/11/25 17:58:00	BASE	16.85	352	19.24	347	0.9	100	0.9	146	0	992.8	NA	0.0000		9999	1020	0	0	0
2019/11/25 17:59:00	BASE	16.07	351	19.24	347	0.9	100	0.9	161	0	992.4	NA	0.0000		9999	1120	0	0	0
2019/11/25 18:00:00	BASE	15.34	353	19.24	347	0.9	100	0.9	170	0	993.0	NA	0.0000		9999	1080	0	0	0
2019/11/25 18:01:00	BASE	14.81	350	19.24	347	0.9	100	0.9	179	0	993.4	NA	0.0000		9999	1080	0	0	0
2019/11/25 18:02:00	BASE	14.70	351	19.24	347	0.9	100	0.9	186	0	993.4	NA	0.0000		9999	1080	0	0	0
2019/11/25 18:03:00	BASE	14.66	354	19.24	347	0.9	100	0.9	180	0	993.4	NA	0.0000		9999	1080	0	0	0
2019/11/25 18:04:00	BASE	14.13	353	19.24	347	0.9	100	0.9	160	0	993.6	NA	0.0000		9999	1080	0	0	0
2019/11/25 18:05:00	BASE	14.39	353	19.24	347	0.9	100	0.9	153	0	993.4	NA	0.0000		9999	590	0	0	0
2019/11/25 18:06:00	BASE	15.52	354	19.24	347	0.9	100	0.9	153	0	993.4	NA	0.0000		9999	460	0	0	0
2019/11/25 18:07:00	BASE	15.21	354	18.67	145	0.9	100	0.9	141	0	993.6	NA	0.0000		9999	430	0	0	0
2019/11/25 18:08:00	BASE	14.62	352	18.67	145	0.9	100	0.9	134	0	993.6	NA	0.0000		9999	1050	21200	0	0
2019/11/25 18:09:00	BASE	14.23	350	18.67	145	0.9	100	0.9	141	0	993.6	NA	0.0000		9999	430	0	0	0
2019/11/25 18:10:00	BASE	14.44	350	18.67	145	0.8	100	0.8	142	0	993.6	NA	0.0000		9999	1050	0	0	0
2019/11/25 18:11:00	BASE	14.55	356	18.67	145	0.8	100	0.8	149	0	993.6	NA	0.0000		9999	1080	0	0	0
2019/11/25 18:12:00	BASE	14.65	358	18.67	145	0.8	100	0.8	150	0	993.7	NA	0.0000		9999	1050	0	0	0
2019/11/25 18:13:00	BASE	14.94	351	18.67	145	0.8	100	0.8	149	0	993.7	NA	0.0000		9999	1050	0	0	0
2019/11/25 18:14:00	BASE	15.44	349	18.67	348	0.8	100	0.8	147	0	993.6	NA	0.0000		9999	1050	0	0	0
2019/11/25 18:15:00	BASE	15.94	351	18.67	348	0.8	100	0.8	148	0	993.7	NA	0.0000		9999	1080	16670	0	0
2019/11/25 18:16:00	BASE	16.36	353	19.70	350	0.8	100	0.8	143	0	993.6	NA	0.0000		9999	1180	23160	0	0
2019/11/25 18:17:00	BASE	16.44	351	19.70	350	0.8	100	0.8	120	0	993.7	NA	0.0000		9999	1080	0	0	0
2019/11/25 18:18:00	BASE	16.16	349	19.70	350	0.8	100	0.8	109	0	993.7	NA	0.0000		9999	1020	0	0	0
2019/11/25 18:19:00	BASE	16.41	349	19.70	350	0.8	100	0.8	116	0	993.8	NA	0.0000		9999	980	0	0	0
2019/11/25 18:20:00	BASE	16.29	350	19.70	350	0.8	100	0.8	118	0	993.8	NA	0.0000		9999	980	0	0	0
2019/11/25 18:21:00	BASE	16.67	353	19.70	350	0.8	100	0.8	124	0	993.8	NA	0.0000		9999	1080	0	0	0
2019/11/25 18:22:00	BASE	16.14	353	19.70	350	0.8	100	0.8	118	0	993.9	NA	0.0000		9999	1120	0	0	0
2019/11/25 18:23:00	BASE	15.15	353	19.70	350	0.8	100	0.8	114	0	993.9	NA	0.0000		9999	1080	0	0	0
2019/11/25 18:24:00	BASE	14.41	349	19.70	350	0.8	100	0.8	115	0	994.1	NA	0.0000		9999	1180	0	0	0
2019/11/25 18:25:00	BASE	14.58	348	19.70	350	0.8	100	0.8	117	0	994.0	NA	0.0000		9999	1180	0	0	0
2019/11/25 18:26:00	BASE	15.39	348	18.42	3	0.8	100	0.8	117	0	994.1	NA	0.0000		9999	1150	0	0	0
2019/11/25 18:27:00	BASE	14.83	348	18.42	3	0.8	100	0.8	106	0	994.2	NA	0.0000		9999	1180	0	0	0
2019/11/25 18:28:00	BASE	14.08	354	18.42	3	0.8	100	0.8	105	0	994.3	NA	0.0000		9999	1180	0	0	0
2019/11/25 18:29:00	BASE	13.61	353	18.42	3	0.8	100	0.8	102	0	994.3	NA	0.0000		9999	1250	0	0	0
2019/11/25 18:30:00	BASE	14.30	348	18.42	3	0.8	100	0.8	102	0	994.2	NA	0.0000		9999	1150	0	0	0
2019/11/25 18:31:00	BASE	14.43	350	17.70	344	0.8	100	0.8	105	0	994.4	NA	0.0000		9999	1150	0	0	0
2019/11/25 18:32:00	BASE	13.48	352	17.70	344	0.8	100	0.8	104	0	994.5	NA	0.0000		9999	1350	21460	0	0
2019/11/25 18:33:00	BASE	12.89	355	17.70	344	0.8	100	0.8	106	0	994.6	NA	0.0000		9999	1310	0	0	0
2019/11/25 18:34:00	BASE	12.41	355	17.70	344	0.8	100	0.8	108	0	994.6	NA	0.0000		9999	1180	0	0	0
2019/11/25 18:35:00	BASE	13.52	353	17.70	344	0.8	100	0.8	103	0	994.4	NA	0.0000		9999	1120	0	0	0
2019/11/25 18:36:00	BASE	14.86	353	17.70	344	0.9	100	0.9	91	0	994.5	NA	0.0000		9999	1080	0	0	0
2019/11/25 18:37:00	BASE	13.92	351	17.70	344	0.9	100	0.9	77	0	994.6	NA	0.0000		9999	1080	0	0	0
2019/11/25 18:38:00	BASE	12.85	350	17.70	344	0.9	100	0.9	69	0	994.7	NA	0.0000		9999	1050	0	0	0
2019/11/25 18:39:00	BASE	12.56	353	17.70	344	0.9	100	0.9	67	0	994.8	NA	0.0000		9999	1020	0	0	0
2019/11/25 18:40:00	BASE	12.51	350	16.57	355	0.9	100	0.9	67	0	994.7	NA	0.0000		9999	980	0	0	0
2019/11/25 18:41:00	BASE	12.59	350	16.26	349	0.9	100	0.9	72	0	994.8	NA	0.0000		9999	950	0	0	0
2019/11/25 18:42:00	BASE	12.62	352	16.26	349	0.9	100	0.9	80	0	994.8	NA	0.0000		9999	980	0	0	0
2019/11/25 18:43:00	BASE	13.25	353	16.26	349	0.9	100	0.9	77	0	994.7	NA	0.0000		9999	950	0	0	0
2019/11/25 18:44:00	BASE	13.45	354	16.26	349	0.9	100	0.9	72	0	994.7	NA	0.0000		9999	980	0	0	0
2019/11/25 18:45:00	BASE	13.57	354	16.10	355	0.9	100	0.9	69	0	994.7	NA	0.0000		9999	980	0	0	0
2019/11/25 18:46:00	BASE	13.89	354	15.90	350	0.9	100	0.9	69	0	994.7	NA	0.0000		9999	950	0	0	0
2019/11/25 18:47:00	BASE	13.07	353	15.90	350	0.9	100	0.9	70	0	994.9	NA	0.0000		9999	950	0	0	0
2019/11/25 18:48:00	BASE	13.11	357	16.87	347	0.9	100	0.9	71	0	994.8	NA	0.0000		9999	1020	0	0	0
2019/11/25 18:49:00	BASE	13.33	358	16.87	347	0.9	100	0.9	74	0	994.8	NA	0.0000		9999	1020	0	0	0
2019/11/25 18:50:00	BASE	12.35	357	16.87	347	0.9	100	0.9	76	0	994.9	NA	0.0000		9999	1020	0	0	0
2019/11/25 18:51:00	BASE	12.55	355	16.87	347	0.9	100	0.9	78	0	994.9	NA	0.0000		9999	1050	0	0	0
2019/11/25 18:52:00	BASE	12.50	351	16.87	347	0.9	100	0.9	77	0	995.0	NA	0.0000		9999	1120	0	0	0
2019/11/25 18:53:00	BASE	12.44	352	16.87	347	0.9	100	0.9	76	0	994.9	NA	0.0000		9999	1080	0	0	0
2019/11/25 18:54:00	BASE	12.46	352	16.87	347	0.9	100	0.9	79	0	995.0	NA	0.0000		9999	1050	0	0	0
2019/11/25 18:55:00	BASE	11.74	353	16.87	347	0.9	100	0.9	82	0	995.0	NA	0.0000		9999	1050	0	0	0
2019/11/25 18:56:00	BASE	11.73	354	16.87	347	0.9	100	0.9	82	0	995.0	NA	0.0000		9999	1020	0	0	0
2019/11/25 18:57:00	BASE	11.47	356	16.87	347	0.9	100	0.9	81	0	995.1	NA	0.0000		9999	1050	0	0	0
2019/11/25 18:58:00	BASE	11.90	358	14.97	1	0.9	100	0.9	80	0	995.0	NA	0.0000		9999	1120	0	0	0
2019/11/25 18:59:00	BASE	13.09	357	15.28	1	0.9	100	0.9	83	0	994.9	NA	0.0000		9999	1120	0	0	0
2019/11/25 19:00:00	BASE	13.22	0	15.28	1	0.9	100	0.9	84	0	994.9	NA	0.0000		9999	1150	0	0	0
2019/11/25 19:01:00	BASE	12.64	3	15.28	1	0.9	100	0.9	83	0	995.0	NA	0.0000		9999	1120	0	0	0
2019/11/25 19:02:00	BASE	12.58	356	15.28	1	1.0	100	1.0	80	0	995.1	NA	0.0000		9999	1150	0	0	0
2019/11/25 19:03:00	BASE	13.03	354	15.28	1	1.0	100	1.0	77	0	995.0	NA	0.0000		9999	1150	0	0	0
2019/11/25 19:04:00	BASE	13.03	357	15.28	1	1.0	100	1.0	75	0	995.0	NA	0.0000		9999	1150	0	0	0
2019/11/25 19:05:00	BASE	12.56	351	15.28	1	1.0	100	1.0	72	0	995.1	NA	0.0000		9999	1150	0	0	0
2019/11/25 19:06:00	BASE	12.75	352	15.28	1	0.9	100	0.9	73	0	995.1	NA	0.0000		9999	1120	0	0	0
2019/11/25 19:07:00	BASE	13.10	354	15.28	1	1.0	100	1.0	72	0	995.1	NA	0.0000		9999	1180	0	0	0
2019/11/25 19:08:00	BASE	12.45	353	15.28	1	1.0	100	1.0	72	0	995.1	NA	0.0000		9999	1180	0	0	0
2019/11/25 19:09:00	BASE	12.05	354	14.92	343	1.0	100	1.0	67	0	995.2	NA	0.0000		9999	1150	0	0	0
2019/11/25 19:10:00	BASE	12.05	355	14.92	343	1.0	100	1.0	65	0	995.1	NA	0.0000		9999	1210	0	0	0
2019/11/25 19:11:00	BASE	12.49	355	14.92	343	1.0	100	1.0	68	0	995.1	NA	0.0000		9999	1150	0	0	0
2019/11/25 19:12:00	BASE	12.71	354	14.92	343	1.0	100	1.0	69	0	995.1	NA	0.0000		9999	1180	0	0	0
2019/11/25 19:13:00	BASE	13.27	352	14.71	351	1.0	100	1.0	71	0	995.1	NA	0.0000		9999	1150	21420	0	0
2019/11/25 19:14:00	BASE	13.64	352	15.38	348	1.0	100	1.0	70	0	995.1	NA	0.0000		9999	1180	0	0	0
2019/11/25 19:15:00	BASE	13.79	355	15.64	352	1.0	100	1.0	71	0	995.1	NA	0.0000		9999	1150	0	0	0
2019/11/25 19:16:00	BASE	13.65	357	15.64	352	1.0	100	1.0	74	0	995.2	NA	0.0000		9999	1150	0	0	0
2019/11/25 19:17:00	BASE	12.84	358	15.64	352	1.0	100	1.0	80	0	995.3	NA	0.0000		9999	1210	0	0	0
2019/11/25 19:18:00	BASE	13.03	357	15.64	352	1.0	100	1.0	78	0	995.2	NA	0.0000		9999	1380	0	0	0
2019/11/25 19:19:00	BASE	13.32	352	15.64	352	1.0	100	1.0	74	0	995.3	NA	0.0000		9999	1180	0	0	0
2019/11/25 19:20:00	BASE	13.01	351	16.51	348	1.0	100	1.0	72	0	995.2	NA	0.0000		9999	1210	0	0	0
2019/11/25 19:21:00	BASE	13.12	351	16.51	348	1.0	100	1.0	69	0	995.2	NA	0.0000		9999	1250	0	0	0
2019/11/25 19:22:00	BASE	13.46	349	16.51	348	1.0	100	1.0	67	0	995.3	NA	0.0000		9999	1210	0	0	0
2019/11/25 19:23:00	BASE	13.29	350	16.51	348	1.0	100	1.0	68	0	995.3	NA	0.0000		9999	1180	0	0	0
2019/11/25 19:24:00	BASE	14.06	351	16.62	345	1.0	100	1.0	70	0	995.1	NA	0.0000		9999	1180	0	0	0
2019/11/25 19:25:00	BASE	14.25	354	16.62	345	1.0	100	1.0	70	0	995.2	NA	0.0000		9999	1180	0	0	0
2019/11/25 19:26:00	BASE	14.02	355	16.62	345	1.0	100	1.0	65	0	995.2	NA	0.0000		9999	1210	0	0	0
2019/11/25 19:27:00	BASE	13.60	353	16.62	345	1.0	100	1.0	67	0	995.3	NA	0.0000		9999	1150	0	0	0
2019/11/25 19:28:00	BASE	13.73	352	16.62	345	1.0	100	1.0	70	0	995.2	NA	0.0000		9999	1180	0	0	0
2019/11/25 19:29:00	BASE	14.47	354	16.62	345	1.0	100	1.0	72	0	995.2	NA	0.0000		9999	1210	0	0	0
2019/11/25 19:30:00	BASE	14.24	355	16.62	345	1.0	100	1.0	72	0	995.2	NA	0.0000		9999	1250	0	0	0
2019/11/25 19:31:00	BASE	15.19	352	18.42	346	1.0	100	1.0	72	0	995.1	NA	0.0000		9999	1150	0	0	0
2019/11/25 19:32:00	BASE	15.36	351	18.42	346	1.0	100	1.0	74	0	995.2	NA	0.0000		9999	1210	0	0	0
2019/11/25 19:33:00	BASE	15.28	352	18.42	346	1.0	100	1.0	71	0	995.1	NA	0.0000		9999	1180	0	0	0
2019/11/25 19:34:00	BASE	14.87	346	18.42	346	1.0	100	1.0	68	0	995.2	NA	0.0000		9999	1210	0	0	0
2019/11/25 19:35:00	BASE	13.97	346	18.42	346	1.0	100	1.0	70	0	995.2	NA	0.0000		9999	1120	0	0	0
2019/11/25 19:36:00	BASE	13.56	352	18.42	346	1.0	100	1.0	70	0	995.3	NA	0.0000		9999	1120	0	0	0
2019/11/25 19:37:00	BASE	13.03	352	18.42	346	1.0	100	1.0	70	0	995.4	NA	0.0000		9999	1050	0	0	0
2019/11/25 19:38:00	BASE	13.22	351	18.42	346	1.0	100	1.0	63	0	995.4	NA	0.0000		9999	1080	0	0	0
2019/11/25 19:39:00	BASE	13.90	352	18.42	346	1.0	100	1.0	61	0	995.3	NA	0.0000		9999	1020	0	0	0
2019/11/25 19:40:00	BASE	14.21	355	18.42	346	1.0	100	1.0	64	0	995.3	NA	0.0000		9999	980	21850	0	0
2019/11/25 19:41:00	BASE	14.04	356	18.06	345	1.0	100	1.0	70	0	995.3	NA	0.0000		9999	1020	0	0	0
2019/11/25 19:42:00	BASE	14.22	356	18.06	345	1.0	100	1.0	75	0	995.3	NA	0.0000		9999	950	0	0	0
2019/11/25 19:43:00	BASE	14.21	356	16.20	337	1.0	100	1.0	83	0	995.4	NA	0.0000		9999	1020	0	0	0
2019/11/25 19:44:00	BASE	13.46	355	16.20	337	1.0	100	1.0	85	0	995.4	NA	0.0000		9999	1080	0	0	0
2019/11/25 19:45:00	BASE	13.45	352	16.20	337	1.0	100	1.0	85	0	995.4	NA	0.0000		9999	1120	0	0	0
2019/11/25 19:46:00	BASE	13.87	347	16.20	337	1.0	100	1.0	84	0	995.4	NA	0.0000		9999	1150	0	0	0
2019/11/25 19:47:00	BASE	13.31	349	16.05	354	1.0	100	1.0	78	0	995.5	NA	0.0000		9999	1180	0	0	0
2019/11/25 19:48:00	BASE	13.62	348	16.05	354	1.0	100	1.0	73	0	995.4	NA	0.0000		9999	1120	0	0	0
2019/11/25 19:49:00	BASE	14.87	346	18.31	353	0.9	100	0.9	68	0	995.3	NA	0.0000		9999	1250	0	0	0
2019/11/25 19:50:00	BASE	14.98	346	18.31	353	0.9	100	0.9	71	0	995.4	NA	0.0000		9999	1250	0	0	0
2019/11/25 19:51:00	BASE	14.27	346	18.31	353	0.9	100	0.9	74	0	995.4	NA	0.0000		9999	1210	0	0	0
2019/11/25 19:52:00	BASE	13.69	350	18.31	353	0.9	100	0.9	79	0	995.4	NA	0.0000		9999	1250	0	0	0
2019/11/25 19:53:00	BASE	13.93	349	18.31	353	0.9	100	0.9	78	0	995.4	NA	0.0000		9999	1150	0	0	0
2019/11/25 19:54:00	BASE	14.51	352	18.31	353	0.9	100	0.9	75	0	995.4	NA	0.0000		9999	1180	0	0	0
2019/11/25 19:55:00	BASE	14.22	351	18.31	353	0.9	100	0.9	73	0	995.5	NA	0.0000		9999	1150	0	0	0
2019/11/25 19:56:00	BASE	14.37	351	18.31	353	0.9	100	0.9	72	0	995.4	NA	0.0000		9999	1180	0	0	0
2019/11/25 19:57:00	BASE	13.55	352	18.31	353	0.9	100	0.9	72	0	995.6	NA	0.0000		9999	1250	0	0	0
2019/11/25 19:58:00	BASE	12.86	350	18.31	353	0.9	100	0.9	77	0	995.5	NA	0.0000		9999	1120	0	0	0
2019/11/25 19:59:00	BASE	13.86	351	16.72	348	0.9	100	0.9	78	0	995.5	NA	0.0000		9999	1350	0	0	0
2019/11/25 20:00:00	BASE	13.96	351	16.72	348	0.9	100	0.9	79	0	995.6	NA	0.0000		9999	1210	0	0	0
2019/11/25 20:01:00	BASE	14.80	351	17.18	351	1.0	100	1.0	71	0	995.4	NA	0.0000		9999	1250	0	0	0
2019/11/25 20:02:00	BASE	15.90	352	18.67	232	1.0	100	1.0	72	0	995.5	NA	0.0000		9999	1120	0	0	0
2019/11/25 20:03:00	BASE	15.88	351	18.67	232	1.0	100	1.0	71	0	995.5	NA	0.0000		9999	1180	0	0	0
2019/11/25 20:04:00	BASE	14.63	351	18.67	232	1.0	100	1.0	66	0	995.5	NA	0.0000		9999	1150	0	0	0
2019/11/25 20:05:00	BASE	13.57	351	18.67	232	1.0	100	1.0	66	0	995.4	NA	0.0000		9999	1180	0	0	0
2019/11/25 20:06:00	BASE	13.97	351	18.67	232	1.0	100	1.0	66	0	995.6	NA	0.0000		9999	1120	21460	0	0
2019/11/25 20:07:00	BASE	13.79	349	18.67	232	1.0	100	1.0	72	0	995.6	NA	0.0000		9999	1180	0	0	0
2019/11/25 20:08:00	BASE	13.48	348	18.67	232	1.0	100	1.0	73	0	995.6	NA	0.0000		9999	1210	0	0	0
2019/11/25 20:09:00	BASE	14.33	350	18.67	232	1.0	100	1.0	72	0	995.5	NA	0.0000		9999	1210	0	0	0
2019/11/25 20:10:00	BASE	14.63	354	18.67	232	1.0	100	1.0	70	0	995.6	NA	0.0000		9999	1180	0	0	0
2019/11/25 20:11:00	BASE	14.87	353	18.67	232	1.0	100	1.0	71	0	995.5	NA	0.0000		9999	1150	0	0	0
2019/11/25 20:12:00	BASE	15.19	352	18.57	347	1.0	100	1.0	73	0	995.6	NA	0.0000		9999	1250	0	0	0
2019/11/25 20:13:00	BASE	14.65	351	18.57	347	1.0	100	1.0	79	0	995.6	NA	0.0000		9999	1280	0	0	0
2019/11/25 20:14:00	BASE	15.22	350	18.57	347	1.0	100	1.0	87	0	995.5	NA	0.0000		9999	1350	0	0	0
2019/11/25 20:15:00	BASE	15.63	351	18.57	347	1.0	100	1.0	76	0	995.6	NA	0.0000		9999	1380	0	0	0
2019/11/25 20:16:00	BASE	14.53	351	18.57	347	1.0	100	1.0	80	0	995.6	NA	0.0000		9999	1280	0	0	0
2019/11/25 20:17:00	BASE	14.98	354	18.57	347	1.0	100	1.0	83	0	995.5	NA	0.0000		9999	1120	0	0	0
2019/11/25 20:18:00	BASE	16.22	351	18.57	347	1.0	100	1.0	97	0	995.5	NA	0.0000		9999	1120	0	0	0
2019/11/25 20:19:00	BASE	15.12	352	18.57	347	1.0	100	1.0	99	0	995.7	NA	0.0000		9999	1180	0	0	0
2019/11/25 20:20:00	BASE	14.19	354	18.57	347	1.1	100	1.1	100	0	995.7	NA	0.0000		9999	1210	0	0	0
2019/11/25 20:21:00	BASE	14.19	356	18.52	348	1.1	100	1.1	93	0	995.7	NA	0.0000		9999	1180	0	0	0
2019/11/25 20:22:00	BASE	13.82	352	18.52	348	1.1	100	1.1	88	0	995.8	NA	0.0000		9999	1250	0	0	0
2019/11/25 20:23:00	BASE	14.24	349	18.52	348	1.1	100	1.1	84	0	995.8	NA	0.0000		9999	1150	0	0	0
2019/11/25 20:24:00	BASE	14.23	349	18.52	348	1.1	100	1.1	92	0	995.8	NA	0.0000		9999	1120	0	0	0
2019/11/25 20:25:00	BASE	13.05	350	18.52	348	1.1	100	1.1	106	0	995.9	NA	0.0000		9999	1080	0	0	0
2019/11/25 20:26:00	BASE	13.37	353	18.52	348	1.0	100	1.0	106	0	995.8	NA	0.0000		9999	1120	0	0	0
2019/11/25 20:27:00	BASE	13.85	351	18.52	348	1.0	100	1.0	98	0	995.8	NA	0.0000		9999	1210	0	0	0
2019/11/25 20:28:00	BASE	13.74	347	15.95	350	1.0	100	1.0	91	0	995.8	NA	0.0000		9999	1280	17360	0	0
2019/11/25 20:29:00	BASE	13.95	348	15.95	350	1.0	100	1.0	88	0	995.8	NA	0.0000		9999	1210	0	0	0
2019/11/25 20:30:00	BASE	13.73	349	15.95	350	1.0	100	1.0	87	0	995.9	NA	0.0000		9999	1150	0	0	0
2019/11/25 20:31:00	BASE	12.38	347	15.95	350	1.1	100	1.1	96	0	996.1	NA	0.0000		9999	1150	0	0	0
2019/11/25 20:32:00	BASE	11.83	349	15.95	350	1.0	100	1.0	104	0	996.0	NA	0.0000		9999	1080	0	0	0
2019/11/25 20:33:00	BASE	13.44	347	16.87	349	1.0	100	1.0	111	0	995.9	NA	0.0000		9999	1150	0	0	0
2019/11/25 20:34:00	BASE	14.22	347	16.87	349	1.0	100	1.0	104	0	996.0	NA	0.0000		9999	1150	0	0	0
2019/11/25 20:35:00	BASE	13.58	352	16.87	349	1.0	100	1.0	99	0	996.1	NA	0.0000		9999	1180	0	0	0
2019/11/25 20:36:00	BASE	12.17	352	16.87	349	1.0	100	1.0	98	0	996.2	NA	0.0000		9999	1120	0	0	0
2019/11/25 20:37:00	BASE	11.64	352	16.87	349	1.0	100	1.0	88	0	996.2	NA	0.0000		9999	1250	21850	0	0
2019/11/25 20:38:00	BASE	12.69	350	16.87	349	1.0	100	1.0	78	0	996.1	NA	0.0000		9999	1180	20870	0	0
2019/11/25 20:39:00	BASE	13.06	350	16.87	349	1.0	100	1.0	73	0	996.2	NA	0.0000		9999	1150	0	0	0
2019/11/25 20:40:00	BASE	12.95	353	16.87	349	1.0	100	1.0	73	0	996.2	NA	0.0000		9999	1150	0	0	0
2019/11/25 20:41:00	BASE	12.89	350	16.87	349	1.0	100	1.0	77	0	996.2	NA	0.0000		9999	1210	0	0	0
2019/11/25 20:42:00	BASE	12.28	350	16.87	349	1.0	100	1.0	81	0	996.3	NA	0.0000		9999	1210	0	0	0
2019/11/25 20:43:00	BASE	12.22	356	14.97	344	1.0	100	1.0	72	0	996.3	NA	0.0000		9999	1310	0	0	0
2019/11/25 20:44:00	BASE	12.48	358	14.76	347	1.0	100	1.0	66	0	996.3	NA	0.0000		9999	1120	0	0	0
2019/11/25 20:45:00	BASE	12.43	353	14.71	346	1.0	100	1.0	69	0	996.3	NA	0.0000		9999	1150	0	0	0
2019/11/25 20:46:00	BASE	12.87	354	14.71	346	1.0	100	1.0	67	0	996.3	NA	0.0000		9999	1210	0	0	0
2019/11/25 20:47:00	BASE	13.19	352	14.71	346	1.0	100	1.0	63	0	996.3	NA	0.0000		9999	1210	0	0	0
2019/11/25 20:48:00	BASE	13.24	343	14.76	345	1.0	100	1.0	62	0	996.4	NA	0.0000		9999	1210	0	0	0
2019/11/25 20:49:00	BASE	13.14	345	16.20	345	1.0	100	1.0	61	0	996.4	NA	0.0000		9999	1210	0	0	0
2019/11/25 20:50:00	BASE	13.63	349	16.72	346	1.0	100	1.0	60	0	996.3	NA	0.0000		9999	1310	0	0	0
2019/11/25 20:51:00	BASE	14.75	348	17.03	352	0.9	100	0.9	54	0	996.3	NA	0.0000		9999	1310	0	0	0
2019/11/25 20:52:00	BASE	14.98	351	17.03	352	0.9	100	0.9	54	0	996.4	NA	0.0000		9999	1150	0	0	0
2019/11/25 20:53:00	BASE	14.39	354	17.03	352	0.9	100	0.9	57	0	996.4	NA	0.0000		9999	1180	0	0	0
2019/11/25 20:54:00	BASE	13.10	350	17.03	352	1.0	100	1.0	56	0	996.6	NA	0.0000		9999	1310	0	0	0
2019/11/25 20:55:00	BASE	12.20	348	17.03	352	0.9	100	0.9	58	0	996.6	NA	0.0000		9999	1180	0	0	0
2019/11/25 20:56:00	BASE	13.44	351	17.03	352	0.9	100	0.9	62	0	996.5	NA	0.0000		9999	1280	0	0	0
2019/11/25 20:57:00	BASE	14.05	351	17.03	352	1.0	100	1.0	65	0	996.6	NA	0.0000		9999	1150	0	0	0
2019/11/25 20:58:00	BASE	13.45	352	17.03	352	1.0	100	1.0	60	0	996.6	NA	0.0000		9999	1280	0	0	0
2019/11/25 20:59:00	BASE	14.13	351	17.03	352	1.0	100	1.0	58	0	996.5	NA	0.0000		9999	1150	0	0	0
2019/11/25 21:00:00	BASE	14.86	347	17.03	352	1.0	100	1.0	62	0	996.6	NA	0.0000		9999	1150	0	0	0
2019/11/25 21:01:00	BASE	14.35	345	16.82	348	1.0	100	1.0	62	0	996.7	NA	0.0000		9999	1350	0	0	0
2019/11/25 21:02:00	BASE	13.58	348	16.82	348	1.0	100	1.0	59	0	996.7	NA	0.0000		9999	1280	0	0	0
2019/11/25 21:03:00	BASE	12.58	353	16.82	348	1.0	100	1.0	56	0	996.8	NA	0.0000		9999	1180	0	0	0
2019/11/25 21:04:00	BASE	12.65	352	16.82	348	0.9	100	0.9	55	0	996.7	NA	0.0000		9999	1250	0	0	0
2019/11/25 21:05:01	BASE	13.50	350	16.82	348	0.9	100	0.9	54	0	996.8	NA	0.0000		9999	1350	0	0	0
2019/11/25 21:06:00	BASE	13.10	351	16.62	351	0.9	100	0.9	53	0	996.8	NA	0.0000		9999	1380	0	0	0
2019/11/25 21:07:00	BASE	13.15	350	16.62	351	0.9	100	0.9	54	0	996.8	NA	0.0000		9999	1440	0	0	0
2019/11/25 21:08:00	BASE	13.49	350	16.62	351	0.9	100	0.9	56	0	996.8	NA	0.0000		9999	1380	0	0	0
2019/11/25 21:09:00	BASE	13.66	351	15.95	343	0.9	100	0.9	58	0	996.9	NA	0.0000		9999	1480	0	0	0
2019/11/25 21:10:00	BASE	13.05	348	15.48	353	0.9	100	0.9	56	0	997.0	NA	0.0000		9999	1480	0	0	0
2019/11/25 21:11:00	BASE	12.54	347	15.74	349	0.9	100	0.9	55	0	996.9	NA	0.0000		9999	1410	0	0	0
2019/11/25 21:12:00	BASE	13.60	353	15.74	349	0.9	100	0.9	57	0	996.8	NA	0.0000		9999	1410	0	0	0
2019/11/25 21:13:00	BASE	13.08	358	15.74	349	0.9	100	0.9	62	0	997.0	NA	0.0000		9999	1380	0	0	0
2019/11/25 21:14:00	BASE	12.19	356	15.74	349	0.9	100	0.9	63	0	997.0	NA	0.0000		9999	1480	0	0	0
2019/11/25 21:15:00	BASE	12.41	352	15.74	349	0.9	100	0.9	63	0	997.0	NA	0.0000		9999	1250	0	0	0
2019/11/25 21:16:00	BASE	11.85	352	15.74	349	0.9	100	0.9	62	0	997.0	NA	0.0000		9999	1210	0	0	0
2019/11/25 21:17:00	BASE	12.15	352	15.95	341	0.9	100	0.9	63	0	997.0	NA	0.0000		9999	1180	0	0	0
2019/11/25 21:18:00	BASE	12.72	350	15.95	341	0.9	100	0.9	62	0	997.0	NA	0.0000		9999	1250	0	0	0
2019/11/25 21:19:00	BASE	12.09	349	15.95	341	0.9	100	0.9	61	0	997.0	NA	0.0000		9999	1210	0	0	0
2019/11/25 21:20:00	BASE	11.59	353	15.95	341	0.9	100	0.9	58	0	997.1	NA	0.0000		9999	1210	0	0	0
2019/11/25 21:21:00	BASE	11.46	353	15.95	341	0.9	100	0.9	54	0	997.1	NA	0.0000		9999	1280	0	0	0
2019/11/25 21:22:00	BASE	12.64	352	17.34	352	0.9	100	0.9	48	0	996.9	NA	0.0000		9999	1280	0	0	0
2019/11/25 21:23:00	BASE	13.44	351	17.34	352	0.9	100	0.9	48	0	997.0	NA	0.0000		9999	1280	0	0	0
2019/11/25 21:24:00	BASE	12.66	351	17.34	352	0.9	100	0.9	50	0	997.1	NA	0.0000		9999	1510	0	0	0
2019/11/25 21:25:00	BASE	13.11	351	17.34	352	1.0	100	0.9	51	0	997.0	NA	0.0000		9999	1380	0	0	0
2019/11/25 21:26:00	BASE	13.91	348	17.34	352	1.0	100	0.9	52	0	997.0	NA	0.0000		9999	1480	0	0	0
2019/11/25 21:27:00	BASE	13.25	347	17.34	352	1.0	99	0.9	50	0	997.1	NA	0.0000		9999	1610	0	0	0
2019/11/25 21:28:00	BASE	13.08	350	17.34	352	0.9	99	0.8	48	0	997.1	NA	0.0000		9999	1480	0	0	0
2019/11/25 21:29:00	BASE	13.34	352	17.34	352	0.9	99	0.8	47	0	997.1	NA	0.0000		9999	1440	0	0	0
2019/11/25 21:30:00	BASE	12.96	353	17.34	352	0.9	99	0.8	48	0	997.2	NA	0.0000		9999	1350	0	0	0
2019/11/25 21:31:00	BASE	11.93	354	17.34	352	0.9	99	0.8	48	0	997.3	NA	0.0000		9999	1380	0	0	0
2019/11/25 21:32:00	BASE	11.16	352	16.05	338	0.9	99	0.8	49	0	997.3	NA	0.0000		9999	1570	0	0	0
2019/11/25 21:33:00	BASE	10.83	351	16.05	338	0.9	99	0.8	50	0	997.4	NA	0.0000		9999	1480	0	0	0
2019/11/25 21:34:00	BASE	11.47	352	16.05	338	0.9	99	0.8	50	0	997.2	NA	0.0000		9999	1540	0	0	0
2019/11/25 21:35:00	BASE	12.76	353	16.05	338	0.9	99	0.8	48	0	997.2	NA	0.0000		9999	1440	0	0	0
2019/11/25 21:36:00	BASE	11.91	352	15.54	351	0.9	99	0.8	44	0	997.4	NA	0.0000		9999	1480	0	0	0
2019/11/25 21:37:00	BASE	11.03	348	15.54	351	0.9	99	0.8	42	0	997.4	NA	0.0000		9999	1510	0	0	0
2019/11/25 21:38:00	BASE	10.78	347	15.02	344	0.9	99	0.8	41	0	997.5	NA	0.0000		9999	1510	0	0	0
2019/11/25 21:39:00	BASE	10.78	350	15.02	344	0.9	99	0.8	41	0	997.4	NA	0.0000		9999	1510	0	0	0
2019/11/25 21:40:00	BASE	11.23	355	14.10	348	0.9	99	0.7	41	0	997.5	NA	0.0000		9999	1440	0	0	0
2019/11/25 21:41:00	BASE	10.67	357	14.10	348	1.0	98	0.7	42	0	997.5	NA	0.0000		9999	1440	0	0	0
2019/11/25 21:42:00	BASE	11.63	353	14.40	1	1.0	98	0.7	44	0	997.4	NA	0.0000		9999	1410	0	0	0
2019/11/25 21:43:00	BASE	12.20	350	14.40	1	1.0	98	0.7	46	0	997.5	NA	0.0000		9999	1410	0	0	0
2019/11/25 21:44:00	BASE	11.82	349	14.40	1	1.0	98	0.7	44	0	997.4	NA	0.0000		9999	1380	0	0	0
2019/11/25 21:45:00	BASE	11.94	346	14.40	1	1.0	98	0.7	39	0	997.5	NA	0.0000		9999	1380	0	0	0
2019/11/25 21:46:00	BASE	10.57	349	14.40	1	1.0	98	0.7	36	0	997.6	NA	0.0000		9999	1350	0	0	0
2019/11/25 21:47:00	BASE	10.07	354	14.40	1	1.0	98	0.7	35	0	997.6	NA	0.0000		9999	1310	0	0	0
2019/11/25 21:48:00	BASE	10.82	352	14.40	1	1.0	98	0.7	36	0	997.6	NA	0.0000		9999	1350	0	0	0
2019/11/25 21:49:00	BASE	10.85	351	14.40	1	1.0	97	0.7	35	0	997.6	NA	0.0000		9999	1350	0	0	0
2019/11/25 21:50:00	BASE	10.70	355	14.40	1	1.0	97	0.6	36	0	997.6	NA	0.0000		9999	1310	0	0	0
2019/11/25 21:51:00	BASE	11.23	355	14.40	1	1.0	97	0.6	36	0	997.6	NA	0.0000		9999	1380	0	0	0
2019/11/25 21:52:00	BASE	12.12	354	14.71	360	1.0	97	0.6	36	0	997.5	NA	0.0000		9999	1380	0	0	0
2019/11/25 21:53:00	BASE	12.34	355	14.71	360	1.0	97	0.7	35	0	997.6	NA	0.0000		9999	1310	0	0	0
2019/11/25 21:54:00	BASE	12.52	356	14.71	360	1.0	98	0.7	35	0	997.6	NA	0.0000		9999	1280	0	0	0
2019/11/25 21:55:00	BASE	12.52	357	14.71	360	1.0	98	0.7	34	0	997.7	NA	0.0000		9999	1250	0	0	0
2019/11/25 21:56:00	BASE	11.35	354	14.71	360	1.0	98	0.7	37	0	997.8	NA	0.0000		9999	1250	0	0	0
2019/11/25 21:57:00	BASE	10.71	349	14.71	360	1.0	98	0.7	37	0	997.8	NA	0.0000		9999	1350	0	0	0
2019/11/25 21:58:00	BASE	10.37	347	14.71	360	1.0	98	0.7	37	0	997.8	NA	0.0000		9999	1310	0	0	0
2019/11/25 21:59:00	BASE	11.13	354	14.82	1	1.0	98	0.7	37	0	997.7	NA	0.0000		9999	1250	0	0	0
2019/11/25 22:00:00	BASE	11.99	355	14.82	1	1.0	98	0.7	39	0	997.8	NA	0.0000		9999	1250	0	0	0
2019/11/25 22:01:00	BASE	11.08	351	14.82	1	1.0	98	0.7	41	0	997.9	NA	0.0000		9999	1250	0	0	0
2019/11/25 22:02:00	BASE	10.72	353	14.82	1	1.0	98	0.7	43	0	997.9	NA	0.0000		9999	1280	0	0	0
2019/11/25 22:03:00	BASE	11.41	353	14.82	1	1.0	98	0.8	39	0	997.8	NA	0.0000		9999	1540	0	0	0
2019/11/25 22:04:00	BASE	11.68	349	14.82	1	1.0	99	0.8	35	0	997.8	NA	0.0000		9999	1310	0	0	0
2019/11/25 22:05:00	BASE	11.52	347	14.82	1	1.0	99	0.8	34	0	997.8	NA	0.0000		9999	1310	0	0	0
2019/11/25 22:06:00	BASE	11.80	347	14.82	1	1.0	99	0.9	34	0	997.8	NA	0.0000		9999	1250	0	0	0
2019/11/25 22:07:00	BASE	12.13	346	14.82	1	1.0	99	0.8	35	0	997.8	NA	0.0000		9999	1350	0	0	0
2019/11/25 22:08:00	BASE	11.69	348	14.82	1	1.0	99	0.8	34	0	997.9	NA	0.0000		9999	1310	0	0	0
2019/11/25 22:09:00	BASE	11.43	350	13.89	347	0.9	98	0.7	37	0	997.8	NA	0.0000		9999	1280	0	0	0
2019/11/25 22:10:00	BASE	12.24	354	14.30	352	0.9	98	0.7	36	0	997.8	NA	0.0000		9999	1280	1900	0	0
2019/11/25 22:11:00	BASE	12.42	352	14.30	352	0.9	98	0.7	37	0	997.8	NA	0.0000		9999	1210	0	0	0
2019/11/25 22:12:00	BASE	11.21	350	14.30	352	1.0	98	0.7	38	0	997.9	NA	0.0000		9999	1210	0	0	0
2019/11/25 22:13:00	BASE	10.60	350	14.30	352	1.0	98	0.7	41	0	997.9	NA	0.0000		9999	1250	0	0	0
2019/11/25 22:14:00	BASE	11.63	347	14.30	352	1.0	98	0.7	45	0	997.8	NA	0.0000		9999	1250	1800	0	0
2019/11/25 22:15:00	BASE	11.95	347	14.30	352	1.0	98	0.7	49	0	997.9	NA	0.0000		9999	1570	0	0	0
2019/11/25 22:16:00	BASE	11.41	346	14.30	352	1.0	98	0.7	47	0	997.9	NA	0.0000		9999	1640	0	0	0
2019/11/25 22:17:00	BASE	11.45	348	14.30	352	0.9	98	0.7	44	0	997.9	NA	0.0000		9999	1350	0	0	0
2019/11/25 22:18:00	BASE	11.56	348	14.30	352	0.9	98	0.6	43	0	998.0	NA	0.0000		9999	1350	0	0	0
2019/11/25 22:19:00	BASE	11.29	351	14.30	352	0.9	98	0.6	46	0	998.0	NA	0.0000		9999	1350	0	0	0
2019/11/25 22:20:00	BASE	11.02	351	13.84	348	0.9	98	0.6	54	0	997.9	NA	0.0000		9999	1310	0	0	0
2019/11/25 22:21:00	BASE	11.60	347	13.84	348	0.9	98	0.6	62	0	997.8	NA	0.0000		9999	1440	0	0	0
2019/11/25 22:22:00	BASE	11.94	348	13.84	348	0.9	98	0.6	71	0	997.9	NA	0.0000		9999	1440	0	0	0
2019/11/25 22:23:00	BASE	11.29	350	13.84	348	0.9	98	0.6	69	0	997.9	NA	0.0000		9999	1710	17260	0	0
2019/11/25 22:24:00	BASE	11.02	350	13.17	349	0.9	98	0.6	62	0	997.9	NA	0.0000		9999	1640	0	0	0
2019/11/25 22:25:00	BASE	11.58	348	13.17	349	0.9	98	0.6	59	0	997.9	NA	0.0000		9999	1640	0	0	0
2019/11/25 22:26:00	BASE	11.68	344	13.17	349	0.9	98	0.6	62	0	998.0	NA	0.0000		9999	1640	0	0	0
2019/11/25 22:27:00	BASE	11.47	344	13.17	349	0.9	98	0.6	67	0	998.0	NA	0.0000		9999	1640	0	0	0
2019/11/25 22:28:00	BASE	11.59	343	13.17	349	0.9	98	0.6	68	0	998.0	NA	0.0000		9999	1770	0	0	0
2019/11/25 22:29:00	BASE	11.86	344	13.17	345	0.9	98	0.6	69	0	997.9	NA	0.0000		9999	1840	0	0	0
2019/11/25 22:30:00	BASE	11.79	344	13.17	345	0.9	98	0.6	68	0	997.9	NA	0.0000		9999	1570	0	0	0
2019/11/25 22:31:00	BASE	11.70	347	13.17	345	0.9	98	0.6	81	0	997.9	NA	0.0000		9999	1640	0	0	0
2019/11/25 22:32:00	BASE	11.58	349	13.17	345	0.9	98	0.7	73	0	998.0	NA	0.0000		9999	1310	0	0	0
2019/11/25 22:33:00	BASE	11.45	349	13.17	345	0.9	98	0.7	84	0	997.9	NA	0.0000		9999	1310	0	0	0
2019/11/25 22:34:00	BASE	11.60	349	13.17	345	0.9	98	0.7	88	0	998.0	NA	0.0000		9999	1250	2070	0	0
2019/11/25 22:35:00	BASE	11.14	349	13.17	345	1.0	98	0.7	98	0	998.0	NA	0.0000		9999	1310	2230	0	0
2019/11/25 22:36:00	BASE	11.59	354	13.17	345	1.0	98	0.7	93	0	998.0	NA	0.0000		9999	1380	1940	0	0
2019/11/25 22:37:00	BASE	11.62	0	13.17	345	1.0	98	0.7	91	0	998.1	NA	0.0000		9999	1310	0	0	0
2019/11/25 22:38:00	BASE	11.10	355	13.17	345	1.0	98	0.7	83	0	998.1	NA	0.0000		9999	1210	0	0	0
2019/11/25 22:39:00	BASE	10.67	348	13.12	349	1.0	98	0.7	75	0	998.2	NA	0.0000		9999	1280	1940	0	0
2019/11/25 22:40:00	BASE	10.60	347	13.07	349	1.0	98	0.7	70	0	998.1	NA	0.0000		9999	1480	2360	0	0
2019/11/25 22:41:00	BASE	11.61	349	13.27	348	1.0	98	0.7	71	0	998.2	NA	0.0000		9999	1310	0	0	0
2019/11/25 22:42:00	BASE	11.53	347	13.27	348	1.0	98	0.7	68	0	998.2	NA	0.0000		9999	1310	0	0	0
2019/11/25 22:43:00	BASE	11.54	345	13.27	348	1.0	98	0.7	65	0	998.2	NA	0.0000		9999	1440	0	0	0
2019/11/25 22:44:00	BASE	11.83	345	13.27	348	1.0	98	0.7	61	0	998.2	NA	0.0000		9999	1280	0	0	0
2019/11/25 22:45:00	BASE	11.83	345	13.27	348	1.0	98	0.7	61	0	998.2	NA	0.0000		9999	1350	0	0	0
2019/11/25 22:46:00	BASE	11.34	346	13.27	348	1.0	98	0.7	62	0	998.3	NA	0.0000		9999	1350	0	0	0
2019/11/25 22:47:00	BASE	11.00	346	13.48	348	1.0	98	0.7	67	0	998.3	NA	0.0000		9999	1440	0	0	0
2019/11/25 22:48:00	BASE	11.14	345	13.48	348	1.0	98	0.7	63	0	998.3	NA	0.0000		9999	1570	0	0	0
2019/11/25 22:49:00	BASE	10.80	345	13.48	348	1.0	98	0.7	63	0	998.3	NA	0.0000		9999	1280	1940	0	0
2019/11/25 22:50:00	BASE	10.89	348	13.48	348	0.9	98	0.7	67	0	998.3	NA	0.0000		9999	1180	0	0	0
2019/11/25 22:51:00	BASE	11.51	343	13.48	348	0.9	98	0.7	67	0	998.3	NA	0.0000		9999	1870	2760	0	0
2019/11/25 22:52:00	BASE	11.33	343	13.48	348	0.9	99	0.7	69	0	998.4	NA	0.0000		9999	1380	2100	0	0
2019/11/25 22:53:00	BASE	10.42	347	13.48	348	0.9	99	0.8	70	0	998.5	NA	0.0000		9999	1210	2030	0	0
2019/11/25 22:54:00	BASE	10.01	349	13.48	348	0.9	99	0.8	71	0	998.5	NA	0.0000		9999	1280	2490	0	0
2019/11/25 22:55:00	BASE	10.11	348	13.48	348	0.9	99	0.8	69	0	998.5	NA	0.0000		9999	1380	2490	0	0
2019/11/25 22:56:00	BASE	10.01	348	13.48	348	0.9	99	0.8	65	0	998.6	NA	0.0000		9999	1310	2530	0	0
2019/11/25 22:57:00	BASE	9.28	348	12.76	348	1.0	99	0.8	62	0	998.6	NA	0.0000		9999	1350	0	0	0
2019/11/25 22:58:00	BASE	9.10	348	12.76	348	1.0	99	0.8	61	0	998.7	NA	0.0000		9999	1480	2820	0	0
2019/11/25 22:59:00	BASE	9.53	348	12.76	348	1.0	99	0.9	59	0	998.7	NA	0.0000		9999	1480	2760	0	0
2019/11/25 23:00:00	BASE	9.82	348	12.76	348	1.0	99	0.8	59	0	998.7	NA	0.0000		9999	1280	0	0	0
2019/11/25 23:01:00	BASE	9.35	348	11.78	345	1.0	99	0.8	57	0	998.8	NA	0.0000		9999	1770	2690	0	0
2019/11/25 23:02:00	BASE	8.85	348	11.52	352	1.0	99	0.8	55	0	998.8	NA	0.0000		9999	2690	0	0	0
2019/11/25 23:03:00	BASE	9.03	350	11.52	352	0.9	99	0.8	52	0	998.8	NA	0.0000		9999	2690	0	0	0
2019/11/25 23:04:00	BASE	9.52	349	11.52	352	0.9	99	0.8	49	0	998.8	NA	0.0000		9999	2720	0	0	0
2019/11/25 23:05:00	BASE	9.19	347	11.52	352	0.9	99	0.8	46	0	998.9	NA	0.0000		9999	1610	2690	0	0
2019/11/25 23:06:00	BASE	8.42	347	11.52	352	0.9	99	0.8	46	0	998.9	NA	0.0000		9999	1440	0	0	0
2019/11/25 23:07:00	BASE	8.72	346	11.52	352	0.9	99	0.8	46	0	998.9	NA	0.0000		9999	1440	0	0	0
2019/11/25 23:08:00	BASE	8.93	348	11.52	352	0.9	99	0.8	47	0	999.0	NA	0.0000		9999	1440	2690	0	0
2019/11/25 23:09:00	BASE	9.03	349	10.91	342	1.0	99	0.8	47	0	999.0	NA	0.0000		9999	2590	0	0	0
2019/11/25 23:10:00	BASE	9.17	347	10.91	342	1.0	99	0.8	47	0	999.0	NA	0.0000		9999	1280	2590	0	0
2019/11/25 23:11:00	BASE	8.95	348	10.91	342	1.0	99	0.8	47	0	999.0	NA	0.0000		9999	2530	0	0	0
2019/11/25 23:12:00	BASE	8.80	349	10.91	342	1.0	99	0.8	45	0	999.0	NA	0.0000		9999	2560	0	0	0
2019/11/25 23:13:00	BASE	9.50	349	11.27	351	1.0	99	0.8	44	0	999.0	NA	0.0000		9999	2530	0	0	0
2019/11/25 23:14:00	BASE	9.76	348	11.27	351	1.0	99	0.8	43	0	999.0	NA	0.0000		9999	2560	0	0	0
2019/11/25 23:15:00	BASE	8.97	345	11.27	351	1.0	99	0.8	41	0	999.1	NA	0.0000		9999	2530	0	0	0
2019/11/25 23:16:00	BASE	8.52	349	11.27	351	1.0	99	0.8	39	0	999.1	NA	0.0000		9999	2490	0	0	0
2019/11/25 23:17:00	BASE	8.46	353	11.27	351	1.0	99	0.9	39	0	999.1	NA	0.0000		9999	2530	0	0	0
2019/11/25 23:18:00	BASE	8.27	352	11.27	351	1.0	99	0.9	38	0	999.1	NA	0.0000		9999	2360	0	0	0
2019/11/25 23:19:00	BASE	8.52	346	11.27	351	1.0	99	0.9	38	0	999.1	NA	0.0000		9999	2530	0	0	0
2019/11/25 23:20:00	BASE	9.09	345	11.27	351	1.0	99	0.9	37	0	999.1	NA	0.0000		9999	2330	0	0	0
2019/11/25 23:21:00	BASE	9.61	350	11.27	351	1.0	99	0.9	37	0	999.0	NA	0.0000		9999	2530	0	0	0
2019/11/25 23:22:00	BASE	10.13	350	11.27	351	1.0	99	0.9	36	0	999.1	NA	0.0000		9999	2490	0	0	0
2019/11/25 23:23:00	BASE	10.14	349	11.06	347	1.0	99	0.9	34	0	999.1	NA	0.0000		9999	2430	0	0	0
2019/11/25 23:24:00	BASE	9.85	344	11.11	349	1.0	99	0.9	33	0	999.1	NA	0.0000		9999	2530	0	0	0
2019/11/25 23:25:00	BASE	9.10	339	11.11	349	1.0	99	0.9	34	0	999.1	NA	0.0000		9999	2560	0	0	0
2019/11/25 23:26:00	BASE	9.32	346	11.11	349	1.0	99	0.9	38	0	999.1	NA	0.0000		9999	2530	0	0	0
2019/11/25 23:27:00	BASE	9.99	347	11.11	349	1.0	99	0.9	42	0	999.1	NA	0.0000		9999	2460	0	0	0
2019/11/25 23:28:00	BASE	9.49	349	11.11	349	1.0	99	0.9	43	0	999.2	NA	0.0000		9999	2490	0	0	0
2019/11/25 23:29:00	BASE	8.87	350	11.11	349	1.0	99	0.9	43	0	999.2	NA	0.0000		9999	2490	0	0	0
2019/11/25 23:30:00	BASE	8.52	345	11.11	349	1.0	99	0.8	43	0	999.2	NA	0.0000		9999	2460	0	0	0
2019/11/25 23:31:00	BASE	8.50	347	11.11	349	1.0	99	0.8	44	0	999.2	NA	0.0000		9999	2530	0	0	0
2019/11/25 23:32:00	BASE	8.44	346	11.11	349	0.9	99	0.8	44	0	999.2	NA	0.0000		9999	2560	0	0	0
2019/11/25 23:33:00	BASE	8.18	346	11.11	349	0.9	99	0.8	43	0	999.2	NA	0.0000		9999	2590	0	0	0
2019/11/25 23:34:00	BASE	8.17	349	10.80	342	0.9	99	0.8	42	0	999.2	NA	0.0000		9999	2530	0	0	0
2019/11/25 23:35:01	BASE	8.06	348	10.80	342	0.9	99	0.8	40	0	999.2	NA	0.0000		9999	2530	0	0	0
2019/11/25 23:36:00	BASE	7.99	348	10.80	342	0.9	99	0.8	40	0	999.2	NA	0.0000		9999	2360	0	0	0
2019/11/25 23:37:00	BASE	8.14	350	10.08	350	0.9	99	0.8	40	0	999.2	NA	0.0000		9999	2400	0	0	0
2019/11/25 23:38:00	BASE	8.50	351	10.24	348	0.9	100	0.8	38	0	999.2	NA	0.0000		9999	2360	0	0	0
2019/11/25 23:39:00	BASE	8.36	347	10.24	348	0.9	100	0.9	36	0	999.2	NA	0.0000		9999	2430	0	0	0
2019/11/25 23:40:00	BASE	8.15	353	10.24	348	0.9	100	0.9	35	0	999.3	NA	0.0000		9999	2430	0	0	0
2019/11/25 23:41:00	BASE	8.57	357	10.24	348	1.0	100	0.9	32	0	999.3	NA	0.0000		9999	2400	0	0	0
2019/11/25 23:42:00	BASE	8.88	351	10.24	348	1.0	99	0.9	31	0	999.3	NA	0.0000		9999	2360	0	0	0
2019/11/25 23:43:00	BASE	8.61	350	10.24	348	1.0	99	0.9	30	0	999.4	NA	0.0000		9999	2430	0	0	0
2019/11/25 23:44:00	BASE	8.41	349	10.24	348	1.0	99	0.9	29	0	999.4	NA	0.0000		9999	2400	0	0	0
2019/11/25 23:45:00	BASE	8.10	351	10.24	348	1.1	99	0.9	27	0	999.5	NA	0.0000		9999	2360	0	0	0
2019/11/25 23:46:00	BASE	8.03	352	10.24	348	1.1	99	0.9	26	0	999.4	NA	0.0000		9999	2300	0	0	0
2019/11/25 23:47:00	BASE	8.45	350	10.24	348	1.1	98	0.9	26	0	999.4	NA	0.0000		9999	2330	0	0	0
2019/11/25 23:48:00	BASE	8.31	348	9.93	350	1.1	98	0.8	25	0	999.5	NA	0.0000		9999	2300	0	0	0
2019/11/25 23:49:00	BASE	8.25	351	9.93	350	1.1	98	0.8	25	0	999.4	NA	0.0000		9999	2170	0	0	0
2019/11/25 23:50:00	BASE	8.53	353	9.93	350	1.1	98	0.8	25	0	999.5	NA	0.0000		9999	2260	0	0	0
2019/11/25 23:51:00	BASE	8.83	352	10.08	346	1.1	98	0.8	25	0	999.5	NA	0.0000		9999	2300	0	0	0
2019/11/25 23:52:00	BASE	8.39	353	10.08	346	1.1	97	0.7	25	0	999.6	NA	0.0000		9999	2300	0	0	0
2019/11/25 23:53:00	BASE	7.66	355	10.08	346	1.2	97	0.7	24	0	999.6	NA	0.0000		9999	2170	0	0	0
2019/11/25 23:54:00	BASE	8.02	358	10.08	346	1.2	96	0.7	24	0	999.5	NA	0.0000		9999	2130	0	0	0
2019/11/25 23:55:00	BASE	8.24	358	10.08	346	1.2	96	0.7	22	0	999.6	NA	0.0000		9999	2260	0	0	0
2019/11/25 23:56:00	BASE	7.84	350	10.08	346	1.2	96	0.6	20	0	999.6	NA	0.0000		9999	2260	0	0	0
2019/11/25 23:57:00	BASE	7.70	351	10.08	346	1.2	96	0.6	19	0	999.6	NA	0.0000		9999	2300	0	0	0
2019/11/25 23:58:00	BASE	7.61	1	10.08	346	1.2	95	0.5	19	0	999.6	NA	0.0000		9999	2300	0	0	0
2019/11/25 23:59:00	BASE	7.95	358	10.08	346	1.2	95	0.5	20	0	999.5	NA	0.0000		9999	2330	0	0	0